ftp/pub/palmer/observations_modified/2019/December/AR191201_BASE.txt

Download

Sample DateTime	Unit Id	WS Avg 2min	WD Avg 2min	WGS 10min	WGD 10min	Air Temp	Rel Humidity	Dew Point	Pyranometer	Quantum	Air Pressure	Snow Level	Rainfall	PW Current	Visibility	CBase 1	CBase 2	CBase 3	Vert Vis
2019/12/01 00:00:00	BASE	0.54	233	2.11	224	-2.6	100	-2.6	26	0	993.5	NA	0.0000	FZFG	0350	0	0	0	230
2019/12/01 00:01:00	BASE	0.00	236	2.11	224	-2.6	100	-2.6	26	0	993.5	NA	0.0000	FZFG	0350	0	0	0	230
2019/12/01 00:02:00	BASE	0.00	217	2.11	224	-2.6	100	-2.6	27	0	993.5	NA	0.0000	FZFG	0350	0	0	0	230
2019/12/01 00:03:00	BASE	0.00	191	2.11	224	-2.6	100	-2.6	26	0	993.5	NA	0.0000	FZFG	0350	0	0	0	230
2019/12/01 00:04:00	BASE	0.00	175	2.11	224	-2.6	100	-2.6	25	0	993.5	NA	0.0000	FZFG	0400	0	0	0	230
2019/12/01 00:05:00	BASE	0.00	171	2.11	224	-2.6	100	-2.6	25	0	993.5	NA	0.0000	FZFG	0400	0	0	0	230
2019/12/01 00:06:00	BASE	0.00	171	2.11	224	-2.6	100	-2.6	25	0	993.5	NA	0.0000	FZFG	0300	0	0	0	300
2019/12/01 00:07:00	BASE	0.00	172	1.49	223	-2.6	100	-2.6	25	0	993.5	NA	0.0000	FZFG	0400	0	0	0	330
2019/12/01 00:08:00	BASE	0.00	161	1.39	220	-2.6	100	-2.6	24	0	993.5	NA	0.0000	FZFG	0600	0	0	0	330
2019/12/01 00:09:00	BASE	0.00	162	M	M	-2.5	100	-2.5	23	0	993.5	NA	0.0000	FZFG	0800	0	0	0	330
2019/12/01 00:10:00	BASE	0.00	181	M	M	-2.5	100	-2.5	23	0	993.5	NA	0.0000	FZFG	1100	0	0	0	300
2019/12/01 00:11:00	BASE	0.00	182	M	M	-2.5	100	-2.5	23	0	993.5	NA	0.0000	FZFG	0550	0	0	0	300
2019/12/01 00:12:00	BASE	0.00	197	M	M	-2.5	100	-2.5	22	0	993.5	NA	0.0000	FZFG	0600	0	0	0	300
2019/12/01 00:13:00	BASE	0.00	233	M	M	-2.4	100	-2.4	22	0	993.5	NA	0.0000	FZFG	0500	0	0	0	260
2019/12/01 00:14:00	BASE	0.00	209	M	M	-2.4	100	-2.4	21	0	993.5	NA	0.0000	FZFG	0550	0	0	0	260
2019/12/01 00:15:00	BASE	0.00	156	M	M	-2.5	100	-2.5	22	0	993.6	NA	0.0000	FZFG	0700	0	0	0	300
2019/12/01 00:16:00	BASE	0.00	152	M	M	-2.4	100	-2.4	22	0	993.6	NA	0.0000	FZFG	0600	0	0	0	300
2019/12/01 00:17:00	BASE	0.00	158	M	M	-2.4	100	-2.4	23	0	993.6	NA	0.0000	FZFG	0700	0	0	0	330
2019/12/01 00:18:00	BASE	0.00	139	M	M	-2.4	100	-2.4	23	0	993.6	NA	0.0000	FZFG	0800	0	0	0	330
2019/12/01 00:19:00	BASE	0.00	111	M	M	-2.4	100	-2.4	23	0	993.6	NA	0.0000	FZFG	0650	0	0	0	260
2019/12/01 00:20:00	BASE	0.00	105	M	M	-2.4	100	-2.4	23	0	993.6	NA	0.0000	UP FZFG	0900	0	0	0	230
2019/12/01 00:21:00	BASE	0.00	102	M	M	-2.5	100	-2.5	22	0	993.6	NA	0.0000	UP FZFG	0700	0	0	0	260
2019/12/01 00:22:00	BASE	0.00	103	M	M	-2.5	100	-2.5	22	0	993.6	NA	0.0000	UP FZFG	0650	0	0	0	260
2019/12/01 00:23:00	BASE	0.00	123	M	M	-2.5	100	-2.5	22	0	993.7	NA	0.0000	UP FZFG	1100	0	0	0	330
2019/12/01 00:24:00	BASE	0.00	137	M	M	-2.4	100	-2.4	22	0	993.7	NA	0.0000	UP FZFG	1600	0	0	0	360
2019/12/01 00:25:00	BASE	0.00	134	M	M	-2.4	100	-2.4	20	0	993.7	NA	0.0000	UP FZFG	1700	0	0	0	390
2019/12/01 00:26:00	BASE	0.00	131	M	M	-2.3	100	-2.3	19	0	993.7	NA	0.0000	UP BR	2000	0	0	0	360
2019/12/01 00:27:00	BASE	0.10	126	1.34	131	-2.3	100	-2.3	18	0	993.7	NA	0.0000	UP BR	2600	0	0	0	360
2019/12/01 00:28:00	BASE	0.77	133	1.59	148	-2.3	100	-2.3	19	0	993.7	NA	0.0000	UP BR	2400	0	0	0	330
2019/12/01 00:29:00	BASE	1.16	143	1.59	148	-2.3	100	-2.3	18	0	993.7	NA	0.0000	UP BR	2900	0	0	0	330
2019/12/01 00:30:00	BASE	1.30	141	2.11	141	-2.2	100	-2.2	17	0	993.9	NA	0.0000	UP BR	1100	0	0	0	330
2019/12/01 00:31:00	BASE	1.59	137	2.11	141	-2.2	100	-2.2	16	0	993.9	NA	0.0000	UP BR	0500	0	0	0	260
2019/12/01 00:32:00	BASE	1.31	136	2.11	141	-2.3	100	-2.3	15	0	993.9	NA	0.0000	UP BR	0500	0	0	0	300
2019/12/01 00:33:00	BASE	1.41	134	2.11	141	-2.3	100	-2.3	15	0	993.9	NA	0.0000	UP BR	0650	0	0	0	300
2019/12/01 00:34:00	BASE	1.62	123	2.11	141	-2.3	100	-2.3	15	0	993.9	NA	0.0000	UP BR	0600	0	0	0	260
2019/12/01 00:35:00	BASE	0.91	121	2.11	141	-2.4	100	-2.4	14	0	993.9	NA	0.0000	UP FZFG	0500	0	0	0	230
2019/12/01 00:36:00	BASE	0.21	116	2.11	141	-2.5	100	-2.5	14	0	993.9	NA	0.0000	UP FZFG	0400	0	0	0	230
2019/12/01 00:37:00	BASE	0.05	100	2.11	141	-2.5	100	-2.5	14	0	993.9	NA	0.0000	UP FZFG	0500	0	0	0	260
2019/12/01 00:38:00	BASE	0.00	92	2.11	141	-2.5	100	-2.5	13	0	993.9	NA	0.0000	UP FZFG	0550	0	0	0	260
2019/12/01 00:39:00	BASE	0.00	129	2.11	141	-2.5	100	-2.5	13	0	993.9	NA	0.0000	UP FZFG	0650	0	0	0	260
2019/12/01 00:40:00	BASE	0.00	213	1.95	130	-2.5	100	-2.5	13	0	994.0	NA	0.0000	UP FZFG	0500	0	0	0	260
2019/12/01 00:41:00	BASE	0.00	240	1.95	130	-2.5	100	-2.5	13	0	994.0	NA	0.0000	UP FZFG	0450	0	0	0	260
2019/12/01 00:42:00	BASE	0.19	253	1.95	130	-2.5	100	-2.5	13	0	994.0	NA	0.0000	UP FZFG	0450	0	0	0	260
2019/12/01 00:43:00	BASE	1.12	261	2.21	268	-2.5	100	-2.5	13	0	994.0	NA	0.0000	UP FZFG	0500	0	0	0	260
2019/12/01 00:44:00	BASE	1.32	266	2.21	268	-2.5	100	-2.5	14	0	994.0	NA	0.0000	UP FZFG	0550	0	0	0	260
2019/12/01 00:45:01	BASE	0.39	281	2.21	268	-2.5	100	-2.5	14	0	994.0	NA	0.0000	FZFG	0500	0	0	0	300
2019/12/01 00:46:01	BASE	0.00	305	2.21	268	-2.6	100	-2.6	14	0	994.0	NA	0.0000	FZFG	0500	0	0	0	300
2019/12/01 00:47:01	BASE	0.00	326	2.21	268	-2.6	100	-2.6	13	0	994.0	NA	0.0000	FZFG	0550	0	0	0	260
2019/12/01 00:48:01	BASE	0.00	307	2.21	268	-2.5	100	-2.5	13	0	994.0	NA	0.0000	FZFG	0650	0	0	0	260
2019/12/01 00:49:01	BASE	0.00	278	2.21	268	-2.5	100	-2.5	13	0	994.0	NA	0.0000	FZFG	0600	0	0	0	300
2019/12/01 00:50:01	BASE	0.23	278	2.21	268	-2.5	100	-2.5	12	0	994.0	NA	0.0000	FZFG	0500	0	0	0	300
2019/12/01 00:51:01	BASE	0.23	280	2.21	268	-2.5	100	-2.5	12	0	994.0	NA	0.0000	FZFG	0450	0	0	0	260
2019/12/01 00:52:01	BASE	0.00	276	2.21	268	-2.5	100	-2.5	11	0	994.1	NA	0.0000	FZFG	0500	0	0	0	300
2019/12/01 00:53:01	BASE	0.53	271	1.59	266	-2.5	100	-2.5	11	0	994.1	NA	0.0000	FZFG	0450	0	0	0	300
2019/12/01 00:54:01	BASE	0.98	278	1.59	266	-2.5	100	-2.5	10	0	994.1	NA	0.0000	FZFG	0450	0	0	0	260
2019/12/01 00:55:01	BASE	0.56	287	1.59	266	-2.5	100	-2.5	10	0	994.1	NA	0.0000	FZFG	0500	0	0	0	300
2019/12/01 00:56:01	BASE	0.94	281	2.06	274	-2.5	100	-2.5	9	0	994.1	NA	0.0000	FZFG	0500	0	0	0	260
2019/12/01 00:57:01	BASE	1.59	276	2.06	274	-2.5	100	-2.5	9	0	994.1	NA	0.0000	FZFG	0550	0	0	0	260
2019/12/01 00:58:01	BASE	1.40	276	2.06	274	-2.5	100	-2.5	9	0	994.1	NA	0.0000	FZFG	0650	0	0	0	300
2019/12/01 00:59:01	BASE	1.34	270	2.06	274	-2.5	100	-2.5	10	0	994.1	NA	0.0000	FZFG	0700	0	0	0	300
2019/12/01 01:00:01	BASE	1.00	261	2.06	274	-2.4	100	-2.4	10	0	994.1	NA	0.0000	FZFG	0650	0	0	0	300
2019/12/01 01:01:01	BASE	0.34	254	2.06	274	-2.4	100	-2.4	9	0	994.1	NA	0.0000	FZFG	0600	0	0	0	330
2019/12/01 01:02:01	BASE	0.39	250	2.06	274	-2.4	100	-2.4	9	0	994.1	NA	0.0000	FZFG	0600	0	0	0	360
2019/12/01 01:03:01	BASE	0.34	250	2.06	274	-2.4	100	-2.4	9	0	994.1	NA	0.0000	FZFG	0700	0	0	0	330
2019/12/01 01:04:01	BASE	0.04	237	2.06	274	-2.4	100	-2.4	9	0	994.1	NA	0.0000	FZFG	0800	0	0	0	300
2019/12/01 01:05:01	BASE	0.52	213	2.06	274	-2.4	100	-2.4	9	0	994.1	NA	0.0000	FZFG	1100	0	0	0	330
2019/12/01 01:06:01	BASE	0.48	193	1.75	265	-2.4	100	-2.4	9	0	994.1	NA	0.0000	UP FZFG	1100	0	0	0	360
2019/12/01 01:07:01	BASE	0.00	180	1.75	265	-2.3	100	-2.3	9	0	994.2	NA	0.0000	UP FZFG	1600	0	0	0	430
2019/12/01 01:08:01	BASE	0.00	200	1.65	262	-2.3	100	-2.3	9	0	994.2	NA	0.0000	UP FZFG	1600	0	0	0	430
2019/12/01 01:09:01	BASE	0.00	248	1.54	253	-2.3	100	-2.3	9	0	994.2	NA	0.0000	UP BR	1700	0	0	0	430
2019/12/01 01:10:01	BASE	0.00	284	1.39	213	-2.3	100	-2.3	10	0	994.2	NA	0.0000	UP BR	2100	0	0	0	460
2019/12/01 01:11:01	BASE	0.00	305	1.39	213	-2.3	100	-2.3	10	0	994.2	NA	0.0000	UP BR	2600	0	0	0	490
2019/12/01 01:12:01	BASE	0.46	130	1.49	142	-2.3	100	-2.3	9	0	994.2	NA	0.0000	UP BR	2300	0	0	0	560
2019/12/01 01:13:01	BASE	1.32	144	2.01	151	-2.3	100	-2.3	8	0	994.2	NA	0.0000	UP BR	2300	0	0	0	560
2019/12/01 01:14:01	BASE	1.61	155	2.01	151	-2.4	100	-2.4	7	0	994.2	NA	0.0000	UP BR	1200	0	0	0	520
2019/12/01 01:15:01	BASE	1.50	164	2.01	151	-2.4	100	-2.4	7	0	994.2	NA	0.0000	UP BR	0750	0	0	0	430
2019/12/01 01:16:01	BASE	1.26	169	2.01	151	-2.4	100	-2.4	7	0	994.2	NA	0.0000	UP BR	0750	0	0	0	430
2019/12/01 01:17:01	BASE	0.84	183	2.01	151	-2.3	100	-2.3	7	0	994.2	NA	0.0000	UP BR	0750	0	0	0	300
2019/12/01 01:18:01	BASE	0.42	197	2.01	151	-2.4	100	-2.4	7	0	994.2	NA	0.0000	UP BR	0800	0	0	0	360
2019/12/01 01:19:01	BASE	0.57	205	2.01	151	-2.4	100	-2.4	7	0	994.2	NA	0.0000	UP BR	0800	0	0	0	490
2019/12/01 01:20:01	BASE	0.72	213	2.01	151	-2.4	100	-2.4	7	0	994.2	NA	0.0000	UP BR	0700	0	0	0	390
2019/12/01 01:21:01	BASE	0.59	207	2.01	151	-2.4	100	-2.4	7	0	994.2	NA	0.0000	UP BR	0750	0	0	0	390
2019/12/01 01:22:01	BASE	0.96	196	2.01	151	-2.5	100	-2.5	8	0	994.2	NA	0.0000	UP FZFG	0800	0	0	0	330
2019/12/01 01:23:01	BASE	1.19	195	1.75	157	-2.5	100	-2.5	8	0	994.2	NA	0.0000	UP FZFG	1100	0	0	0	390
2019/12/01 01:24:01	BASE	1.11	202	1.65	153	-2.5	100	-2.5	7	0	994.2	NA	0.0000	UP FZFG	1200	0	0	0	560
2019/12/01 01:25:01	BASE	0.90	203	1.54	174	-2.5	100	-2.5	7	0	994.2	NA	0.0000	UP FZFG	1200	0	0	0	520
2019/12/01 01:26:01	BASE	0.46	206	1.39	202	-2.5	100	-2.5	7	0	994.2	NA	0.0000	UP BR	1200	0	0	0	620
2019/12/01 01:27:01	BASE	0.09	214	1.39	202	-2.5	100	-2.5	7	0	994.2	NA	0.0000	UP BR	1200	0	0	0	590
2019/12/01 01:28:01	BASE	0.00	214	1.39	202	-2.5	100	-2.5	7	0	994.2	NA	0.0000	UP BR	1200	0	0	0	520
2019/12/01 01:29:01	BASE	0.00	208	1.39	202	-2.5	100	-2.5	7	0	994.1	NA	0.0000	UP BR	1200	0	0	0	620
2019/12/01 01:30:01	BASE	0.23	196	1.39	202	-2.5	100	-2.5	6	0	994.2	NA	0.0000	UP BR	1300	0	0	0	720
2019/12/01 01:31:01	BASE	0.23	196	1.39	202	-2.5	100	-2.5	6	0	994.2	NA	0.0000	UP BR	1800	0	0	0	790
2019/12/01 01:32:01	BASE	0.00	195	1.39	202	-2.5	100	-2.5	5	0	994.2	NA	0.0000	UP BR	2500	0	0	0	660
2019/12/01 01:33:01	BASE	0.00	196	1.39	202	-2.5	100	-2.5	6	0	994.2	NA	0.0000	UP BR	2900	0	0	0	720
2019/12/01 01:34:01	BASE	0.09	211	1.18	191	-2.5	100	-2.5	6	0	994.2	NA	0.0000	UP BR	2300	0	0	0	590
2019/12/01 01:35:01	BASE	0.13	210	1.18	191	-2.5	100	-2.5	6	0	994.2	NA	0.0000	UP BR	3000	0	0	0	560
2019/12/01 01:36:01	BASE	0.17	200	1.18	191	-2.4	100	-2.4	6	0	994.3	NA	0.0000	UP BR	3000	0	0	0	590
2019/12/01 01:37:01	BASE	0.13	189	1.18	191	-2.4	100	-2.4	5	0	994.4	NA	0.0000	UP BR	3000	0	0	0	590
2019/12/01 01:38:01	BASE	0.20	186	1.23	197	-2.4	100	-2.4	5	0	994.4	NA	0.0000	UP BR	3200	0	0	0	660
2019/12/01 01:39:01	BASE	0.20	201	1.23	197	-2.4	100	-2.4	5	0	994.4	NA	0.0000	UP BR	3200	0	0	0	690
2019/12/01 01:40:01	BASE	0.00	204	1.23	197	-2.4	100	-2.4	5	0	994.4	NA	0.0000	UP BR	3200	0	0	0	690
2019/12/01 01:41:01	BASE	0.00	182	1.23	197	-2.4	100	-2.4	5	0	994.4	NA	0.0000	UP BR	3300	0	0	0	690
2019/12/01 01:42:01	BASE	0.00	169	1.23	197	-2.4	100	-2.4	5	0	994.4	NA	0.0000	UP BR	5000	0	0	0	720
2019/12/01 01:43:01	BASE	0.00	173	1.23	197	-2.4	100	-2.4	5	0	994.4	NA	0.0000	UP BR	5000	0	0	0	750
2019/12/01 01:44:01	BASE	0.00	169	1.23	197	-2.4	100	-2.4	4	0	994.4	NA	0.0000	UP BR	5000	0	0	0	750
2019/12/01 01:45:01	BASE	0.00	143	1.23	197	-2.5	100	-2.5	4	0	994.4	NA	0.0000	UP BR	5000	0	0	0	790
2019/12/01 01:46:01	BASE	0.00	93	1.23	197	-2.5	100	-2.5	4	0	994.4	NA	0.0000	UP BR	5000	0	0	0	790
2019/12/01 01:47:00	BASE	0.00	37	1.23	197	-2.5	100	-2.5	4	0	994.4	NA	0.0000	BR	6000	260	0	0	0
2019/12/01 01:48:00	BASE	0.00	16	M	M	-2.5	100	-2.5	4	0	994.5	NA	0.0000	BR	6000	260	0	0	0
2019/12/01 01:49:00	BASE	0.00	13	M	M	-2.4	100	-2.4	4	0	994.5	NA	0.0000	BR	6000	230	0	0	0
2019/12/01 01:50:00	BASE	0.00	6	M	M	-2.5	100	-2.5	4	0	994.5	NA	0.0000	BR	6000	0	0	0	920
2019/12/01 01:51:00	BASE	0.00	1	M	M	-2.5	100	-2.5	4	0	994.5	NA	0.0000	BR	6000	0	0	0	850
2019/12/01 01:52:00	BASE	0.09	4	1.03	36	-2.5	100	-2.5	4	0	994.5	NA	0.0000	BR	6000	0	0	0	850
2019/12/01 01:53:00	BASE	0.36	359	1.18	1	-2.5	100	-2.5	4	0	994.5	NA	0.0000	UP BR	5000	0	0	0	890
2019/12/01 01:54:00	BASE	0.71	353	1.29	349	-2.5	100	-2.5	4	0	994.5	NA	0.0000	UP BR	5000	200	0	0	0
2019/12/01 01:55:00	BASE	1.01	356	1.39	1	-2.5	100	-2.5	4	0	994.5	NA	0.0000	UP BR	5000	230	0	0	0
2019/12/01 01:56:00	BASE	1.03	2	1.39	1	-2.5	100	-2.5	4	0	994.5	NA	0.0000	UP BR	5000	260	0	0	0
2019/12/01 01:57:00	BASE	0.70	2	1.39	1	-2.5	100	-2.5	3	0	994.5	NA	0.0000	UP BR	5000	300	0	0	0
2019/12/01 01:58:00	BASE	0.57	359	1.39	1	-2.5	100	-2.5	3	0	994.5	NA	0.0000	UP BR	7000	300	0	0	0
2019/12/01 01:59:00	BASE	0.61	359	1.39	1	-2.5	100	-2.5	3	0	994.5	NA	0.0000	UP BR	9999	300	0	0	0
2019/12/01 02:00:00	BASE	0.43	1	1.39	1	-2.5	100	-2.5	3	0	994.6	NA	0.0000	UP BR	7000	260	0	0	0
2019/12/01 02:01:00	BASE	0.13	2	1.39	1	-2.5	100	-2.5	3	0	994.6	NA	0.0000	UP BR	9999	260	0	0	0
2019/12/01 02:02:00	BASE	0.00	11	1.39	1	-2.5	100	-2.5	3	0	994.5	NA	0.0000	UP BR	9999	260	0	0	0
2019/12/01 02:03:00	BASE	0.00	15	1.39	1	-2.5	100	-2.5	3	0	994.5	NA	0.0000	BR	9000	230	0	0	0
2019/12/01 02:04:00	BASE	0.00	12	1.39	1	-2.5	100	-2.5	3	0	994.5	NA	0.0000	BR	9000	230	720	0	0
2019/12/01 02:05:00	BASE	0.05	11	1.34	4	-2.5	100	-2.5	3	0	994.5	NA	0.0000	BR	8000	230	0	0	0
2019/12/01 02:06:00	BASE	0.14	5	1.34	4	-2.5	100	-2.5	3	0	994.5	NA	0.0000	UP BR	4100	230	0	0	0
2019/12/01 02:07:00	BASE	0.17	1	1.29	3	-2.5	100	-2.5	3	0	994.5	NA	0.0000	UP BR	5000	330	0	0	0
2019/12/01 02:08:00	BASE	0.09	1	1.29	3	-2.5	100	-2.5	3	0	994.5	NA	0.0000	UP BR	3900	590	0	0	0
2019/12/01 02:09:00	BASE	0.00	355	1.13	3	-2.5	100	-2.5	3	0	994.5	NA	0.0000	UP BR	3900	660	0	0	0
2019/12/01 02:10:00	BASE	0.05	356	1.13	3	-2.5	100	-2.5	3	0	994.5	NA	0.0000	UP BR	4200	620	0	0	0
2019/12/01 02:11:00	BASE	0.09	10	1.13	3	-2.5	100	-2.5	3	0	994.5	NA	0.0000	UP BR	9999	660	0	0	0
2019/12/01 02:12:00	BASE	0.05	20	1.13	3	-2.5	100	-2.5	3	0	994.5	NA	0.0000	UP BR	9999	620	0	0	0
2019/12/01 02:13:00	BASE	0.00	18	1.13	3	-2.5	100	-2.5	3	0	994.5	NA	0.0000	UP BR	9999	690	0	0	0
2019/12/01 02:14:00	BASE	0.00	19	1.13	3	-2.4	100	-2.4	2	0	994.6	NA	0.0000	UP BR	9999	660	0	0	0
2019/12/01 02:15:00	BASE	0.00	39	1.08	360	-2.4	100	-2.4	2	0	994.6	NA	0.0000	UP BR	9999	690	0	0	0
2019/12/01 02:16:00	BASE	0.00	76	1.08	360	-2.3	100	-2.3	2	0	994.6	NA	0.0000	UP BR	9999	690	0	0	0
2019/12/01 02:17:01	BASE	0.00	101	1.08	360	-2.3	100	-2.3	2	0	994.6	NA	0.0000	BR	9999	660	0	0	0
2019/12/01 02:18:01	BASE	0.00	109	1.08	360	-2.3	100	-2.3	2	0	994.7	NA	0.0000	BR	9999	660	0	0	0
2019/12/01 02:19:01	BASE	0.00	105	1.08	360	-2.3	100	-2.3	2	0	994.7	NA	0.0000		9999	660	0	0	0
2019/12/01 02:20:01	BASE	0.45	90	1.29	95	-2.4	100	-2.4	2	0	994.7	NA	0.0000		9999	590	0	0	0
2019/12/01 02:21:01	BASE	0.99	88	1.39	108	-2.5	100	-2.5	2	0	994.7	NA	0.0000		9999	660	0	0	0
2019/12/01 02:22:01	BASE	1.05	108	1.39	108	-2.5	100	-2.5	2	0	994.7	NA	0.0000		9999	620	0	0	0
2019/12/01 02:23:01	BASE	0.75	124	1.39	112	-2.5	100	-2.5	2	0	994.7	NA	0.0000		9999	620	0	0	0
2019/12/01 02:24:01	BASE	0.25	111	1.39	112	-2.5	100	-2.5	2	0	994.7	NA	0.0000		9999	620	0	0	0
2019/12/01 02:25:01	BASE	0.00	105	1.39	112	-2.5	100	-2.5	2	0	994.7	NA	0.0000		9999	660	0	0	0
2019/12/01 02:26:01	BASE	0.00	111	1.39	112	-2.5	100	-2.5	2	0	994.7	NA	0.0000		9999	690	0	0	0
2019/12/01 02:27:01	BASE	0.00	109	1.39	112	-2.6	100	-2.6	2	0	994.7	NA	0.0000		9999	620	0	0	0
2019/12/01 02:28:01	BASE	0.00	105	1.39	112	-2.6	100	-2.6	2	0	994.7	NA	0.0000		9999	590	0	0	0
2019/12/01 02:29:01	BASE	0.00	92	1.39	112	-2.5	100	-2.5	2	0	994.7	NA	0.0000		9999	590	0	0	0
2019/12/01 02:30:01	BASE	0.00	69	1.39	112	-2.5	100	-2.5	2	0	994.7	NA	0.0000		9999	560	0	0	0
2019/12/01 02:31:01	BASE	0.00	68	1.39	112	-2.5	100	-2.5	2	0	994.7	NA	0.0000		9999	620	0	0	0
2019/12/01 02:32:01	BASE	0.00	60	1.39	112	-2.5	100	-2.5	2	0	994.7	NA	0.0000		9999	590	0	0	0
2019/12/01 02:33:01	BASE	0.00	31	M	M	-2.4	100	-2.4	1	0	994.7	NA	0.0000		9999	520	0	0	0
2019/12/01 02:34:01	BASE	0.00	21	M	M	-2.4	100	-2.4	1	0	994.7	NA	0.0000		9999	560	0	0	0
2019/12/01 02:35:01	BASE	0.00	40	M	M	-2.3	100	-2.3	1	0	994.7	NA	0.0000		9999	590	0	0	0
2019/12/01 02:36:01	BASE	0.00	112	M	M	-2.3	100	-2.3	1	0	994.8	NA	0.0000		9999	590	0	0	0
2019/12/01 02:37:01	BASE	0.00	141	M	M	-2.2	100	-2.2	1	0	994.8	NA	0.0000		9999	620	0	0	0
2019/12/01 02:38:01	BASE	0.00	150	M	M	-2.2	100	-2.2	1	0	994.8	NA	0.0000		9999	620	0	0	0
2019/12/01 02:39:01	BASE	0.00	183	M	M	-2.2	100	-2.2	1	0	994.8	NA	0.0000		9999	620	0	0	0
2019/12/01 02:40:01	BASE	0.20	207	1.34	210	-2.2	100	-2.2	1	0	994.8	NA	0.0000		9999	590	0	0	0
2019/12/01 02:41:01	BASE	0.65	203	1.34	206	-2.3	100	-2.3	1	0	994.9	NA	0.0000		9999	620	0	0	0
2019/12/01 02:42:01	BASE	0.88	199	1.34	206	-2.3	100	-2.3	1	0	994.9	NA	0.0000		9999	620	0	0	0
2019/12/01 02:43:01	BASE	0.52	188	1.34	206	-2.3	100	-2.3	1	0	994.9	NA	0.0000		9999	590	0	0	0
2019/12/01 02:44:01	BASE	0.25	183	1.34	206	-2.4	100	-2.4	1	0	994.9	NA	0.0000		9999	590	0	0	0
2019/12/01 02:45:01	BASE	0.15	177	1.34	206	-2.4	100	-2.4	1	0	994.9	NA	0.0000		9999	560	0	0	0
2019/12/01 02:46:01	BASE	0.00	179	1.34	206	-2.4	100	-2.4	1	0	994.9	NA	0.0000		9999	560	0	0	0
2019/12/01 02:47:01	BASE	0.00	180	1.34	206	-2.4	100	-2.4	1	0	994.9	NA	0.0000		9999	590	0	0	0
2019/12/01 02:48:01	BASE	0.00	171	1.34	206	-2.3	100	-2.3	1	0	994.9	NA	0.0000		9999	560	0	0	0
2019/12/01 02:49:01	BASE	0.44	185	1.54	208	-2.3	100	-2.3	1	0	994.9	NA	0.0000		9999	560	0	0	0
2019/12/01 02:50:01	BASE	0.67	231	1.54	208	-2.3	100	-2.3	1	0	994.9	NA	0.0000		9999	590	0	0	0
2019/12/01 02:51:01	BASE	0.32	258	1.54	208	-2.3	100	-2.3	1	0	994.9	NA	0.0000		9999	560	0	0	0
2019/12/01 02:52:01	BASE	0.36	257	1.54	208	-2.4	100	-2.4	1	0	994.9	NA	0.0000		9999	520	0	0	0
2019/12/01 02:53:01	BASE	0.41	252	1.54	208	-2.4	100	-2.4	1	0	994.9	NA	0.0000		9999	490	0	0	0
2019/12/01 02:54:01	BASE	0.34	247	1.54	208	-2.4	100	-2.4	1	0	994.9	NA	0.0000		9999	490	0	0	0
2019/12/01 02:55:01	BASE	0.49	246	1.54	208	-2.4	100	-2.4	1	0	994.9	NA	0.0000		9999	560	0	0	0
2019/12/01 02:56:01	BASE	0.50	240	1.54	208	-2.4	100	-2.4	1	0	994.9	NA	0.0000		9999	520	0	0	0
2019/12/01 02:57:01	BASE	0.27	225	1.54	208	-2.4	100	-2.4	1	0	994.9	NA	0.0000		9999	560	0	0	0
2019/12/01 02:58:01	BASE	0.24	226	1.54	208	-2.4	100	-2.4	1	0	994.9	NA	0.0000		9999	560	0	0	0
2019/12/01 02:59:01	BASE	0.77	227	1.49	242	-2.4	100	-2.4	1	0	994.9	NA	0.0000		9999	520	0	0	0
2019/12/01 03:00:01	BASE	0.76	214	1.39	240	-2.4	100	-2.4	1	0	994.9	NA	0.0000		9999	560	0	0	0
2019/12/01 03:01:01	BASE	0.54	228	1.54	228	-2.4	100	-2.4	1	0	994.9	NA	0.0000		9999	490	0	0	0
2019/12/01 03:02:01	BASE	0.35	236	1.54	228	-2.4	100	-2.4	1	0	994.9	NA	0.0000		9999	490	0	0	0
2019/12/01 03:03:01	BASE	0.00	219	1.54	228	-2.4	100	-2.4	1	0	994.9	NA	0.0000		9999	520	0	0	0
2019/12/01 03:04:01	BASE	0.62	194	1.75	173	-2.4	100	-2.4	1	0	994.9	NA	0.0000		9999	520	0	0	0
2019/12/01 03:05:01	BASE	1.28	168	1.75	173	-2.4	100	-2.4	1	0	994.9	NA	0.0000		9999	460	0	0	0
2019/12/01 03:06:01	BASE	1.39	151	1.75	147	-2.4	100	-2.4	1	0	994.9	NA	0.0000		9999	490	0	0	0
2019/12/01 03:07:01	BASE	1.06	152	1.75	147	-2.5	100	-2.5	1	0	994.9	NA	0.0000		9999	460	0	0	0
2019/12/01 03:08:01	BASE	0.33	163	1.75	147	-2.5	100	-2.5	1	0	994.9	NA	0.0000		9999	460	0	0	0
2019/12/01 03:09:01	BASE	0.06	162	1.75	147	-2.5	100	-2.5	1	0	994.9	NA	0.0000		9999	430	0	0	0
2019/12/01 03:10:01	BASE	0.43	172	1.75	147	-2.5	100	-2.5	1	0	994.9	NA	0.0000		9999	430	0	0	0
2019/12/01 03:11:01	BASE	0.50	188	1.75	147	-2.4	100	-2.4	1	0	994.9	NA	0.0000		9999	460	0	0	0
2019/12/01 03:12:01	BASE	0.13	184	1.75	147	-2.4	100	-2.4	1	0	994.9	NA	0.0000		9999	460	0	0	0
2019/12/01 03:13:01	BASE	0.00	171	1.75	147	-2.4	100	-2.4	0	0	994.9	NA	0.0000		9999	490	0	0	0
2019/12/01 03:14:01	BASE	0.04	162	1.75	147	-2.5	100	-2.5	0	0	994.9	NA	0.0000		9999	490	0	0	0
2019/12/01 03:15:01	BASE	0.04	146	1.75	147	-2.5	100	-2.5	0	0	994.9	NA	0.0000		9999	490	0	0	0
2019/12/01 03:16:01	BASE	0.00	135	1.65	185	-2.5	100	-2.5	0	0	994.9	NA	0.0000		9999	490	0	0	0
2019/12/01 03:17:01	BASE	0.00	137	1.65	185	-2.5	100	-2.5	0	0	994.9	NA	0.0000		9999	460	0	0	0
2019/12/01 03:18:01	BASE	0.00	147	1.65	185	-2.5	100	-2.5	0	0	994.8	NA	0.0000		9999	490	0	0	0
2019/12/01 03:19:01	BASE	0.00	156	1.65	185	-2.4	100	-2.4	0	0	994.9	NA	0.0000		9999	430	0	0	0
2019/12/01 03:20:01	BASE	0.00	152	1.08	199	-2.4	100	-2.4	0	0	994.9	NA	0.0000		9999	390	0	0	0
2019/12/01 03:21:01	BASE	0.00	127	1.03	137	-2.4	100	-2.4	0	0	994.9	NA	0.0000		9999	460	0	0	0
2019/12/01 03:22:01	BASE	0.00	137	1.03	137	-2.4	100	-2.4	0	0	994.9	NA	0.0000		9999	460	0	0	0
2019/12/01 03:23:01	BASE	0.00	220	1.03	137	-2.4	100	-2.4	0	0	994.9	NA	0.0000		9999	490	0	0	0
2019/12/01 03:24:01	BASE	0.00	235	M	M	-2.4	100	-2.4	0	0	994.9	NA	0.0000		9999	460	0	0	0
2019/12/01 03:25:01	BASE	0.00	226	M	M	-2.4	100	-2.4	0	0	994.9	NA	0.0000		9999	460	0	0	0
2019/12/01 03:26:01	BASE	0.00	218	M	M	-2.4	100	-2.4	0	0	994.9	NA	0.0000		9999	460	0	0	0
2019/12/01 03:27:01	BASE	0.28	228	1.18	244	-2.4	100	-2.4	0	0	994.9	NA	0.0000		9999	460	0	0	0
2019/12/01 03:28:01	BASE	0.85	238	1.44	250	-2.5	100	-2.5	0	0	994.9	NA	0.0000		9999	490	0	0	0
2019/12/01 03:29:01	BASE	0.85	228	1.44	250	-2.5	100	-2.5	0	0	994.9	NA	0.0000		9999	460	0	0	0
2019/12/01 03:30:01	BASE	0.77	206	1.44	200	-2.5	100	-2.5	0	0	994.9	NA	0.0000		9999	460	0	0	0
2019/12/01 03:31:01	BASE	0.99	192	1.44	200	-2.5	100	-2.5	0	0	994.9	NA	0.0000		9999	460	0	0	0
2019/12/01 03:32:01	BASE	0.64	190	1.44	200	-2.5	100	-2.5	0	0	994.9	NA	0.0000		9999	460	0	0	0
2019/12/01 03:33:01	BASE	0.13	197	1.44	200	-2.5	100	-2.5	0	0	994.9	NA	0.0000	UP	9999	460	0	0	0
2019/12/01 03:34:01	BASE	0.00	195	1.44	200	-2.5	100	-2.5	0	0	995.0	NA	0.0000	UP	9999	490	0	0	0
2019/12/01 03:35:00	BASE	0.57	192	1.54	191	-2.5	100	-2.5	0	0	995.0	NA	0.0000	UP	9999	460	0	0	0
2019/12/01 03:36:01	BASE	1.39	195	1.90	183	-2.5	100	-2.5	0	0	995.0	NA	0.0000	UP	9999	490	0	0	0
2019/12/01 03:37:01	BASE	1.67	191	1.90	183	-2.5	100	-2.5	0	0	995.1	NA	0.0000	UP	9999	430	0	0	0
2019/12/01 03:38:01	BASE	1.87	193	2.47	194	-2.5	100	-2.5	0	0	995.0	NA	0.0000	UP	9999	390	0	0	0
2019/12/01 03:39:00	BASE	2.03	191	2.47	194	-2.5	100	-2.5	0	0	995.1	NA	0.0000	UP	9999	390	0	0	0
2019/12/01 03:40:00	BASE	1.91	188	2.47	194	-2.5	100	-2.5	0	0	995.1	NA	0.0000	UP	9999	390	0	0	0
2019/12/01 03:41:01	BASE	1.77	189	2.47	194	-2.5	100	-2.5	0	0	995.1	NA	0.0000	UP	9999	390	0	0	0
2019/12/01 03:42:01	BASE	1.50	195	2.47	194	-2.6	100	-2.6	0	0	995.1	NA	0.0000		9999	390	0	0	0
2019/12/01 03:43:01	BASE	0.79	207	2.47	194	-2.6	100	-2.6	0	0	995.1	NA	0.0000		9999	390	0	0	0
2019/12/01 03:44:01	BASE	0.29	207	2.47	194	-2.6	100	-2.6	0	0	995.1	NA	0.0000		9999	430	0	0	0
2019/12/01 03:45:00	BASE	0.65	209	2.47	194	-2.6	100	-2.6	0	0	995.1	NA	0.0000		9999	430	0	0	0
2019/12/01 03:46:01	BASE	1.20	225	2.47	194	-2.6	100	-2.6	0	0	995.1	NA	0.0000		9999	390	0	0	0
2019/12/01 03:47:01	BASE	0.95	230	2.47	194	-2.6	100	-2.6	0	0	995.1	NA	0.0000		9999	430	0	0	0
2019/12/01 03:48:00	BASE	0.27	231	2.26	190	-2.6	100	-2.6	0	0	995.2	NA	0.0000		9999	430	0	0	0
2019/12/01 03:49:00	BASE	0.05	224	1.95	188	-2.6	100	-2.6	0	0	995.2	NA	0.0000		9999	390	0	0	0
2019/12/01 03:50:00	BASE	0.27	202	1.85	185	-2.6	100	-2.6	0	0	995.2	NA	0.0000		9999	460	0	0	0
2019/12/01 03:51:00	BASE	0.23	185	1.54	199	-2.7	100	-2.7	0	0	995.2	NA	0.0000		9999	490	0	0	0
2019/12/01 03:52:01	BASE	0.04	173	1.44	236	-2.6	100	-2.6	0	0	995.2	NA	0.0000		9999	460	0	0	0
2019/12/01 03:53:00	BASE	0.04	163	1.44	236	-2.6	100	-2.6	0	0	995.2	NA	0.0000		9999	460	0	0	0
2019/12/01 03:54:01	BASE	0.00	149	1.44	236	-2.6	100	-2.6	0	0	995.2	NA	0.0000		9999	390	0	0	0
2019/12/01 03:55:00	BASE	0.00	125	1.44	236	-2.6	100	-2.6	0	0	995.2	NA	0.0000		9999	430	0	0	0
2019/12/01 03:56:00	BASE	0.00	137	1.34	228	-2.5	100	-2.5	0	0	995.2	NA	0.0000		9999	430	0	0	0
2019/12/01 03:57:00	BASE	0.00	154	1.18	197	-2.5	100	-2.5	0	0	995.2	NA	0.0000		9999	460	0	0	0
2019/12/01 03:58:01	BASE	0.10	143	1.29	139	-2.5	100	-2.5	0	0	995.2	NA	0.0000		9999	460	0	0	0
2019/12/01 03:59:00	BASE	0.82	137	1.95	136	-2.5	100	-2.5	0	0	995.2	NA	0.0000		9999	460	0	0	0
2019/12/01 04:00:01	BASE	1.20	130	1.95	136	-2.5	100	-2.5	0	0	995.2	NA	0.0000		9999	390	0	0	0
2019/12/01 04:01:01	BASE	1.03	133	2.11	149	-2.5	100	-2.5	0	0	995.2	NA	0.0000		9999	390	0	0	0
2019/12/01 04:02:01	BASE	1.34	144	2.11	149	-2.6	100	-2.6	0	0	995.2	NA	0.0000		9999	390	0	0	0
2019/12/01 04:03:01	BASE	1.64	150	2.11	149	-2.6	100	-2.6	0	0	995.2	NA	0.0000		9999	390	0	0	0
2019/12/01 04:04:01	BASE	1.91	146	2.31	136	-2.6	100	-2.6	0	0	995.2	NA	0.0000		9999	390	0	0	0
2019/12/01 04:05:01	BASE	2.07	138	2.31	136	-2.6	100	-2.6	0	0	995.2	NA	0.0000		9999	360	0	0	0
2019/12/01 04:06:01	BASE	2.01	134	2.31	136	-2.6	100	-2.6	0	0	995.2	NA	0.0000		9999	430	0	0	0
2019/12/01 04:07:01	BASE	1.93	131	2.31	136	-2.7	100	-2.7	0	0	995.2	NA	0.0000		9999	390	0	0	0
2019/12/01 04:08:01	BASE	1.47	133	2.31	136	-2.7	100	-2.7	0	0	995.2	NA	0.0000		9999	390	0	0	0
2019/12/01 04:09:01	BASE	1.09	142	2.31	136	-2.7	100	-2.7	0	0	995.2	NA	0.0000		9999	360	0	0	0
2019/12/01 04:10:01	BASE	0.75	148	2.31	136	-2.7	100	-2.7	0	0	995.2	NA	0.0000		9999	360	0	0	0
2019/12/01 04:11:01	BASE	0.19	140	2.31	136	-2.7	100	-2.7	0	0	995.2	NA	0.0000		9999	360	0	0	0
2019/12/01 04:12:01	BASE	0.25	138	2.31	136	-2.7	100	-2.7	0	0	995.2	NA	0.0000		9999	390	0	0	0
2019/12/01 04:13:01	BASE	0.45	146	2.31	136	-2.7	100	-2.7	0	0	995.2	NA	0.0000		9999	360	0	0	0
2019/12/01 04:14:01	BASE	1.19	154	2.26	151	-2.7	100	-2.7	0	0	995.2	NA	0.0000		9999	360	0	0	0
2019/12/01 04:15:01	BASE	1.29	156	2.26	151	-2.6	100	-2.6	0	0	995.2	NA	0.0000		9999	360	0	0	0
2019/12/01 04:16:01	BASE	0.90	139	2.26	151	-2.6	100	-2.6	0	0	995.2	NA	0.0000		9999	330	0	0	0
2019/12/01 04:17:01	BASE	0.60	145	2.26	151	-2.7	100	-2.7	0	0	995.2	NA	0.0000		9999	330	0	0	0
2019/12/01 04:18:01	BASE	0.00	174	2.26	151	-2.7	100	-2.7	0	0	995.2	NA	0.0000		9999	360	0	0	0
2019/12/01 04:19:01	BASE	0.00	172	2.26	151	-2.7	100	-2.7	0	0	995.2	NA	0.0000		9999	390	0	0	0
2019/12/01 04:20:01	BASE	0.00	157	2.26	151	-2.8	100	-2.8	0	0	995.2	NA	0.0000		9999	390	0	0	0
2019/12/01 04:21:01	BASE	0.45	149	2.26	151	-2.7	100	-2.7	0	0	995.2	NA	0.0000		9999	360	0	0	0
2019/12/01 04:22:01	BASE	0.96	142	2.26	151	-2.7	100	-2.7	0	0	995.2	NA	0.0000		9999	390	0	0	0
2019/12/01 04:23:01	BASE	0.51	141	2.26	151	-2.7	100	-2.7	0	0	995.2	NA	0.0000		9999	330	0	0	0
2019/12/01 04:24:01	BASE	0.00	131	1.95	120	-2.7	100	-2.7	0	0	995.2	NA	0.0000		9999	390	0	0	0
2019/12/01 04:25:01	BASE	0.14	123	1.95	120	-2.7	100	-2.7	0	0	995.2	NA	0.0000		9999	360	0	0	0
2019/12/01 04:26:01	BASE	0.60	121	1.65	142	-2.8	100	-2.8	0	0	995.2	NA	0.0000		9999	360	0	0	0
2019/12/01 04:27:01	BASE	0.91	108	1.65	142	-2.8	100	-2.8	0	0	995.3	NA	0.0000		9999	390	0	0	0
2019/12/01 04:28:01	BASE	0.59	91	1.65	142	-2.8	100	-2.8	0	0	995.3	NA	0.0000		9999	390	0	0	0
2019/12/01 04:29:01	BASE	0.17	80	1.65	142	-2.8	100	-2.8	0	0	995.3	NA	0.0000		9999	390	0	0	0
2019/12/01 04:30:01	BASE	0.24	74	1.65	142	-2.8	100	-2.8	0	0	995.3	NA	0.0000		9999	390	0	0	0
2019/12/01 04:31:01	BASE	0.42	73	1.65	142	-2.8	100	-2.8	0	0	995.3	NA	0.0000		9999	430	0	0	0
2019/12/01 04:32:01	BASE	0.97	80	1.65	81	-2.8	100	-2.8	0	0	995.3	NA	0.0000		9999	460	0	0	0
2019/12/01 04:33:01	BASE	1.55	90	1.80	90	-2.7	100	-2.7	0	0	995.3	NA	0.0000		9999	390	0	0	0
2019/12/01 04:34:01	BASE	1.75	106	2.47	127	-2.7	100	-2.7	0	0	995.3	NA	0.0000		9999	360	0	0	0
2019/12/01 04:35:01	BASE	1.93	122	2.47	127	-2.7	100	-2.7	0	0	995.3	NA	0.0000		9999	430	0	0	0
2019/12/01 04:36:01	BASE	2.19	126	3.45	117	-2.7	100	-2.7	0	0	995.3	NA	0.0000		9999	460	0	0	0
2019/12/01 04:37:01	BASE	2.65	128	3.45	139	-2.7	100	-2.7	0	0	995.3	NA	0.0000		9999	430	0	0	0
2019/12/01 04:38:01	BASE	2.94	133	3.45	139	-2.7	100	-2.7	0	0	995.3	NA	0.0000		9999	430	0	0	0
2019/12/01 04:39:01	BASE	2.66	142	3.45	139	-2.7	100	-2.7	0	0	995.3	NA	0.0000		9999	430	0	0	0
2019/12/01 04:40:01	BASE	2.04	143	3.45	139	-2.7	100	-2.7	0	0	995.3	NA	0.0000		9999	430	0	0	0
2019/12/01 04:41:01	BASE	1.72	120	3.45	139	-2.7	100	-2.7	0	0	995.3	NA	0.0000		9999	390	0	0	0
2019/12/01 04:42:01	BASE	1.67	102	3.45	139	-2.7	100	-2.7	0	0	995.3	NA	0.0000		9999	430	0	0	0
2019/12/01 04:43:01	BASE	1.72	104	3.45	139	-2.7	100	-2.7	0	0	995.3	NA	0.0000		9999	430	0	0	0
2019/12/01 04:44:01	BASE	1.53	102	3.45	139	-2.7	100	-2.7	0	0	995.3	NA	0.0000		9999	430	0	0	0
2019/12/01 04:45:01	BASE	1.38	97	3.45	139	-2.8	100	-2.8	0	0	995.3	NA	0.0000		9999	430	0	0	0
2019/12/01 04:46:01	BASE	1.26	95	3.45	139	-2.8	100	-2.8	0	0	995.3	NA	0.0000		9999	390	0	0	0
2019/12/01 04:47:01	BASE	1.09	95	3.14	136	-2.8	100	-2.8	0	0	995.4	NA	0.0000		9999	430	0	0	0
2019/12/01 04:48:01	BASE	1.39	97	2.68	140	-2.8	100	-2.8	0	0	995.4	NA	0.0000		9999	430	0	0	0
2019/12/01 04:49:01	BASE	1.47	98	2.31	105	-2.8	100	-2.8	0	0	995.4	NA	0.0000		9999	390	0	0	0
2019/12/01 04:50:01	BASE	1.26	109	2.31	105	-2.7	100	-2.7	1	0	995.4	NA	0.0000		9999	460	0	0	0
2019/12/01 04:51:01	BASE	1.43	120	2.31	105	-2.7	100	-2.7	1	0	995.4	NA	0.0000		9999	460	0	0	0
2019/12/01 04:52:01	BASE	1.74	113	2.31	105	-2.7	100	-2.7	1	0	995.4	NA	0.0000		9999	430	0	0	0
2019/12/01 04:53:01	BASE	1.79	100	1.95	104	-2.7	100	-2.7	0	0	995.4	NA	0.0000		9999	430	0	0	0
2019/12/01 04:54:01	BASE	1.61	89	1.95	104	-2.7	100	-2.7	1	0	995.4	NA	0.0000		9999	430	0	0	0
2019/12/01 04:55:01	BASE	1.61	77	2.26	67	-2.8	100	-2.8	1	0	995.4	NA	0.0000		9999	430	0	0	0
2019/12/01 04:56:01	BASE	1.92	67	2.31	58	-2.8	100	-2.8	1	0	995.4	NA	0.0000		9999	300	0	0	0
2019/12/01 04:57:01	BASE	2.06	62	2.37	65	-2.7	100	-2.7	0	0	995.4	NA	0.0000		9999	230	0	0	0
2019/12/01 04:58:01	BASE	2.12	67	2.37	65	-2.7	100	-2.7	1	0	995.4	NA	0.0000		9999	300	0	0	0
2019/12/01 04:59:01	BASE	2.02	76	2.37	65	-2.7	100	-2.7	1	0	995.4	NA	0.0000		9999	360	0	0	0
2019/12/01 05:00:01	BASE	2.25	84	2.83	81	-2.7	100	-2.7	1	0	995.4	NA	0.0000		9999	330	0	0	0
2019/12/01 05:01:01	BASE	2.52	87	2.83	83	-2.7	100	-2.7	1	0	995.4	NA	0.0000		9999	360	0	0	0
2019/12/01 05:02:01	BASE	2.16	83	2.83	83	-2.8	100	-2.8	1	0	995.5	NA	0.0000		9999	360	0	0	0
2019/12/01 05:03:01	BASE	1.86	74	2.83	83	-2.8	100	-2.8	1	0	995.4	NA	0.0000		9999	300	0	0	0
2019/12/01 05:04:01	BASE	1.75	66	2.83	83	-2.8	100	-2.8	1	0	995.4	NA	0.0000		9999	300	0	0	0
2019/12/01 05:05:01	BASE	1.82	61	2.83	83	-2.8	100	-2.8	1	0	995.4	NA	0.0000		9999	260	0	0	0
2019/12/01 05:06:01	BASE	2.13	60	2.83	83	-2.8	100	-2.8	1	0	995.4	NA	0.0000		9999	230	0	0	0
2019/12/01 05:07:01	BASE	2.48	55	2.98	50	-2.8	100	-2.8	1	0	995.5	NA	0.0000		9999	260	0	0	0
2019/12/01 05:08:01	BASE	2.70	53	2.98	55	-2.8	100	-2.8	1	0	995.5	NA	0.0000		9999	230	0	0	0
2019/12/01 05:09:01	BASE	2.65	57	2.98	55	-2.8	100	-2.8	1	0	995.5	NA	0.0000		9999	260	0	0	0
2019/12/01 05:10:01	BASE	2.46	59	2.98	55	-2.8	100	-2.8	1	0	995.5	NA	0.0000		9999	330	0	0	0
2019/12/01 05:11:01	BASE	2.31	61	2.98	55	-2.8	100	-2.8	1	0	995.5	NA	0.0000		9999	330	0	0	0
2019/12/01 05:12:01	BASE	2.34	58	2.98	55	-2.8	100	-2.8	1	0	995.5	NA	0.0000		9999	360	0	0	0
2019/12/01 05:13:00	BASE	2.26	58	2.98	55	-2.8	100	-2.8	1	0	995.5	NA	0.0000		9999	330	0	0	0
2019/12/01 05:14:01	BASE	1.99	57	2.98	55	-2.8	100	-2.8	1	0	995.5	NA	0.0000		9999	360	0	0	0
2019/12/01 05:15:00	BASE	1.72	58	2.98	55	-2.7	100	-2.7	1	0	995.5	NA	0.0000		9999	330	0	0	0
2019/12/01 05:16:01	BASE	1.87	58	2.98	55	-2.7	100	-2.7	1	0	995.4	NA	0.0000		9999	360	0	0	0
2019/12/01 05:17:01	BASE	2.20	54	2.98	55	-2.7	100	-2.7	1	0	995.4	NA	0.0000		9999	260	0	0	0
2019/12/01 05:18:01	BASE	2.26	56	2.88	53	-2.7	100	-2.7	1	0	995.4	NA	0.0000		9999	230	0	0	0
2019/12/01 05:19:00	BASE	2.02	57	2.88	53	-2.7	100	-2.7	1	0	995.4	NA	0.0000		9999	300	0	0	0
2019/12/01 05:20:00	BASE	2.00	59	2.88	53	-2.7	100	-2.7	1	0	995.4	NA	0.0000		9999	330	0	0	0
2019/12/01 05:21:00	BASE	2.38	57	2.88	53	-2.7	100	-2.7	1	0	995.4	NA	0.0000		9999	260	0	0	0
2019/12/01 05:22:01	BASE	2.56	51	2.88	53	-2.7	100	-2.7	1	0	995.4	NA	0.0000		9999	230	0	0	0
2019/12/01 05:23:00	BASE	2.48	50	2.88	53	-2.7	100	-2.7	1	0	995.4	NA	0.0000		9999	230	0	0	0
2019/12/01 05:24:00	BASE	2.22	51	2.88	53	-2.7	100	-2.7	1	0	995.4	NA	0.0000		9999	230	0	0	0
2019/12/01 05:25:01	BASE	2.02	44	2.88	53	-2.7	100	-2.7	1	0	995.4	NA	0.0000		9999	230	0	0	0
2019/12/01 05:26:01	BASE	1.79	46	2.88	53	-2.7	100	-2.7	1	0	995.5	NA	0.0000		9999	200	0	0	0
2019/12/01 05:27:00	BASE	1.96	48	2.88	53	-2.7	100	-2.7	1	0	995.5	NA	0.0000		9999	260	0	0	0
2019/12/01 05:28:01	BASE	2.41	44	2.88	53	-2.8	100	-2.8	1	0	995.5	NA	0.0000		9999	230	0	0	0
2019/12/01 05:29:00	BASE	2.42	42	2.88	53	-2.8	100	-2.8	1	0	995.5	NA	0.0000		9999	260	0	0	0
2019/12/01 05:30:00	BASE	2.24	44	2.88	53	-2.8	100	-2.8	1	0	995.5	NA	0.0000		9999	330	0	0	0
2019/12/01 05:31:00	BASE	2.20	43	2.88	53	-2.9	100	-2.9	1	0	995.5	NA	0.0000		9999	300	0	0	0
2019/12/01 05:32:01	BASE	2.25	40	2.78	45	-2.8	100	-2.8	1	0	995.5	NA	0.0000		9999	230	0	0	0
2019/12/01 05:33:01	BASE	2.35	39	2.78	44	-2.8	100	-2.8	1	0	995.5	NA	0.0000		9999	230	0	0	0
2019/12/01 05:34:00	BASE	2.59	43	3.24	43	-2.8	100	-2.8	1	0	995.5	NA	0.0000		9999	200	0	0	0
2019/12/01 05:35:00	BASE	2.88	47	3.45	44	-2.8	100	-2.8	1	0	995.5	NA	0.0000		9999	200	0	0	0
2019/12/01 05:36:01	BASE	2.89	46	3.45	44	-2.9	100	-2.9	1	0	995.5	NA	0.0000		9999	200	0	0	0
2019/12/01 05:37:00	BASE	2.68	47	3.45	44	-2.9	100	-2.9	1	0	995.5	NA	0.0000		9999	200	0	0	0
2019/12/01 05:38:00	BASE	2.55	49	3.45	44	-2.9	100	-2.9	1	0	995.5	NA	0.0000		9999	230	0	0	0
2019/12/01 05:39:00	BASE	2.56	51	3.45	44	-3.0	100	-3.0	1	0	995.5	NA	0.0000		8000	230	0	0	0
2019/12/01 05:40:00	BASE	2.63	51	3.45	44	-3.0	100	-3.0	1	0	995.5	NA	0.0000		8000	260	0	0	0
2019/12/01 05:41:00	BASE	2.72	50	3.45	44	-3.0	100	-3.0	1	0	995.5	NA	0.0000		7000	260	0	0	0
2019/12/01 05:42:00	BASE	2.62	50	3.45	44	-3.0	100	-3.0	1	0	995.5	NA	0.0000	UP BR	8000	260	0	0	0
2019/12/01 05:43:00	BASE	2.26	49	3.45	44	-3.0	100	-3.0	2	0	995.5	NA	0.0000	UP BR	9999	300	0	0	0
2019/12/01 05:44:00	BASE	2.14	49	3.45	44	-2.9	100	-2.9	2	0	995.5	NA	0.0000	UP BR	9999	300	0	0	0
2019/12/01 05:45:00	BASE	2.12	51	3.19	50	-2.9	100	-2.9	2	0	995.6	NA	0.0000	UP	9999	360	0	0	0
2019/12/01 05:46:00	BASE	1.73	53	2.98	48	-2.8	100	-2.8	2	0	995.7	NA	0.0000	UP	9999	330	0	0	0
2019/12/01 05:47:00	BASE	1.52	49	2.98	48	-2.9	100	-2.9	2	0	995.7	NA	0.0000	UP	9999	360	0	0	0
2019/12/01 05:48:00	BASE	1.61	45	2.98	48	-2.8	100	-2.8	2	0	995.7	NA	0.0000	UP	9999	390	0	0	0
2019/12/01 05:49:00	BASE	1.73	50	2.98	48	-2.8	100	-2.8	2	0	995.7	NA	0.0000	UP	9999	360	0	0	0
2019/12/01 05:50:00	BASE	1.88	60	2.98	48	-2.8	100	-2.8	2	0	995.7	NA	0.0000	UP	9999	360	0	0	0
2019/12/01 05:51:00	BASE	1.85	61	2.73	53	-2.9	100	-2.9	2	0	995.7	NA	0.0000		9999	390	0	0	0
2019/12/01 05:52:00	BASE	1.61	54	2.68	50	-2.9	100	-2.9	2	0	995.7	NA	0.0000		9999	360	0	0	0
2019/12/01 05:53:00	BASE	1.36	51	2.68	50	-2.9	100	-2.9	2	0	995.7	NA	0.0000		9999	390	0	0	0
2019/12/01 05:54:00	BASE	1.08	52	2.68	50	-2.9	100	-2.9	2	0	995.7	NA	0.0000		9999	430	0	0	0
2019/12/01 05:55:00	BASE	0.47	49	2.21	50	-2.9	100	-2.9	2	0	995.7	NA	0.0000		9999	430	0	0	0
2019/12/01 05:56:00	BASE	0.09	55	2.21	50	-2.8	100	-2.8	2	0	995.7	NA	0.0000		9999	390	0	0	0
2019/12/01 05:57:01	BASE	0.05	68	2.21	50	-2.8	100	-2.8	2	0	995.8	NA	0.0000		9999	390	0	0	0
2019/12/01 05:58:01	BASE	0.00	70	2.21	50	-2.7	100	-2.7	2	0	995.8	NA	0.0000		9999	430	0	0	0
2019/12/01 05:59:00	BASE	0.00	60	1.95	58	-2.7	100	-2.7	2	0	995.8	NA	0.0000		9999	390	0	0	0
2019/12/01 06:00:01	BASE	0.00	62	1.95	58	-2.7	100	-2.7	2	0	995.8	NA	0.0000		9999	390	0	0	0
2019/12/01 06:01:00	BASE	0.00	69	1.80	66	-2.7	100	-2.7	2	0	995.8	NA	0.0000		9999	390	0	0	0
2019/12/01 06:02:01	BASE	0.00	69	1.49	50	-2.7	100	-2.7	2	0	995.8	NA	0.0000		9999	390	0	0	0
2019/12/01 06:03:00	BASE	0.00	68	1.49	50	-2.7	100	-2.7	2	0	995.8	NA	0.0000		9999	390	0	0	0
2019/12/01 06:04:00	BASE	0.00	68	1.08	53	-2.7	100	-2.7	2	0	995.8	NA	0.0000		9999	360	0	0	0
2019/12/01 06:05:00	BASE	0.00	62	1.08	53	-2.7	100	-2.7	2	0	995.8	NA	0.0000		9000	390	0	0	0
2019/12/01 06:06:00	BASE	0.00	69	M	M	-2.7	100	-2.7	2	0	995.8	NA	0.0000	UP	9999	390	0	0	0
2019/12/01 06:07:01	BASE	0.19	89	1.29	106	-2.7	100	-2.7	3	0	995.8	NA	0.0000	UP	9999	390	0	0	0
2019/12/01 06:08:00	BASE	0.86	102	1.65	106	-2.7	100	-2.7	3	0	995.8	NA	0.0000	UP	9999	390	0	0	0
2019/12/01 06:09:00	BASE	1.41	109	1.70	107	-2.7	100	-2.7	3	0	995.8	NA	0.0000	UP	9999	390	0	0	0
2019/12/01 06:10:00	BASE	1.48	104	2.06	96	-2.7	100	-2.7	3	0	995.8	NA	0.0000	UP	9999	360	0	0	0
2019/12/01 06:11:00	BASE	1.38	102	2.06	96	-2.7	100	-2.7	3	0	995.8	NA	0.0000	UP	9999	360	0	0	0
2019/12/01 06:12:00	BASE	1.22	108	2.06	96	-2.7	100	-2.7	3	0	995.8	NA	0.0000	UP	9999	360	0	0	0
2019/12/01 06:13:00	BASE	1.18	114	2.06	96	-2.7	100	-2.7	3	0	995.8	NA	0.0000	UP	9999	390	0	0	0
2019/12/01 06:14:01	BASE	0.61	122	2.06	96	-2.7	100	-2.7	3	0	995.8	NA	0.0000	UP	9999	390	0	0	0
2019/12/01 06:15:00	BASE	0.00	110	2.06	96	-2.7	100	-2.7	3	0	995.8	NA	0.0000	UP	9000	390	0	0	0
2019/12/01 06:16:00	BASE	0.00	94	2.06	96	-2.7	100	-2.7	3	0	995.8	NA	0.0000	UP	8000	360	0	0	0
2019/12/01 06:17:01	BASE	0.00	96	2.06	96	-2.7	100	-2.7	3	0	995.8	NA	0.0000	UP	8000	360	0	0	0
2019/12/01 06:18:01	BASE	0.00	113	2.06	96	-2.7	100	-2.7	3	0	995.8	NA	0.0000	UP	9000	360	0	0	0
2019/12/01 06:19:01	BASE	0.00	154	2.06	96	-2.7	100	-2.7	3	0	995.8	NA	0.0000	UP	9000	360	0	0	0
2019/12/01 06:20:01	BASE	0.00	183	1.54	110	-2.6	100	-2.6	3	0	995.9	NA	0.0000	UP BR	9000	330	0	0	0
2019/12/01 06:21:01	BASE	0.00	197	1.49	120	-2.6	100	-2.6	3	0	995.9	NA	0.0000	UP BR	9999	360	0	0	0
2019/12/01 06:22:01	BASE	0.00	228	1.49	120	-2.6	100	-2.6	3	0	995.9	NA	0.0000	UP BR	9999	330	0	0	0
2019/12/01 06:23:01	BASE	0.00	249	M	M	-2.6	100	-2.6	3	0	995.9	NA	0.0000	UP BR	9999	330	0	0	0
2019/12/01 06:24:01	BASE	0.00	252	M	M	-2.7	100	-2.7	3	0	995.9	NA	0.0000	UP BR	9000	330	0	0	0
2019/12/01 06:25:01	BASE	0.00	259	M	M	-2.7	100	-2.7	3	0	995.8	NA	0.0000	UP BR	9000	330	0	0	0
2019/12/01 06:26:01	BASE	0.20	259	1.34	254	-2.7	100	-2.7	4	0	995.9	NA	0.0000	UP BR	9000	330	0	0	0
2019/12/01 06:27:01	BASE	0.42	265	1.34	254	-2.7	100	-2.7	4	0	995.9	NA	0.0000	UP BR	9999	360	0	0	0
2019/12/01 06:28:01	BASE	0.73	275	1.54	261	-2.7	100	-2.7	4	0	995.9	NA	0.0000	UP BR	9999	330	0	0	0
2019/12/01 06:29:01	BASE	1.30	270	1.80	274	-2.7	100	-2.7	4	0	995.9	NA	0.0000	UP BR	9000	360	0	0	0
2019/12/01 06:30:01	BASE	1.43	276	1.80	274	-2.7	100	-2.7	4	0	996.0	NA	0.0000	UP BR	8000	360	0	0	0
2019/12/01 06:31:01	BASE	0.68	286	1.80	274	-2.7	100	-2.7	4	0	996.0	NA	0.0000	UP BR	9999	360	0	0	0
2019/12/01 06:32:01	BASE	0.05	290	1.80	274	-2.7	100	-2.7	5	0	996.0	NA	0.0000	UP BR	9000	360	0	0	0
2019/12/01 06:33:01	BASE	0.00	290	1.80	274	-2.8	100	-2.8	5	0	996.0	NA	0.0000	UP BR	9000	330	0	0	0
2019/12/01 06:34:01	BASE	0.00	287	1.80	274	-2.8	100	-2.8	5	0	996.0	NA	0.0000	UP BR	9000	360	0	0	0
2019/12/01 06:35:01	BASE	0.13	272	1.80	274	-2.8	100	-2.8	5	0	996.1	NA	0.0000	UP BR	9000	360	0	0	0
2019/12/01 06:36:01	BASE	0.27	268	1.80	274	-2.7	100	-2.7	5	0	996.1	NA	0.0000	UP BR	9000	360	0	0	0
2019/12/01 06:37:01	BASE	0.14	270	1.80	274	-2.7	100	-2.7	5	0	996.1	NA	0.0000	UP BR	9000	330	0	0	0
2019/12/01 06:38:01	BASE	0.13	272	1.80	274	-2.7	100	-2.7	5	0	996.1	NA	0.0000	UP BR	8000	360	0	0	0
2019/12/01 06:39:01	BASE	0.13	274	1.39	274	-2.7	100	-2.7	5	0	996.1	NA	0.0000	UP BR	9000	390	0	0	0
2019/12/01 06:40:01	BASE	0.09	275	1.13	308	-2.7	100	-2.7	6	0	996.1	NA	0.0000	UP BR	9999	390	0	0	0
2019/12/01 06:41:01	BASE	0.09	286	1.13	308	-2.7	100	-2.7	6	0	996.1	NA	0.0000	UP	9999	360	0	0	0
2019/12/01 06:42:01	BASE	0.00	308	1.13	308	-2.7	100	-2.7	6	0	996.0	NA	0.0000	UP	9999	360	0	0	0
2019/12/01 06:43:01	BASE	0.00	322	1.13	308	-2.7	100	-2.7	6	0	996.0	NA	0.0000	UP	9999	360	0	0	0
2019/12/01 06:44:01	BASE	0.00	308	1.13	308	-2.7	100	-2.7	6	0	996.0	NA	0.0000	UP	9999	360	0	0	0
2019/12/01 06:45:01	BASE	0.00	280	1.13	308	-2.6	100	-2.6	6	0	996.0	NA	0.0000	UP	9999	360	0	0	0
2019/12/01 06:46:01	BASE	0.00	251	1.08	268	-2.6	100	-2.6	6	0	996.1	NA	0.0000	UP	8000	360	0	0	0
2019/12/01 06:47:01	BASE	0.00	245	1.08	268	-2.6	100	-2.6	7	0	996.1	NA	0.0000	UP	9000	330	0	0	0
2019/12/01 06:48:01	BASE	0.00	261	1.03	283	-2.6	100	-2.6	7	0	996.1	NA	0.0000	UP	7000	330	0	0	0
2019/12/01 06:49:01	BASE	0.00	270	1.03	283	-2.6	100	-2.6	7	0	996.1	NA	0.0000	UP	7000	330	0	0	0
2019/12/01 06:50:01	BASE	0.00	270	M	M	-2.6	100	-2.6	7	0	996.1	NA	0.0000	UP BR	9000	390	0	0	0
2019/12/01 06:51:01	BASE	0.00	275	M	M	-2.6	100	-2.6	7	0	996.2	NA	0.0000	UP BR	7000	390	0	0	0
2019/12/01 06:52:01	BASE	0.09	276	1.03	274	-2.6	100	-2.6	7	0	996.1	NA	0.0000	UP BR	7000	330	0	0	0
2019/12/01 06:53:01	BASE	0.09	263	1.03	274	-2.6	100	-2.6	8	0	996.2	NA	0.0000	UP BR	8000	330	0	0	0
2019/12/01 06:54:01	BASE	0.00	272	1.03	274	-2.6	100	-2.6	8	0	996.2	NA	0.0000	UP BR	9000	330	0	0	0
2019/12/01 06:55:01	BASE	0.37	290	1.34	283	-2.6	100	-2.6	8	0	996.2	NA	0.0000	UP BR	9000	330	0	0	0
2019/12/01 06:56:01	BASE	0.63	272	1.39	236	-2.6	100	-2.6	8	0	996.2	NA	0.0000	UP BR	6000	300	0	0	0
2019/12/01 06:57:01	BASE	0.41	263	1.39	236	-2.6	100	-2.6	8	0	996.2	NA	0.0000	UP BR	7000	300	0	0	0
2019/12/01 06:58:01	BASE	0.54	268	1.39	236	-2.6	100	-2.6	8	0	996.2	NA	0.0000	UP BR	9000	330	0	0	0
2019/12/01 06:59:01	BASE	0.54	255	1.39	236	-2.6	100	-2.6	9	0	996.2	NA	0.0000	UP BR	9000	330	0	0	0
2019/12/01 07:00:01	BASE	0.50	237	1.39	236	-2.6	100	-2.6	9	0	996.2	NA	0.0000	UP BR	8000	330	0	0	0
2019/12/01 07:01:01	BASE	1.07	223	1.65	210	-2.7	100	-2.7	9	0	996.2	NA	0.0000	UP BR	8000	330	0	0	0
2019/12/01 07:02:01	BASE	1.44	213	1.65	210	-2.7	100	-2.7	9	0	996.2	NA	0.0000	UP BR	8000	330	0	0	0
2019/12/01 07:03:00	BASE	1.50	208	1.85	210	-2.7	100	-2.7	9	0	996.2	NA	0.0000	UP BR	8000	390	0	0	0
2019/12/01 07:04:01	BASE	0.98	201	1.85	210	-2.7	100	-2.7	10	0	996.3	NA	0.0000	UP BR	8000	390	0	0	0
2019/12/01 07:05:01	BASE	0.25	193	1.85	210	-2.8	100	-2.8	10	0	996.3	NA	0.0000	UP BR	8000	360	0	0	0
2019/12/01 07:06:01	BASE	0.33	197	1.85	210	-2.8	100	-2.8	10	0	996.2	NA	0.0000	UP BR	8000	390	0	0	0
2019/12/01 07:07:01	BASE	0.55	196	1.85	210	-2.8	100	-2.8	10	0	996.3	NA	0.0000	UP BR	8000	390	0	0	0
2019/12/01 07:08:01	BASE	0.26	181	1.85	210	-2.8	100	-2.8	10	0	996.3	NA	0.0000	UP BR	9000	360	0	0	0
2019/12/01 07:09:00	BASE	0.00	171	1.85	210	-2.8	100	-2.8	10	0	996.3	NA	0.0000	UP BR	9999	390	0	0	0
2019/12/01 07:10:01	BASE	0.00	194	1.85	210	-2.8	100	-2.8	11	0	996.3	NA	0.0000	BR	9999	390	0	0	0
2019/12/01 07:11:00	BASE	0.00	207	1.85	210	-2.8	100	-2.8	11	0	996.3	NA	0.0000	BR	9999	430	0	0	0
2019/12/01 07:12:01	BASE	0.00	179	1.85	210	-2.8	100	-2.8	11	0	996.3	NA	0.0000		9999	460	0	0	0
2019/12/01 07:13:00	BASE	0.00	168	1.44	188	-2.8	100	-2.8	11	0	996.3	NA	0.0000		9999	430	0	0	0
2019/12/01 07:14:01	BASE	0.00	192	1.44	188	-2.7	100	-2.7	12	0	996.3	NA	0.0000		9999	430	0	0	0
2019/12/01 07:15:00	BASE	0.00	204	1.44	188	-2.7	100	-2.7	12	0	996.3	NA	0.0000		9999	430	0	0	0
2019/12/01 07:16:01	BASE	0.00	176	1.44	188	-2.6	100	-2.6	12	0	996.4	NA	0.0000		9999	430	0	0	0
2019/12/01 07:17:00	BASE	0.00	168	M	M	-2.6	100	-2.6	12	0	996.4	NA	0.0000		8000	330	0	0	0
2019/12/01 07:18:01	BASE	0.45	198	1.39	229	-2.6	100	-2.6	12	0	996.4	NA	0.0000		5000	300	0	0	0
2019/12/01 07:19:00	BASE	1.16	217	1.65	217	-2.6	100	-2.6	13	0	996.4	NA	0.0000	UP	6000	330	0	0	0
2019/12/01 07:20:00	BASE	1.62	213	2.16	195	-2.7	100	-2.7	14	0	996.4	NA	0.0000	UP BR	6000	330	0	0	0
2019/12/01 07:21:01	BASE	1.87	204	2.42	201	-2.7	100	-2.7	15	0	996.4	NA	0.0000	UP BR	8000	330	0	0	0
2019/12/01 07:22:00	BASE	1.91	188	2.42	201	-2.7	100	-2.7	15	0	996.4	NA	0.0000	UP BR	5000	330	0	0	0
2019/12/01 07:23:00	BASE	1.81	174	2.42	201	-2.7	100	-2.7	14	0	996.4	NA	0.0000	UP BR	4200	330	0	0	0
2019/12/01 07:24:00	BASE	1.76	173	2.42	201	-2.7	100	-2.7	14	0	996.4	NA	0.0000	UP BR	4800	360	0	0	0
2019/12/01 07:25:00	BASE	1.70	177	2.42	201	-2.7	100	-2.7	14	0	996.4	NA	0.0000	UP BR	5000	330	0	0	0
2019/12/01 07:26:01	BASE	1.62	178	2.42	201	-2.7	100	-2.7	14	0	996.4	NA	0.0000	UP BR	6000	360	0	0	0
2019/12/01 07:27:01	BASE	1.89	179	2.42	181	-2.8	100	-2.8	15	0	996.4	NA	0.0000	UP BR	7000	360	0	0	0
2019/12/01 07:28:00	BASE	2.29	185	2.62	188	-2.8	100	-2.8	16	0	996.4	NA	0.0000	UP BR	5000	360	0	0	0
2019/12/01 07:29:00	BASE	2.41	185	2.68	189	-2.8	100	-2.8	16	0	996.5	NA	0.0000	UP BR	5000	360	0	0	0
2019/12/01 07:30:00	BASE	2.17	179	2.68	189	-2.8	100	-2.8	17	0	996.5	NA	0.0000	UP BR	5000	360	0	0	0
2019/12/01 07:31:00	BASE	1.95	176	2.68	189	-2.8	100	-2.8	17	0	996.5	NA	0.0000	UP BR	7000	360	0	0	0
2019/12/01 07:32:00	BASE	1.92	175	2.68	189	-2.8	100	-2.8	18	0	996.5	NA	0.0000	UP BR	7000	390	0	0	0
2019/12/01 07:33:00	BASE	1.89	175	2.68	189	-2.8	100	-2.8	19	0	996.5	NA	0.0000	UP BR	7000	390	0	0	0
2019/12/01 07:34:01	BASE	2.02	183	2.68	189	-2.8	100	-2.8	20	0	996.5	NA	0.0000	UP BR	7000	390	0	0	0
2019/12/01 07:35:00	BASE	2.07	191	2.68	189	-2.8	100	-2.8	20	0	996.5	NA	0.0000	UP BR	7000	390	0	0	0
2019/12/01 07:36:00	BASE	1.94	191	2.68	189	-2.8	100	-2.8	21	0	996.5	NA	0.0000	UP BR	7000	430	0	0	0
2019/12/01 07:37:00	BASE	1.80	193	2.68	189	-2.8	100	-2.8	21	0	996.5	NA	0.0000	UP BR	7000	390	0	0	0
2019/12/01 07:38:00	BASE	1.91	189	2.68	189	-2.8	100	-2.8	21	0	996.6	NA	0.0000	UP BR	7000	390	0	0	0
2019/12/01 07:39:00	BASE	1.99	181	2.47	185	-2.8	100	-2.8	22	0	996.5	NA	0.0000	UP BR	7000	360	0	0	0
2019/12/01 07:40:01	BASE	1.94	183	2.47	185	-2.8	100	-2.8	22	0	996.6	NA	0.0000	UP BR	7000	390	0	0	0
2019/12/01 07:41:00	BASE	1.85	186	2.47	185	-2.8	100	-2.8	22	0	996.5	NA	0.0000	BR	7000	390	0	0	0
2019/12/01 07:42:01	BASE	1.72	188	2.47	185	-2.8	100	-2.8	23	0	996.6	NA	0.0000	BR	7000	360	0	0	0
2019/12/01 07:43:00	BASE	1.70	196	2.47	185	-2.8	100	-2.8	23	0	996.6	NA	0.0000	BR	7000	360	0	0	0
2019/12/01 07:44:00	BASE	1.77	206	2.42	188	-2.9	100	-2.9	23	0	996.6	NA	0.0000	UP BR	8000	390	0	0	0
2019/12/01 07:45:00	BASE	1.97	213	2.42	215	-2.9	100	-2.9	23	0	996.6	NA	0.0000	UP BR	9999	390	0	0	0
2019/12/01 07:46:01	BASE	2.12	216	2.47	216	-2.9	100	-2.9	23	0	996.6	NA	0.0000	UP BR	9999	390	0	0	0
2019/12/01 07:47:00	BASE	2.13	216	2.47	216	-3.0	100	-3.0	24	0	996.6	NA	0.0000	UP BR	9999	390	0	0	0
2019/12/01 07:48:00	BASE	2.06	221	2.52	233	-3.0	100	-3.0	24	0	996.6	NA	0.0000	UP BR	9999	360	0	0	0
2019/12/01 07:49:00	BASE	2.03	233	2.52	233	-3.0	100	-3.0	25	0	996.6	NA	0.0000	BR	9999	430	0	0	0
2019/12/01 07:50:00	BASE	1.90	247	2.52	233	-3.0	100	-3.0	26	0	996.6	NA	0.0000		9999	430	0	0	0
2019/12/01 07:51:00	BASE	1.61	249	2.52	233	-3.0	100	-3.0	26	0	996.6	NA	0.0000		9999	390	0	0	0
2019/12/01 07:52:00	BASE	1.32	251	2.52	233	-3.0	100	-3.0	26	0	996.6	NA	0.0000		9999	430	0	0	0
2019/12/01 07:53:00	BASE	1.22	252	2.52	233	-3.0	100	-3.0	27	0	996.6	NA	0.0000		9999	430	0	0	0
2019/12/01 07:54:00	BASE	1.10	254	2.52	233	-3.0	100	-3.0	26	0	996.6	NA	0.0000		9999	430	0	0	0
2019/12/01 07:55:00	BASE	1.09	264	2.52	233	-2.9	100	-2.9	27	0	996.6	NA	0.0000		9999	360	0	0	0
2019/12/01 07:56:00	BASE	1.32	260	2.52	233	-2.9	100	-2.9	29	0	996.6	NA	0.0000		9999	360	0	0	0
2019/12/01 07:57:00	BASE	1.36	253	2.52	233	-2.9	100	-2.9	30	0	996.6	NA	0.0000		9999	360	0	0	0
2019/12/01 07:58:00	BASE	1.01	255	2.31	235	-3.0	100	-3.0	29	0	996.7	NA	0.0000		9999	390	0	0	0
2019/12/01 07:59:00	BASE	0.56	258	2.16	256	-3.0	100	-3.0	30	0	996.7	NA	0.0000		9999	390	0	0	0
2019/12/01 08:00:00	BASE	0.19	255	1.85	250	-3.0	100	-3.0	31	0	996.7	NA	0.0000		9999	460	0	0	0
2019/12/01 08:01:00	BASE	0.00	249	1.85	250	-3.0	100	-3.0	32	0	996.7	NA	0.0000		9999	390	0	0	0
2019/12/01 08:02:00	BASE	0.00	249	1.85	250	-2.9	100	-2.9	32	0	996.8	NA	0.0000		9999	430	0	0	0
2019/12/01 08:03:00	BASE	0.35	249	1.85	250	-2.9	100	-2.9	33	0	996.7	NA	0.0000		9999	430	0	0	0
2019/12/01 08:04:00	BASE	1.08	239	1.85	250	-2.9	100	-2.9	34	0	996.7	NA	0.0000		9999	390	0	0	0
2019/12/01 08:05:00	BASE	1.32	227	1.85	250	-2.8	100	-2.8	34	0	996.7	NA	0.0000		9999	430	0	0	0
2019/12/01 08:06:00	BASE	1.23	219	1.75	231	-2.9	100	-2.9	33	0	996.7	NA	0.0000		9999	390	0	0	0
2019/12/01 08:07:00	BASE	1.27	210	1.75	231	-2.9	100	-2.9	34	0	996.7	NA	0.0000		9999	360	0	0	0
2019/12/01 08:08:00	BASE	1.18	209	1.75	231	-2.9	100	-2.9	35	0	996.8	NA	0.0000		9999	430	0	0	0
2019/12/01 08:09:00	BASE	1.17	216	1.75	212	-2.9	100	-2.9	36	0	996.8	NA	0.0000		9999	460	0	0	0
2019/12/01 08:10:00	BASE	1.43	215	2.06	194	-2.9	100	-2.9	36	0	996.8	NA	0.0000		9999	460	0	0	0
2019/12/01 08:11:00	BASE	1.70	206	2.06	196	-2.9	100	-2.9	36	0	996.8	NA	0.0000		9999	430	0	0	0
2019/12/01 08:12:00	BASE	1.67	202	2.06	196	-2.9	100	-2.9	36	0	996.8	NA	0.0000		9999	390	0	0	0
2019/12/01 08:13:00	BASE	1.41	200	2.06	196	-2.9	100	-2.9	37	0	996.8	NA	0.0000		9999	390	0	0	0
2019/12/01 08:14:00	BASE	1.17	203	2.06	196	-2.9	100	-2.9	38	0	996.8	NA	0.0000		9999	430	0	0	0
2019/12/01 08:15:00	BASE	1.27	222	2.06	196	-3.0	100	-3.0	39	0	996.8	NA	0.0000		9999	460	0	0	0
2019/12/01 08:16:00	BASE	1.63	236	2.06	196	-3.0	100	-3.0	39	0	996.8	NA	0.0000		9999	430	0	0	0
2019/12/01 08:17:00	BASE	1.86	247	2.16	252	-3.0	100	-3.0	40	0	996.8	NA	0.0000		9999	430	0	0	0
2019/12/01 08:18:00	BASE	1.81	251	2.16	252	-3.0	100	-3.0	40	0	996.9	NA	0.0000		9999	390	0	0	0
2019/12/01 08:19:00	BASE	1.69	248	2.16	252	-3.0	100	-3.0	41	0	996.9	NA	0.0000		9999	360	0	0	0
2019/12/01 08:20:00	BASE	1.12	248	2.16	252	-3.0	100	-3.0	41	0	996.9	NA	0.0000		9999	430	0	0	0
2019/12/01 08:21:00	BASE	0.26	247	2.16	252	-3.0	100	-3.0	42	0	996.9	NA	0.0000		9999	430	0	0	0
2019/12/01 08:22:00	BASE	0.00	247	2.16	252	-3.0	100	-3.0	42	0	996.9	NA	0.0000		9999	390	0	0	0
2019/12/01 08:23:00	BASE	0.04	249	2.16	252	-3.0	100	-3.0	42	0	997.0	NA	0.0000		9999	390	0	0	0
2019/12/01 08:24:00	BASE	0.37	249	2.16	252	-3.0	100	-3.0	42	0	997.0	NA	0.0000		9999	430	0	0	0
2019/12/01 08:25:00	BASE	0.74	249	2.16	252	-3.0	100	-3.0	43	0	997.0	NA	0.0000		9999	430	0	0	0
2019/12/01 08:26:00	BASE	0.92	239	2.16	252	-3.0	100	-3.0	44	0	997.0	NA	0.0000		9999	460	0	0	0
2019/12/01 08:27:00	BASE	1.09	222	2.06	234	-3.0	100	-3.0	44	0	997.0	NA	0.0000		9999	460	0	0	0
2019/12/01 08:28:00	BASE	1.10	226	2.06	234	-3.0	100	-3.0	45	0	997.0	NA	0.0000		9999	460	0	0	0
2019/12/01 08:29:00	BASE	0.66	235	1.65	236	-3.0	100	-3.0	46	0	997.0	NA	0.0000		9999	460	0	0	0
2019/12/01 08:30:00	BASE	0.19	224	1.65	236	-3.0	100	-3.0	46	0	997.0	NA	0.0000		9999	460	0	0	0
2019/12/01 08:31:00	BASE	0.27	203	1.65	236	-3.0	100	-3.0	47	0	997.0	NA	0.0000		9999	460	0	0	0
2019/12/01 08:32:00	BASE	0.27	189	1.65	236	-3.0	100	-3.0	48	0	997.0	NA	0.0000		9999	490	0	0	0
2019/12/01 08:33:01	BASE	0.05	188	1.65	236	-3.0	100	-3.0	49	0	997.0	NA	0.0000		9999	460	0	0	0
2019/12/01 08:34:00	BASE	0.00	208	1.65	236	-3.0	100	-3.0	50	0	997.0	NA	0.0000		9999	460	0	0	0
2019/12/01 08:35:00	BASE	0.00	254	1.65	236	-3.0	100	-3.0	50	0	997.0	NA	0.0000		9999	460	0	0	0
2019/12/01 08:36:01	BASE	0.00	282	1.65	236	-3.0	100	-3.0	50	0	997.0	NA	0.0000		9999	460	0	0	0
2019/12/01 08:37:00	BASE	0.00	280	1.65	236	-3.0	100	-3.0	51	0	997.0	NA	0.0000		9999	490	0	0	0
2019/12/01 08:38:00	BASE	0.00	261	1.18	252	-3.0	100	-3.0	52	0	997.0	NA	0.0000		9999	490	0	0	0
2019/12/01 08:39:01	BASE	0.00	249	1.13	185	-3.0	100	-3.0	51	0	997.1	NA	0.0000		9999	490	0	0	0
2019/12/01 08:40:00	BASE	0.15	222	1.29	184	-3.0	100	-3.0	51	0	997.1	NA	0.0000		9999	460	0	0	0
2019/12/01 08:41:00	BASE	0.20	152	1.29	184	-3.0	100	-3.0	53	0	997.1	NA	0.0000		9999	460	0	0	0
2019/12/01 08:42:01	BASE	0.05	137	1.29	184	-3.0	100	-3.0	55	0	997.1	NA	0.0000		9999	460	0	0	0
2019/12/01 08:43:00	BASE	0.00	158	1.29	184	-3.0	100	-3.0	57	0	997.1	NA	0.0000		9999	430	0	0	0
2019/12/01 08:44:01	BASE	0.00	150	1.29	184	-3.0	100	-3.0	58	0	997.1	NA	0.0000		9999	430	0	0	0
2019/12/01 08:45:00	BASE	0.00	133	1.29	184	-2.9	100	-2.9	60	0	997.1	NA	0.0000		9999	460	0	0	0
2019/12/01 08:46:01	BASE	0.00	115	1.29	184	-2.9	100	-2.9	60	0	997.1	NA	0.0000		9999	460	0	0	0
2019/12/01 08:47:01	BASE	0.00	113	1.29	184	-2.9	100	-2.9	62	0	997.1	NA	0.0000		9999	460	0	0	0
2019/12/01 08:48:01	BASE	0.00	142	1.29	184	-2.8	100	-2.8	63	0	997.1	NA	0.0000		9999	460	0	0	0
2019/12/01 08:49:00	BASE	0.00	162	1.29	184	-2.8	100	-2.8	64	0	997.1	NA	0.0000		9999	430	0	0	0
2019/12/01 08:50:00	BASE	0.00	170	1.08	120	-2.8	100	-2.8	65	0	997.1	NA	0.0000		9999	490	0	0	0
2019/12/01 08:51:00	BASE	0.00	171	M	M	-2.9	100	-2.9	65	0	997.2	NA	0.0000		9999	490	0	0	0
2019/12/01 08:52:01	BASE	0.00	160	M	M	-2.9	100	-2.9	65	0	997.2	NA	0.0000		9999	460	0	0	0
2019/12/01 08:53:00	BASE	0.00	154	M	M	-2.9	100	-2.9	65	0	997.2	NA	0.0000		9999	460	0	0	0
2019/12/01 08:54:01	BASE	0.09	151	1.18	137	-2.9	100	-2.9	64	0	997.2	NA	0.0000		9999	490	0	0	0
2019/12/01 08:55:00	BASE	0.48	149	1.39	161	-2.9	100	-2.9	64	0	997.2	NA	0.0000		9999	460	0	0	0
2019/12/01 08:56:01	BASE	1.11	151	1.59	147	-2.9	100	-2.9	65	0	997.2	NA	0.0000		9999	460	0	0	0
2019/12/01 08:57:01	BASE	1.54	154	1.95	171	-2.9	100	-2.9	66	0	997.2	NA	0.0000		9999	460	0	0	0
2019/12/01 08:58:01	BASE	1.72	176	2.06	203	-2.9	100	-2.9	66	0	997.2	NA	0.0000		9999	490	0	0	0
2019/12/01 08:59:00	BASE	1.57	186	2.06	203	-2.9	100	-2.9	66	0	997.2	NA	0.0000		9999	460	0	0	0
2019/12/01 09:00:00	BASE	1.08	155	2.06	203	-2.9	100	-2.9	69	0	997.2	NA	0.0000		9999	460	0	0	0
2019/12/01 09:01:00	BASE	0.75	140	2.06	203	-2.9	100	-2.9	70	0	997.3	NA	0.0000		9999	490	0	0	0
2019/12/01 09:02:01	BASE	0.35	124	2.06	203	-2.9	100	-2.9	72	0	997.3	NA	0.0000		9999	520	0	0	0
2019/12/01 09:03:00	BASE	0.09	117	2.06	203	-2.9	100	-2.9	72	0	997.3	NA	0.0000		9999	520	0	0	0
2019/12/01 09:04:01	BASE	0.13	160	2.06	203	-2.9	100	-2.9	73	0	997.3	NA	0.0000		9999	520	0	0	0
2019/12/01 09:05:00	BASE	0.04	169	2.06	203	-2.8	100	-2.8	73	0	997.3	NA	0.0000		9999	460	20670	0	0
2019/12/01 09:06:01	BASE	0.00	146	2.06	203	-2.8	100	-2.8	73	0	997.3	NA	0.0000		9999	430	0	0	0
2019/12/01 09:07:00	BASE	0.00	128	2.06	203	-2.7	100	-2.7	74	0	997.3	NA	0.0000		9999	520	0	0	0
2019/12/01 09:08:01	BASE	0.00	123	1.75	128	-2.6	100	-2.6	77	0	997.3	NA	0.0000		9999	520	0	0	0
2019/12/01 09:09:00	BASE	0.09	127	1.75	128	-2.6	100	-2.6	79	0	997.3	NA	0.0000		9999	520	0	0	0
2019/12/01 09:10:00	BASE	0.09	144	1.39	160	-2.6	100	-2.6	79	0	997.3	NA	0.0000	UP	9999	520	0	0	0
2019/12/01 09:11:00	BASE	0.00	145	1.08	117	-2.7	100	-2.7	80	0	997.3	NA	0.0000	UP	9999	520	0	0	0
2019/12/01 09:12:01	BASE	0.00	116	1.08	117	-2.7	100	-2.7	83	0	997.3	NA	0.0000	UP	9999	560	0	0	0
2019/12/01 09:13:00	BASE	0.00	117	1.08	117	-2.7	100	-2.7	85	0	997.3	NA	0.0000	UP	9999	520	0	0	0
2019/12/01 09:14:01	BASE	0.04	140	1.08	117	-2.7	100	-2.7	84	0	997.3	NA	0.0000	UP	9999	560	0	0	0
2019/12/01 09:15:00	BASE	0.04	151	1.08	117	-2.7	100	-2.7	82	0	997.4	NA	0.0000	UP	9999	560	0	0	0
2019/12/01 09:16:00	BASE	0.00	169	1.08	117	-2.7	100	-2.7	82	0	997.4	NA	0.0000	UP	9999	520	0	0	0
2019/12/01 09:17:00	BASE	0.00	203	1.08	117	-2.7	100	-2.7	82	0	997.5	NA	0.0000	UP	9999	520	0	0	0
2019/12/01 09:18:01	BASE	0.00	219	1.08	117	-2.7	100	-2.7	82	0	997.5	NA	0.0000	UP	9999	520	0	0	0
2019/12/01 09:19:00	BASE	0.00	225	1.03	154	-2.7	100	-2.7	82	0	997.5	NA	0.0000	UP	9000	490	0	0	0
2019/12/01 09:20:00	BASE	0.00	213	1.03	154	-2.7	100	-2.7	84	0	997.5	NA	0.0000	UP	9999	520	0	0	0
2019/12/01 09:21:00	BASE	0.00	206	1.03	154	-2.6	100	-2.6	85	0	997.5	NA	0.0000	UP	9999	560	0	0	0
2019/12/01 09:22:00	BASE	0.00	198	1.03	154	-2.6	100	-2.6	87	0	997.5	NA	0.0000	UP	9999	520	0	0	0
2019/12/01 09:23:00	BASE	0.00	185	1.03	154	-2.6	100	-2.6	87	0	997.5	NA	0.0000	UP	9999	520	0	0	0
2019/12/01 09:24:00	BASE	0.39	337	1.29	312	-2.6	100	-2.6	86	0	997.5	NA	0.0000	UP	9999	520	0	0	0
2019/12/01 09:25:00	BASE	1.08	311	1.80	316	-2.6	100	-2.6	86	0	997.5	NA	0.0000	UP	9999	520	0	0	0
2019/12/01 09:26:01	BASE	1.66	323	2.42	21	-2.6	100	-2.6	86	0	997.4	NA	0.0000	UP	9999	520	0	0	0
2019/12/01 09:27:00	BASE	1.77	356	2.42	21	-2.5	100	-2.5	86	0	997.5	NA	0.0000	UP	9999	490	0	0	0
2019/12/01 09:28:00	BASE	1.21	2	2.42	21	-2.5	100	-2.5	86	0	997.5	NA	0.0000	UP	9999	520	0	0	0
2019/12/01 09:29:00	BASE	1.18	358	2.42	21	-2.4	100	-2.4	86	0	997.5	NA	0.0000	UP	9999	490	0	0	0
2019/12/01 09:30:00	BASE	1.46	345	2.42	21	-2.4	100	-2.4	84	0	997.5	NA	0.0000	UP	9999	490	0	0	0
2019/12/01 09:31:00	BASE	0.93	334	2.42	21	-2.4	100	-2.4	84	0	997.5	NA	0.0000		9999	460	0	0	0
2019/12/01 09:32:01	BASE	0.44	336	2.42	21	-2.5	100	-2.5	86	0	997.6	NA	0.0000		9999	430	0	0	0
2019/12/01 09:33:00	BASE	0.30	339	2.42	21	-2.5	100	-2.5	88	0	997.6	NA	0.0000	UP	9000	490	0	0	0
2019/12/01 09:34:01	BASE	0.23	342	2.42	21	-2.5	100	-2.5	88	0	997.6	NA	0.0000	UP	9999	490	0	0	0
2019/12/01 09:35:00	BASE	0.14	354	2.42	21	-2.5	100	-2.5	88	0	997.6	NA	0.0000	UP	9999	520	0	0	0
2019/12/01 09:36:01	BASE	0.00	354	1.95	5	-2.5	100	-2.5	88	0	997.6	NA	0.0000	UP	9999	490	0	0	0
2019/12/01 09:37:00	BASE	0.00	358	1.95	5	-2.5	100	-2.5	90	0	997.6	NA	0.0000	UP	9999	490	0	0	0
2019/12/01 09:38:01	BASE	0.00	353	1.95	5	-2.5	100	-2.5	93	0	997.6	NA	0.0000	UP	9999	490	0	0	0
2019/12/01 09:39:00	BASE	0.04	344	1.54	335	-2.5	100	-2.5	94	0	997.6	NA	0.0000	UP	9999	490	0	0	0
2019/12/01 09:40:00	BASE	0.04	345	1.44	354	-2.5	100	-2.5	94	0	997.6	NA	0.0000	UP	9000	460	0	0	0
2019/12/01 09:41:01	BASE	0.09	345	1.44	354	-2.4	100	-2.4	94	0	997.6	NA	0.0000	UP	9999	460	0	0	0
2019/12/01 09:42:00	BASE	0.09	342	1.18	325	-2.4	100	-2.4	95	0	997.6	NA	0.0000	UP	9999	460	0	0	0
2019/12/01 09:43:00	BASE	0.00	312	1.13	354	-2.4	100	-2.4	97	0	997.6	NA	0.0000	UP	9999	490	0	0	0
2019/12/01 09:44:00	BASE	0.00	301	1.13	354	-2.5	100	-2.5	98	0	997.6	NA	0.0000	UP	9999	490	0	0	0
2019/12/01 09:45:00	BASE	0.00	314	1.13	354	-2.5	100	-2.5	101	0	997.6	NA	0.0000	UP	9999	520	0	0	0
2019/12/01 09:46:00	BASE	0.00	327	1.13	354	-2.5	100	-2.5	103	0	997.6	NA	0.0000	UP	9999	520	0	0	0
2019/12/01 09:47:00	BASE	0.00	331	1.13	354	-2.5	100	-2.5	104	0	997.6	NA	0.0000	UP	9999	520	0	0	0
2019/12/01 09:48:00	BASE	0.00	328	1.13	354	-2.5	100	-2.5	105	0	997.6	NA	0.0000	UP	9999	560	0	0	0
2019/12/01 09:49:00	BASE	0.00	335	1.13	354	-2.6	100	-2.6	107	0	997.6	NA	0.0000	UP	9999	560	0	0	0
2019/12/01 09:50:00	BASE	0.13	346	1.18	13	-2.6	100	-2.6	108	0	997.6	NA	0.0000	UP	9999	560	0	0	0
2019/12/01 09:51:00	BASE	0.18	0	1.18	13	-2.6	100	-2.6	109	0	997.6	NA	0.0000	UP	9999	560	0	0	0
2019/12/01 09:52:00	BASE	0.19	6	1.18	13	-2.6	100	-2.6	110	0	997.6	NA	0.0000	UP	9999	520	0	0	0
2019/12/01 09:53:00	BASE	0.66	358	1.54	354	-2.6	100	-2.6	110	0	997.6	NA	0.0000	UP	9999	460	0	0	0
2019/12/01 09:54:00	BASE	1.10	353	1.54	354	-2.6	100	-2.6	112	0	997.6	NA	0.0000		9999	460	0	0	0
2019/12/01 09:55:00	BASE	1.20	347	1.54	354	-2.6	100	-2.6	113	0	997.6	NA	0.0000		9999	460	0	0	0
2019/12/01 09:56:00	BASE	1.30	343	1.54	341	-2.6	100	-2.6	112	0	997.6	NA	0.0000		9999	490	0	0	0
2019/12/01 09:57:00	BASE	1.14	353	1.54	341	-2.6	100	-2.6	110	0	997.6	NA	0.0000		9999	490	0	0	0
2019/12/01 09:58:00	BASE	0.66	346	1.54	341	-2.6	100	-2.6	111	0	997.7	NA	0.0000		9999	490	0	0	0
2019/12/01 09:59:00	BASE	0.28	324	1.54	341	-2.6	100	-2.6	113	0	997.7	NA	0.0000		9999	490	21620	0	0
2019/12/01 10:00:00	BASE	0.14	320	1.54	341	-2.6	100	-2.6	112	0	997.7	NA	0.0000		9999	490	0	0	0
2019/12/01 10:01:00	BASE	0.04	315	1.54	341	-2.6	100	-2.6	113	0	997.7	NA	0.0000		9999	520	0	0	0
2019/12/01 10:02:00	BASE	0.24	326	1.54	341	-2.6	100	-2.6	115	0	997.7	NA	0.0000		9999	520	0	0	0
2019/12/01 10:03:00	BASE	0.38	357	1.54	341	-2.5	100	-2.5	116	0	997.7	NA	0.0000		9999	490	0	0	0
2019/12/01 10:04:00	BASE	0.69	3	1.54	341	-2.5	100	-2.5	117	0	997.7	NA	0.0000		9999	490	0	0	0
2019/12/01 10:05:00	BASE	1.12	351	1.54	341	-2.5	100	-2.5	118	0	997.7	NA	0.0000		9999	490	0	0	0
2019/12/01 10:06:00	BASE	0.61	337	1.49	1	-2.5	100	-2.5	119	0	997.7	NA	0.0000		9999	490	0	0	0
2019/12/01 10:07:00	BASE	0.46	329	1.49	1	-2.5	100	-2.5	119	0	997.7	NA	0.0000		9999	520	0	0	0
2019/12/01 10:08:00	BASE	0.42	331	1.49	1	-2.5	100	-2.5	119	0	997.7	NA	0.0000		9999	520	0	0	0
2019/12/01 10:09:00	BASE	0.00	326	1.49	1	-2.5	100	-2.5	121	0	997.7	NA	0.0000		9999	520	0	0	0
2019/12/01 10:10:00	BASE	0.00	278	1.49	1	-2.5	100	-2.5	123	0	997.7	NA	0.0000		9999	490	0	0	0
2019/12/01 10:11:00	BASE	0.29	247	1.49	1	-2.5	100	-2.5	125	0	997.7	NA	0.0000		9999	520	0	0	0
2019/12/01 10:12:00	BASE	0.33	236	1.49	1	-2.5	100	-2.5	126	0	997.8	NA	0.0000		9999	560	0	0	0
2019/12/01 10:13:00	BASE	0.37	219	1.49	1	-2.6	100	-2.6	127	0	997.8	NA	0.0000		9999	520	0	0	0
2019/12/01 10:14:00	BASE	0.73	202	1.54	196	-2.6	100	-2.6	128	0	997.8	NA	0.0000		9999	490	0	0	0
2019/12/01 10:15:00	BASE	0.50	190	1.54	196	-2.6	100	-2.6	129	0	997.8	NA	0.0000		9999	520	0	0	0
2019/12/01 10:16:00	BASE	0.13	181	1.54	196	-2.6	100	-2.6	129	0	997.8	NA	0.0000		9999	360	0	0	0
2019/12/01 10:17:00	BASE	0.04	177	1.54	196	-2.6	100	-2.6	132	0	997.8	NA	0.0000		9999	330	0	0	0
2019/12/01 10:18:00	BASE	0.00	171	1.54	196	-2.6	100	-2.6	136	0	997.8	NA	0.0000		9999	360	0	0	0
2019/12/01 10:19:00	BASE	0.00	164	1.54	196	-2.6	100	-2.6	139	0	997.8	NA	0.0000		9000	390	0	0	0
2019/12/01 10:20:00	BASE	0.00	157	1.54	196	-2.5	100	-2.5	141	0	997.8	NA	0.0000	UP	9000	360	0	0	0
2019/12/01 10:21:00	BASE	0.00	152	1.54	196	-2.5	100	-2.5	145	0	997.8	NA	0.0000	UP	9000	360	0	0	0
2019/12/01 10:22:00	BASE	0.00	151	1.54	196	-2.5	100	-2.5	147	0	997.8	NA	0.0000	UP	9999	360	0	0	0
2019/12/01 10:23:00	BASE	0.09	147	1.54	196	-2.5	100	-2.5	145	0	997.8	NA	0.0000	UP	9999	360	17160	0	0
2019/12/01 10:24:00	BASE	0.29	140	1.29	133	-2.5	100	-2.5	147	0	997.8	NA	0.0000	UP	9999	390	0	0	0
2019/12/01 10:25:00	BASE	0.24	151	1.29	133	-2.5	100	-2.5	149	0	997.8	NA	0.0000	UP	9999	390	0	0	0
2019/12/01 10:26:00	BASE	0.04	163	1.29	133	-2.5	100	-2.5	147	0	997.8	NA	0.0000	UP	9000	360	0	0	0
2019/12/01 10:27:00	BASE	0.00	144	1.29	133	-2.5	100	-2.5	146	0	997.8	NA	0.0000	UP	9999	360	0	0	0
2019/12/01 10:28:00	BASE	0.00	115	1.29	133	-2.5	100	-2.5	147	0	997.8	NA	0.0000	UP	9000	330	0	0	0
2019/12/01 10:29:00	BASE	0.00	100	1.29	133	-2.5	100	-2.5	147	0	997.9	NA	0.0000	UP	9000	330	0	0	0
2019/12/01 10:30:00	BASE	0.00	92	1.29	133	-2.5	100	-2.5	143	0	997.9	NA	0.0000	UP	9000	330	0	0	0
2019/12/01 10:31:00	BASE	0.00	104	1.29	133	-2.5	100	-2.5	140	0	997.9	NA	0.0000	UP	8000	360	0	0	0
2019/12/01 10:32:00	BASE	0.00	144	1.29	133	-2.4	100	-2.4	140	0	997.9	NA	0.0000	UP BR	7000	360	0	0	0
2019/12/01 10:33:00	BASE	0.43	192	1.70	203	-2.4	100	-2.4	141	0	997.9	NA	0.0000	UP BR	9000	390	0	0	0
2019/12/01 10:34:00	BASE	0.77	191	1.70	203	-2.4	100	-2.4	140	0	997.9	NA	0.0000	UP BR	9999	430	0	0	0
2019/12/01 10:35:00	BASE	0.43	175	1.70	203	-2.4	100	-2.4	139	0	997.8	NA	0.0000	UP BR	9999	430	0	0	0
2019/12/01 10:36:00	BASE	0.27	196	1.70	203	-2.4	100	-2.4	139	0	997.9	NA	0.0000	UP BR	7000	330	0	0	0
2019/12/01 10:37:00	BASE	0.28	197	1.70	203	-2.4	100	-2.4	140	0	997.9	NA	0.0000	UP BR	8000	360	0	0	0
2019/12/01 10:38:00	BASE	0.10	196	1.70	203	-2.4	100	-2.4	141	0	997.9	NA	0.0000	UP BR	5000	360	0	0	0
2019/12/01 10:39:00	BASE	0.04	220	1.70	203	-2.4	100	-2.4	142	0	997.9	NA	0.0000	UP BR	5000	300	0	0	0
2019/12/01 10:40:00	BASE	0.67	223	1.70	203	-2.4	100	-2.4	143	0	998.0	NA	0.0000	UP BR	4800	300	0	0	0
2019/12/01 10:41:00	BASE	0.95	219	1.70	203	-2.5	100	-2.5	144	0	998.0	NA	0.0000	UP BR	4700	330	0	0	0
2019/12/01 10:42:00	BASE	0.49	225	1.70	203	-2.6	100	-2.6	146	0	998.0	NA	0.0000	UP BR	5000	460	0	0	0
2019/12/01 10:43:00	BASE	0.18	232	1.39	212	-2.6	100	-2.6	148	0	998.0	NA	0.0000	UP BR	6000	490	0	0	0
2019/12/01 10:44:00	BASE	0.00	227	1.39	212	-2.6	100	-2.6	148	0	998.0	NA	0.0000	UP BR	7000	490	0	0	0
2019/12/01 10:45:00	BASE	0.00	222	1.39	212	-2.6	100	-2.6	148	0	998.0	NA	0.0000	UP BR	7000	360	0	0	0
2019/12/01 10:46:00	BASE	0.17	229	1.39	212	-2.6	100	-2.6	149	0	998.0	NA	0.0000	UP BR	7000	360	0	0	0
2019/12/01 10:47:00	BASE	0.61	233	1.39	212	-2.6	100	-2.6	149	0	998.0	NA	0.0000	UP BR	7000	490	0	0	0
2019/12/01 10:48:00	BASE	1.02	231	1.65	229	-2.6	100	-2.6	149	0	998.0	NA	0.0000	UP BR	7000	360	0	0	0
2019/12/01 10:49:00	BASE	1.32	230	1.65	228	-2.6	100	-2.6	151	0	998.0	NA	0.0000	UP BR	7000	430	0	0	0
2019/12/01 10:50:00	BASE	1.66	232	2.42	230	-2.6	100	-2.6	152	0	998.0	NA	0.0000	UP BR	9999	390	0	0	0
2019/12/01 10:51:00	BASE	2.26	234	2.83	234	-2.6	100	-2.6	153	0	998.0	NA	0.0000	UP BR	9999	360	0	0	0
2019/12/01 10:52:00	BASE	2.63	233	2.83	234	-2.6	100	-2.6	152	0	998.1	NA	0.0000	UP BR	9999	390	0	0	0
2019/12/01 10:53:00	BASE	2.63	230	2.88	225	-2.6	100	-2.6	152	0	998.2	NA	0.0000	UP BR	9999	460	0	0	0
2019/12/01 10:54:00	BASE	2.67	229	2.93	225	-2.7	100	-2.7	154	0	998.2	NA	0.0000	BR	9999	460	0	0	0
2019/12/01 10:55:00	BASE	2.84	235	3.19	246	-2.7	100	-2.7	155	0	998.2	NA	0.0000	BR	9999	430	0	0	0
2019/12/01 10:56:00	BASE	2.79	237	3.19	246	-2.7	100	-2.7	154	0	998.2	NA	0.0000	BR	9999	460	0	0	0
2019/12/01 10:57:00	BASE	2.59	233	3.19	246	-2.7	100	-2.7	155	0	998.2	NA	0.0000	BR	9999	460	0	0	0
2019/12/01 10:58:00	BASE	2.50	233	3.19	246	-2.7	100	-2.7	155	0	998.2	NA	0.0000		9999	460	0	0	0
2019/12/01 10:59:00	BASE	2.34	235	3.19	246	-2.7	100	-2.7	157	0	998.2	NA	0.0000		9999	460	0	0	0
2019/12/01 11:00:00	BASE	2.44	236	3.19	246	-2.7	100	-2.7	161	0	998.1	NA	0.0000		9999	460	0	0	0
2019/12/01 11:01:00	BASE	2.56	233	3.19	246	-2.7	100	-2.7	162	0	998.1	NA	0.0000		9999	460	0	0	0
2019/12/01 11:02:00	BASE	2.61	227	3.19	246	-2.7	100	-2.7	162	0	998.2	NA	0.0000		9999	430	0	0	0
2019/12/01 11:03:00	BASE	2.75	226	3.19	246	-2.7	100	-2.7	165	0	998.2	NA	0.0000		9999	460	0	0	0
2019/12/01 11:04:00	BASE	2.79	229	3.19	246	-2.7	100	-2.7	168	0	998.2	NA	0.0000		9999	460	0	0	0
2019/12/01 11:05:00	BASE	2.82	229	3.09	225	-2.7	100	-2.7	171	0	998.0	NA	0.0000		9999	460	0	0	0
2019/12/01 11:06:00	BASE	2.91	228	3.14	225	-2.7	100	-2.7	174	0	998.0	NA	0.0000		9999	460	0	0	0
2019/12/01 11:07:00	BASE	2.81	227	3.14	225	-2.7	100	-2.7	176	0	998.0	NA	0.0000		9999	460	0	0	0
2019/12/01 11:08:00	BASE	2.71	223	3.14	225	-2.7	100	-2.7	178	0	998.0	NA	0.0000		9999	460	0	0	0
2019/12/01 11:09:00	BASE	2.77	220	3.14	225	-2.8	100	-2.8	183	0	998.0	NA	0.0000		9999	430	0	0	0
2019/12/01 11:10:00	BASE	2.70	220	3.14	225	-2.8	100	-2.8	185	0	998.0	NA	0.0000		9999	460	0	0	0
2019/12/01 11:11:00	BASE	2.50	218	3.14	225	-2.8	100	-2.8	185	0	998.0	NA	0.0000		9999	430	0	0	0
2019/12/01 11:12:00	BASE	2.51	216	3.14	225	-2.8	100	-2.8	188	0	998.0	NA	0.0000		9999	460	0	0	0
2019/12/01 11:13:00	BASE	2.55	216	3.14	225	-2.8	100	-2.8	189	0	998.0	NA	0.0000		9999	490	0	0	0
2019/12/01 11:14:00	BASE	2.56	218	3.14	225	-2.8	100	-2.8	192	0	998.0	NA	0.0000		9999	490	0	0	0
2019/12/01 11:15:00	BASE	2.49	218	3.14	225	-2.8	100	-2.8	197	0	998.0	NA	0.0000		9999	460	0	0	0
2019/12/01 11:16:00	BASE	2.48	222	2.98	221	-2.8	100	-2.8	199	0	998.0	NA	0.0000		9999	490	0	0	0
2019/12/01 11:17:00	BASE	2.63	224	2.98	221	-2.8	100	-2.8	197	0	998.1	NA	0.0000		9999	460	0	0	0
2019/12/01 11:18:00	BASE	2.52	222	2.98	221	-2.8	100	-2.8	198	0	998.0	NA	0.0000		9999	460	0	0	0
2019/12/01 11:19:00	BASE	2.46	229	2.88	221	-2.8	100	-2.8	198	0	998.0	NA	0.0000		9999	460	0	0	0
2019/12/01 11:20:00	BASE	2.38	234	2.88	221	-2.8	100	-2.8	199	0	998.0	NA	0.0000		9999	430	0	0	0
2019/12/01 11:21:00	BASE	2.31	228	2.88	221	-2.9	100	-2.9	201	0	998.0	NA	0.0000		9999	460	0	0	0
2019/12/01 11:22:00	BASE	2.29	224	2.88	221	-2.9	100	-2.9	202	0	998.0	NA	0.0000		9999	460	0	0	0
2019/12/01 11:23:00	BASE	2.09	228	2.88	221	-2.9	100	-2.9	203	0	998.0	NA	0.0000		9999	460	0	0	0
2019/12/01 11:24:00	BASE	2.04	225	2.88	221	-2.9	100	-2.9	203	0	998.0	NA	0.0000		9999	460	0	0	0
2019/12/01 11:25:00	BASE	2.36	222	2.93	225	-2.9	100	-2.9	204	0	998.0	NA	0.0000		9999	460	0	0	0
2019/12/01 11:26:00	BASE	2.52	221	2.93	225	-2.9	100	-2.9	208	0	998.0	NA	0.0000		9999	460	0	0	0
2019/12/01 11:27:00	BASE	2.31	218	2.93	225	-2.8	100	-2.8	214	0	998.0	NA	0.0000		9999	490	0	0	0
2019/12/01 11:28:00	BASE	2.26	215	2.93	225	-2.8	100	-2.8	215	0	998.0	NA	0.0000		9999	490	0	0	0
2019/12/01 11:29:00	BASE	2.45	216	2.93	225	-2.8	100	-2.8	215	0	998.0	NA	0.0000		9999	460	0	0	0
2019/12/01 11:30:00	BASE	2.50	221	2.93	225	-2.8	100	-2.8	216	0	998.0	NA	0.0000		9999	460	0	0	0
2019/12/01 11:31:00	BASE	2.46	220	2.93	225	-2.8	100	-2.8	214	0	998.0	NA	0.0000		9999	460	0	0	0
2019/12/01 11:32:00	BASE	2.45	218	2.93	225	-2.9	100	-2.9	213	0	998.0	NA	0.0000		9999	460	0	0	0
2019/12/01 11:33:00	BASE	2.31	215	2.93	225	-2.9	100	-2.9	215	0	998.1	NA	0.0000		9999	460	0	0	0
2019/12/01 11:34:00	BASE	2.36	216	2.93	225	-2.9	100	-2.9	213	0	998.2	NA	0.0000		9999	460	0	0	0
2019/12/01 11:35:00	BASE	2.52	220	2.88	225	-2.9	100	-2.9	208	0	998.2	NA	0.0000		9999	460	0	0	0
2019/12/01 11:36:00	BASE	2.53	220	2.88	225	-2.9	100	-2.9	208	0	998.2	NA	0.0000		9999	430	0	0	0
2019/12/01 11:37:00	BASE	2.52	222	2.88	220	-2.9	100	-2.9	211	0	998.2	NA	0.0000		9999	460	0	0	0
2019/12/01 11:38:00	BASE	2.46	221	2.88	220	-2.9	100	-2.9	211	0	998.2	NA	0.0000		9999	430	0	0	0
2019/12/01 11:39:00	BASE	2.25	210	2.88	220	-2.9	100	-2.9	212	0	998.2	NA	0.0000		9999	430	0	0	0
2019/12/01 11:40:00	BASE	2.13	204	2.88	220	-2.9	100	-2.9	219	0	998.2	NA	0.0000		9000	430	0	0	0
2019/12/01 11:41:00	BASE	2.25	203	2.88	220	-2.9	100	-2.9	226	0	998.0	NA	0.0000	UP	9999	430	0	0	0
2019/12/01 11:42:00	BASE	2.23	203	2.88	220	-2.9	100	-2.9	228	0	997.8	NA	0.0000	UP	9999	460	0	0	0
2019/12/01 11:43:00	BASE	2.24	209	2.88	220	-2.9	100	-2.9	225	0	998.2	NA	0.0000	UP	9999	430	0	0	0
2019/12/01 11:44:00	BASE	2.47	214	2.88	220	-2.9	100	-2.9	222	0	998.2	NA	0.0000	UP	9000	430	0	0	0
2019/12/01 11:45:00	BASE	2.37	212	2.88	220	-2.9	100	-2.9	223	0	998.2	NA	0.0000	UP	9999	430	0	0	0
2019/12/01 11:46:00	BASE	2.24	210	2.88	220	-2.9	100	-2.9	224	0	998.2	NA	0.0000	UP	9999	430	0	0	0
2019/12/01 11:47:00	BASE	2.33	208	2.73	210	-2.9	100	-2.9	222	0	998.2	NA	0.0000	UP	9999	460	0	0	0
2019/12/01 11:48:00	BASE	2.05	206	2.73	210	-2.9	100	-2.9	221	0	998.2	NA	0.0000	UP	9999	460	0	0	0
2019/12/01 11:49:00	BASE	2.06	208	2.73	210	-2.9	100	-2.9	222	0	998.1	NA	0.0000	UP	9999	460	0	0	0
2019/12/01 11:50:00	BASE	2.26	214	2.73	210	-2.9	100	-2.9	225	0	998.0	NA	0.0000	UP	9999	460	0	0	0
2019/12/01 11:51:00	BASE	2.18	213	2.98	209	-2.9	100	-2.9	227	0	998.0	NA	0.0000		9999	460	0	0	0
2019/12/01 11:52:00	BASE	2.31	206	2.98	209	-2.9	100	-2.9	231	0	998.0	NA	0.0000		9999	460	0	0	0
2019/12/01 11:53:00	BASE	2.46	202	2.98	209	-2.9	100	-2.9	236	0	998.0	NA	0.0000		9999	460	0	0	0
2019/12/01 11:54:00	BASE	2.54	205	2.98	209	-2.9	100	-2.9	236	0	998.0	NA	0.0000		9999	430	0	0	0
2019/12/01 11:55:00	BASE	2.51	203	2.98	209	-2.9	100	-2.9	238	0	998.1	NA	0.0000		9999	460	0	0	0
2019/12/01 11:56:00	BASE	2.45	203	2.98	209	-2.9	100	-2.9	241	0	998.2	NA	0.0000		9999	430	0	0	0
2019/12/01 11:57:00	BASE	2.45	205	2.98	209	-2.9	100	-2.9	239	0	998.2	NA	0.0000		9999	430	0	0	0
2019/12/01 11:58:00	BASE	2.36	204	2.98	209	-2.9	100	-2.9	242	0	998.2	NA	0.0000		9999	430	0	0	0
2019/12/01 11:59:00	BASE	2.35	207	2.98	209	-2.9	100	-2.9	248	0	998.1	NA	0.0000		9999	430	0	0	0
2019/12/01 12:00:00	BASE	2.31	208	2.98	209	-2.9	100	-2.9	251	0	998.1	NA	0.0000		9999	430	0	0	0
2019/12/01 12:01:00	BASE	2.20	202	2.88	206	-2.9	100	-2.9	252	0	998.1	NA	0.0000		9999	430	0	0	0
2019/12/01 12:02:00	BASE	2.32	203	2.88	206	-2.9	100	-2.9	254	0	998.2	NA	0.0000		9999	430	0	0	0
2019/12/01 12:03:00	BASE	2.60	203	2.88	203	-2.9	100	-2.9	255	0	998.2	NA	0.0000		9999	390	0	0	0
2019/12/01 12:04:00	BASE	2.61	204	2.88	203	-2.9	100	-2.9	252	0	998.2	NA	0.0000		9999	390	0	0	0
2019/12/01 12:05:00	BASE	2.50	205	2.88	203	-2.9	100	-2.9	251	0	998.2	NA	0.0000		9999	390	0	0	0
2019/12/01 12:06:00	BASE	2.37	200	2.88	203	-3.0	100	-3.0	254	0	998.2	NA	0.0000		9999	390	0	0	0
2019/12/01 12:07:00	BASE	2.42	202	2.88	203	-3.0	100	-3.0	253	0	998.1	NA	0.0000		9999	360	0	0	0
2019/12/01 12:08:00	BASE	2.48	204	2.88	203	-3.0	100	-3.0	251	0	998.1	NA	0.0000		9999	390	0	0	0
2019/12/01 12:09:00	BASE	2.27	207	2.88	203	-3.0	100	-3.0	250	0	998.1	NA	0.0000		9999	390	0	0	0
2019/12/01 12:10:00	BASE	2.31	207	2.88	203	-3.0	100	-3.0	250	0	998.0	NA	0.0000		9999	390	0	0	0
2019/12/01 12:11:00	BASE	2.53	201	2.88	203	-3.0	100	-3.0	253	0	998.0	NA	0.0000		9999	390	0	0	0
2019/12/01 12:12:00	BASE	2.58	200	2.88	202	-3.0	100	-3.0	261	0	998.0	NA	0.0000		9999	390	0	0	0
2019/12/01 12:13:00	BASE	2.60	200	2.93	201	-3.0	100	-3.0	264	0	998.0	NA	0.0000		9999	390	0	0	0
2019/12/01 12:14:00	BASE	2.67	200	3.04	191	-3.0	100	-3.0	262	0	998.0	NA	0.0000		9999	390	0	0	0
2019/12/01 12:15:00	BASE	2.68	205	3.04	191	-3.0	100	-3.0	260	0	998.1	NA	0.0000		9999	390	0	0	0
2019/12/01 12:16:00	BASE	2.47	208	3.04	191	-3.0	100	-3.0	257	0	998.2	NA	0.0000		9999	390	0	0	0
2019/12/01 12:17:00	BASE	2.28	213	3.04	191	-3.0	100	-3.0	256	0	998.2	NA	0.0000		9999	430	0	0	0
2019/12/01 12:18:00	BASE	2.35	213	3.04	191	-2.9	100	-2.9	255	0	998.2	NA	0.0000		9999	430	0	0	0
2019/12/01 12:19:00	BASE	2.41	209	3.04	191	-2.9	100	-2.9	252	0	998.2	NA	0.0000		9999	390	0	0	0
2019/12/01 12:20:00	BASE	2.38	206	3.04	191	-2.9	100	-2.9	251	0	998.2	NA	0.0000		9999	390	0	0	0
2019/12/01 12:21:00	BASE	2.29	201	3.04	191	-2.9	100	-2.9	255	0	998.2	NA	0.0000		9999	390	0	0	0
2019/12/01 12:22:00	BASE	2.25	201	3.04	191	-2.9	100	-2.9	255	0	998.2	NA	0.0000		9999	390	0	0	0
2019/12/01 12:23:00	BASE	2.05	197	3.04	191	-2.9	100	-2.9	254	0	998.2	NA	0.0000		9999	390	0	0	0
2019/12/01 12:24:00	BASE	2.00	197	2.93	204	-2.9	100	-2.9	253	0	998.2	NA	0.0000		9999	390	23100	0	0
2019/12/01 12:25:00	BASE	2.16	202	2.78	202	-2.9	100	-2.9	250	0	998.2	NA	0.0000		9999	390	23300	0	0
2019/12/01 12:26:00	BASE	2.03	205	2.78	202	-2.9	100	-2.9	251	0	998.2	NA	0.0000		9999	390	0	0	0
2019/12/01 12:27:00	BASE	1.72	203	2.78	202	-2.9	100	-2.9	257	0	998.2	NA	0.0000		9999	390	0	0	0
2019/12/01 12:28:00	BASE	1.69	203	2.73	209	-2.8	100	-2.8	262	0	998.2	NA	0.0000		9999	390	0	0	0
2019/12/01 12:29:00	BASE	1.89	195	2.73	209	-2.8	100	-2.8	264	0	998.2	NA	0.0000		9999	390	0	0	0
2019/12/01 12:30:00	BASE	1.92	193	2.52	200	-2.8	100	-2.8	266	0	998.2	NA	0.0000		9999	360	0	0	0
2019/12/01 12:31:00	BASE	1.81	198	2.52	200	-2.8	100	-2.8	270	0	998.2	NA	0.0000		9999	360	0	0	0
2019/12/01 12:32:00	BASE	1.65	192	2.42	193	-2.8	100	-2.8	269	0	998.2	NA	0.0000		9999	360	0	0	0
2019/12/01 12:33:00	BASE	1.19	194	2.42	193	-2.9	100	-2.9	269	0	998.2	NA	0.0000		9999	360	0	0	0
2019/12/01 12:34:00	BASE	0.87	196	2.42	193	-2.9	100	-2.9	278	0	998.2	NA	0.0000		9999	390	0	0	0
2019/12/01 12:35:00	BASE	0.66	198	2.42	193	-2.9	100	-2.9	288	0	998.2	NA	0.0000		9999	390	0	0	0
2019/12/01 12:36:00	BASE	0.56	216	2.42	193	-2.9	100	-2.9	289	0	998.3	NA	0.0000		9999	390	0	0	0
2019/12/01 12:37:00	BASE	0.53	219	2.42	193	-2.9	100	-2.9	286	0	998.3	NA	0.0000		9999	390	19820	0	0
2019/12/01 12:38:00	BASE	0.20	218	2.21	203	-2.9	100	-2.9	289	0	998.3	NA	0.0000		9999	430	0	0	0
2019/12/01 12:39:00	BASE	0.65	226	2.21	203	-2.9	100	-2.9	294	0	998.3	NA	0.0000		9999	430	0	0	0
2019/12/01 12:40:00	BASE	1.19	231	1.95	178	-2.9	100	-2.9	293	0	998.1	NA	0.0000		9999	430	0	0	0
2019/12/01 12:41:00	BASE	1.24	233	1.95	178	-2.9	100	-2.9	293	0	998.3	NA	0.0000		9999	390	0	0	0
2019/12/01 12:42:00	BASE	1.28	231	1.54	228	-2.9	100	-2.9	295	0	998.3	NA	0.0000		9999	390	0	0	0
2019/12/01 12:43:00	BASE	1.12	230	1.54	228	-2.9	100	-2.9	296	0	998.3	NA	0.0000		9999	390	0	0	0
2019/12/01 12:44:00	BASE	1.11	227	1.54	234	-2.8	100	-2.8	291	0	998.3	NA	0.0000		9999	390	0	0	0
2019/12/01 12:45:00	BASE	1.51	204	2.21	185	-2.9	100	-2.9	286	0	998.3	NA	0.0000		9999	430	0	0	0
2019/12/01 12:46:00	BASE	1.63	194	2.21	185	-2.9	100	-2.9	283	0	998.3	NA	0.0000		9999	390	0	0	0
2019/12/01 12:47:00	BASE	1.98	212	3.09	219	-2.9	100	-2.9	280	0	998.3	NA	0.0000		9999	360	0	0	0
2019/12/01 12:48:00	BASE	2.64	219	3.09	219	-2.9	100	-2.9	279	0	998.3	NA	0.0000		9999	330	0	0	0
2019/12/01 12:49:00	BASE	3.00	223	3.45	227	-2.9	100	-2.9	284	0	998.3	NA	0.0000		9999	300	0	0	0
2019/12/01 12:50:00	BASE	3.04	222	3.45	227	-3.0	100	-3.0	287	0	998.3	NA	0.0000		9999	330	0	0	0
2019/12/01 12:51:00	BASE	2.67	220	3.45	227	-3.0	100	-3.0	285	0	998.3	NA	0.0000		9999	360	0	0	0
2019/12/01 12:52:00	BASE	2.41	221	3.45	227	-3.0	100	-3.0	287	0	998.3	NA	0.0000		9999	360	0	0	0
2019/12/01 12:53:00	BASE	2.28	214	3.45	227	-3.0	100	-3.0	292	0	998.3	NA	0.0000		9999	330	0	0	0
2019/12/01 12:54:00	BASE	2.23	208	3.45	227	-3.0	100	-3.0	293	0	998.3	NA	0.0000		9999	360	0	0	0
2019/12/01 12:55:00	BASE	2.18	209	3.45	227	-3.0	100	-3.0	291	0	998.3	NA	0.0000		9999	360	0	0	0
2019/12/01 12:56:00	BASE	2.08	211	3.45	227	-3.0	100	-3.0	288	0	998.3	NA	0.0000		9999	360	0	0	0
2019/12/01 12:57:00	BASE	2.07	210	3.45	227	-3.0	100	-3.0	288	0	998.3	NA	0.0000		9999	390	0	0	0
2019/12/01 12:58:00	BASE	1.95	214	3.45	227	-3.0	100	-3.0	289	0	998.3	NA	0.0000		9999	360	0	0	0
2019/12/01 12:59:00	BASE	2.12	223	3.24	217	-3.0	100	-3.0	292	0	998.3	NA	0.0000		9999	360	0	0	0
2019/12/01 13:00:00	BASE	2.35	223	2.78	226	-3.0	100	-3.0	293	0	998.3	NA	0.0000		9999	330	0	0	0
2019/12/01 13:01:00	BASE	2.23	219	2.73	219	-3.0	100	-3.0	291	0	998.3	NA	0.0000		9999	330	22080	0	0
2019/12/01 13:02:00	BASE	2.42	221	2.78	228	-3.0	100	-3.0	290	0	998.3	NA	0.0000		9999	360	0	0	0
2019/12/01 13:03:00	BASE	2.39	221	2.78	228	-3.0	100	-3.0	293	0	998.3	NA	0.0000		9999	330	0	0	0
2019/12/01 13:04:00	BASE	2.12	217	2.78	228	-3.0	100	-3.0	298	0	998.3	NA	0.0000		9999	360	0	0	0
2019/12/01 13:05:00	BASE	2.20	219	2.78	228	-3.0	100	-3.0	301	0	998.3	NA	0.0000		9999	330	0	0	0
2019/12/01 13:06:00	BASE	2.34	220	2.78	228	-3.0	100	-3.0	300	0	997.9	NA	0.0000		9999	330	0	0	0
2019/12/01 13:07:00	BASE	2.21	222	2.78	227	-3.0	100	-3.0	295	0	998.4	NA	0.0000		9999	330	0	0	0
2019/12/01 13:08:00	BASE	2.34	224	2.78	226	-3.0	100	-3.0	295	0	998.4	NA	0.0000		9999	330	0	0	0
2019/12/01 13:09:01	BASE	2.70	224	3.19	223	-3.0	100	-3.0	297	0	998.1	NA	0.0000		9999	330	0	0	0
2019/12/01 13:10:00	BASE	2.82	224	3.24	223	-3.0	100	-3.0	295	0	998.4	NA	0.0000		9999	330	0	0	0
2019/12/01 13:11:00	BASE	2.83	223	3.24	223	-3.0	100	-3.0	292	0	998.4	NA	0.0000		9999	330	0	0	0
2019/12/01 13:12:00	BASE	2.77	221	3.24	223	-3.0	100	-3.0	291	0	998.4	NA	0.0000		9999	330	0	0	0
2019/12/01 13:13:00	BASE	2.76	228	3.24	223	-3.0	100	-3.0	292	0	998.4	NA	0.0000		9999	330	0	0	0
2019/12/01 13:14:00	BASE	2.74	229	3.24	223	-3.0	100	-3.0	292	0	998.4	NA	0.0000		9999	330	0	0	0
2019/12/01 13:15:00	BASE	2.78	224	3.24	223	-3.0	100	-3.0	289	0	998.4	NA	0.0000		9999	330	0	0	0
2019/12/01 13:16:00	BASE	2.70	221	3.24	223	-3.1	100	-3.1	288	0	998.4	NA	0.0000		9999	330	0	0	0
2019/12/01 13:17:00	BASE	2.52	216	3.24	223	-3.1	100	-3.1	291	0	998.4	NA	0.0000		9999	300	0	0	0
2019/12/01 13:18:00	BASE	2.43	213	3.24	223	-3.1	100	-3.1	296	0	998.4	NA	0.0000		9999	300	0	0	0
2019/12/01 13:19:00	BASE	2.26	216	3.24	223	-3.1	100	-3.1	302	0	998.4	NA	0.0000		9999	300	0	0	0
2019/12/01 13:20:00	BASE	2.09	223	3.19	233	-3.1	100	-3.1	306	0	997.9	NA	0.0000		9999	300	0	0	0
2019/12/01 13:21:00	BASE	2.05	225	3.19	233	-3.1	100	-3.1	307	0	998.4	NA	0.0000		9999	300	0	0	0
2019/12/01 13:22:00	BASE	1.85	223	3.19	233	-3.1	100	-3.1	307	0	998.4	NA	0.0000		9999	330	0	0	0
2019/12/01 13:23:00	BASE	1.61	218	3.04	230	-3.1	100	-3.1	306	0	998.4	NA	0.0000		9999	300	0	0	0
2019/12/01 13:24:00	BASE	1.85	224	3.04	230	-3.1	100	-3.1	303	0	998.4	NA	0.0000		9999	300	0	0	0
2019/12/01 13:25:00	BASE	2.15	226	2.78	213	-3.1	100	-3.1	300	0	998.5	NA	0.0000		9999	300	0	0	0
2019/12/01 13:26:00	BASE	2.27	225	2.78	213	-3.1	100	-3.1	299	0	998.2	NA	0.0000		9999	300	0	0	0
2019/12/01 13:27:00	BASE	2.26	227	2.62	231	-3.1	100	-3.1	298	0	998.5	NA	0.0000		9999	300	0	0	0
2019/12/01 13:28:00	BASE	2.29	227	2.68	234	-3.0	100	-3.0	297	0	998.5	NA	0.0000		9999	300	0	0	0
2019/12/01 13:29:00	BASE	2.31	230	2.68	234	-3.0	100	-3.0	300	0	998.5	NA	0.0000		9999	300	20150	0	0
2019/12/01 13:30:00	BASE	2.08	230	2.68	234	-3.0	100	-3.0	304	0	998.5	NA	0.0000		9999	300	0	0	0
2019/12/01 13:31:00	BASE	2.08	228	2.68	234	-3.0	100	-3.0	304	0	998.5	NA	0.0000		9999	300	0	0	0
2019/12/01 13:32:00	BASE	2.18	229	2.68	234	-3.0	100	-3.0	306	0	998.5	NA	0.0000		9999	300	0	0	0
2019/12/01 13:33:00	BASE	1.87	225	2.68	234	-2.9	100	-2.9	310	0	998.5	NA	0.0000		9999	330	0	0	0
2019/12/01 13:34:00	BASE	1.67	215	2.68	234	-2.9	100	-2.9	312	0	998.5	NA	0.0000		9999	330	0	0	0
2019/12/01 13:35:00	BASE	1.68	211	2.68	234	-2.9	100	-2.9	314	0	998.4	NA	0.0000		9999	300	0	0	0
2019/12/01 13:36:00	BASE	1.59	213	2.68	234	-3.0	100	-3.0	319	0	998.4	NA	0.0000		9999	300	0	0	0
2019/12/01 13:37:00	BASE	1.14	222	2.68	234	-3.0	100	-3.0	324	0	998.4	NA	0.0000		9999	300	0	0	0
2019/12/01 13:38:00	BASE	0.43	218	2.52	223	-3.0	100	-3.0	327	0	998.1	NA	0.0000		9999	300	0	0	0
2019/12/01 13:39:01	BASE	0.98	209	2.52	223	-3.0	100	-3.0	326	0	998.4	NA	0.0000		9999	330	0	0	0
2019/12/01 13:40:00	BASE	1.62	207	2.52	223	-2.9	100	-2.9	323	0	998.4	NA	0.0000		9999	330	0	0	0
2019/12/01 13:41:00	BASE	1.46	199	2.31	238	-2.9	100	-2.9	326	0	998.4	NA	0.0000		9999	300	0	0	0
2019/12/01 13:42:00	BASE	1.40	194	1.90	210	-2.9	100	-2.9	330	0	998.4	NA	0.0000		9999	300	0	0	0
2019/12/01 13:43:00	BASE	1.20	198	1.90	210	-2.9	100	-2.9	332	0	998.4	NA	0.0000		9999	300	0	0	0
2019/12/01 13:44:00	BASE	1.07	199	1.90	210	-3.0	100	-3.0	333	0	998.4	NA	0.0000		9999	300	0	0	0
2019/12/01 13:45:00	BASE	0.93	203	1.90	210	-2.9	100	-2.9	334	0	998.4	NA	0.0000		9999	300	0	0	0
2019/12/01 13:46:00	BASE	0.64	216	1.90	210	-2.9	100	-2.9	335	0	998.4	NA	0.0000		9999	330	0	0	0
2019/12/01 13:47:00	BASE	0.76	209	1.90	210	-3.0	100	-3.0	334	0	998.5	NA	0.0000		9999	330	0	0	0
2019/12/01 13:48:00	BASE	1.24	197	1.90	210	-3.0	100	-3.0	328	0	998.5	NA	0.0000		9999	330	0	0	0
2019/12/01 13:49:00	BASE	1.58	208	1.90	214	-3.0	100	-3.0	319	0	998.5	NA	0.0000		9999	330	0	0	0
2019/12/01 13:50:00	BASE	1.77	218	2.11	217	-3.0	100	-3.0	314	0	998.5	NA	0.0000		9999	330	0	0	0
2019/12/01 13:51:00	BASE	2.07	220	2.57	219	-3.0	100	-3.0	310	0	998.5	NA	0.0000		9999	360	0	0	0
2019/12/01 13:52:00	BASE	2.19	217	2.57	219	-3.0	100	-3.0	307	0	998.5	NA	0.0000		9999	330	0	0	0
2019/12/01 13:53:00	BASE	2.00	217	2.57	219	-3.0	100	-3.0	309	0	998.5	NA	0.0000		9999	330	0	0	0
2019/12/01 13:54:00	BASE	1.69	217	2.57	219	-3.0	100	-3.0	316	0	998.4	NA	0.0000		9999	300	0	0	0
2019/12/01 13:55:00	BASE	1.49	216	2.57	219	-3.0	100	-3.0	320	0	998.3	NA	0.0000		9999	330	0	0	0
2019/12/01 13:56:00	BASE	1.69	215	2.57	219	-3.0	100	-3.0	318	0	998.5	NA	0.0000		9999	330	0	0	0
2019/12/01 13:57:00	BASE	1.82	215	2.57	219	-3.1	100	-3.1	315	0	998.5	NA	0.0000		9999	330	0	0	0
2019/12/01 13:58:00	BASE	1.74	219	2.57	219	-3.1	100	-3.1	313	0	998.5	NA	0.0000		9999	330	0	0	0
2019/12/01 13:59:00	BASE	1.70	215	2.57	219	-3.1	100	-3.1	312	0	998.5	NA	0.0000		9999	330	0	0	0
2019/12/01 14:00:00	BASE	1.57	218	2.57	219	-3.1	100	-3.1	315	0	998.5	NA	0.0000		9999	330	0	0	0
2019/12/01 14:01:00	BASE	1.56	232	2.47	214	-3.1	100	-3.1	318	0	998.5	NA	0.0000		9999	330	0	0	0
2019/12/01 14:02:00	BASE	1.69	240	2.11	212	-3.0	100	-3.0	315	0	998.3	NA	0.0000		9999	360	20700	0	0
2019/12/01 14:03:00	BASE	1.77	241	2.11	212	-3.0	100	-3.0	314	0	998.5	NA	0.0000		9999	330	0	0	0
2019/12/01 14:04:00	BASE	1.63	239	2.11	212	-3.0	100	-3.0	320	0	998.5	NA	0.0000		9999	330	0	0	0
2019/12/01 14:05:00	BASE	1.67	234	2.21	230	-3.0	100	-3.0	322	0	998.5	NA	0.0000		9999	330	0	0	0
2019/12/01 14:06:00	BASE	1.95	233	2.37	237	-3.0	100	-3.0	317	0	998.1	NA	0.0000		9999	330	0	0	0
2019/12/01 14:07:00	BASE	1.87	232	2.37	237	-3.1	100	-3.1	313	0	998.4	NA	0.0000		9999	330	0	0	0
2019/12/01 14:08:00	BASE	1.52	236	2.37	237	-3.1	100	-3.1	312	0	998.2	NA	0.0000		9999	330	0	0	0
2019/12/01 14:09:00	BASE	1.34	237	2.37	237	-3.0	100	-3.0	313	0	998.5	NA	0.0000		9999	330	0	0	0
2019/12/01 14:10:00	BASE	1.55	226	2.37	237	-3.0	100	-3.0	317	0	998.5	NA	0.0000		9999	330	0	0	0
2019/12/01 14:11:00	BASE	1.68	226	2.37	237	-3.0	100	-3.0	322	0	998.5	NA	0.0000		9999	330	0	0	0
2019/12/01 14:12:00	BASE	1.72	233	2.37	237	-3.0	100	-3.0	329	0	998.5	NA	0.0000		9999	330	0	0	0
2019/12/01 14:13:00	BASE	1.93	223	2.37	237	-3.0	100	-3.0	330	0	998.5	NA	0.0000		9999	360	0	0	0
2019/12/01 14:14:00	BASE	1.98	214	2.37	237	-3.0	100	-3.0	326	0	998.5	NA	0.0000		9999	360	0	0	0
2019/12/01 14:15:00	BASE	1.84	213	2.37	237	-3.0	100	-3.0	325	0	998.5	NA	0.0000		9999	330	0	0	0
2019/12/01 14:16:00	BASE	1.26	206	2.21	218	-3.0	100	-3.0	330	0	998.2	NA	0.0000		9999	330	0	0	0
2019/12/01 14:17:00	BASE	1.20	206	2.21	218	-3.0	100	-3.0	334	0	998.3	NA	0.0000		9999	360	0	0	0
2019/12/01 14:18:00	BASE	1.85	213	2.47	221	-3.0	100	-3.0	328	0	998.5	NA	0.0000		9999	330	0	0	0
2019/12/01 14:19:00	BASE	1.79	220	2.47	221	-3.0	100	-3.0	328	0	998.5	NA	0.0000		9999	330	0	0	0
2019/12/01 14:20:00	BASE	1.59	218	2.47	221	-3.0	100	-3.0	334	0	998.5	NA	0.0000		9999	330	0	0	0
2019/12/01 14:21:00	BASE	1.74	209	2.47	221	-2.9	100	-2.9	335	0	998.5	NA	0.0000		9999	330	0	0	0
2019/12/01 14:22:00	BASE	1.89	209	2.47	221	-2.9	100	-2.9	333	0	998.5	NA	0.0000		9999	330	0	0	0
2019/12/01 14:23:00	BASE	2.21	209	2.68	202	-2.9	100	-2.9	338	0	998.5	NA	0.0000		9999	360	0	0	0
2019/12/01 14:24:00	BASE	2.50	204	2.83	210	-2.8	100	-2.8	339	0	998.5	NA	0.0000		9999	360	0	0	0
2019/12/01 14:25:00	BASE	2.26	195	2.83	210	-2.8	100	-2.8	333	0	998.5	NA	0.0000		9999	300	0	0	0
2019/12/01 14:26:00	BASE	2.02	190	2.83	210	-2.8	100	-2.8	335	0	998.5	NA	0.0000		9999	330	0	0	0
2019/12/01 14:27:00	BASE	1.69	189	2.83	210	-2.8	100	-2.8	339	0	998.5	NA	0.0000		9999	330	0	0	0
2019/12/01 14:28:00	BASE	1.61	199	2.83	210	-2.8	100	-2.8	338	0	998.5	NA	0.0000		9999	330	0	0	0
2019/12/01 14:29:00	BASE	2.02	218	2.83	210	-2.8	100	-2.8	342	0	998.5	NA	0.0000		9999	330	0	0	0
2019/12/01 14:30:00	BASE	2.22	215	2.83	210	-2.8	100	-2.8	346	0	998.5	NA	0.0000		9999	360	18310	0	0
2019/12/01 14:31:00	BASE	2.12	199	2.83	210	-2.8	100	-2.8	343	0	998.5	NA	0.0000		9999	360	0	0	0
2019/12/01 14:32:00	BASE	1.95	195	2.83	210	-2.8	100	-2.8	349	0	998.5	NA	0.0000		9999	430	0	0	0
2019/12/01 14:33:00	BASE	1.83	192	2.83	210	-2.9	100	-2.9	355	0	998.5	NA	0.0000		9999	430	0	0	0
2019/12/01 14:34:00	BASE	1.80	191	2.62	213	-2.9	100	-2.9	353	0	998.5	NA	0.0000		9999	330	0	0	0
2019/12/01 14:35:00	BASE	2.04	194	2.62	213	-2.9	100	-2.9	353	0	998.2	NA	0.0000		9999	330	0	0	0
2019/12/01 14:36:00	BASE	2.02	194	2.62	213	-2.9	100	-2.9	352	0	998.5	NA	0.0000		9999	300	0	0	0
2019/12/01 14:37:00	BASE	1.77	197	2.62	213	-2.9	100	-2.9	348	0	998.3	NA	0.0000		9999	330	22970	0	0
2019/12/01 14:38:00	BASE	1.68	199	2.62	213	-2.9	100	-2.9	352	0	998.5	NA	0.0000		9999	360	0	0	0
2019/12/01 14:39:00	BASE	1.63	201	2.62	213	-2.9	100	-2.9	356	0	998.5	NA	0.0000		9999	360	0	0	0
2019/12/01 14:40:00	BASE	1.48	208	2.42	194	-2.9	100	-2.9	356	0	998.5	NA	0.0000		9999	360	0	0	0
2019/12/01 14:41:00	BASE	1.34	212	2.42	194	-2.9	100	-2.9	356	0	998.5	NA	0.0000		9999	360	0	0	0
2019/12/01 14:42:00	BASE	1.06	220	2.42	194	-2.9	100	-2.9	360	0	998.5	NA	0.0000		9999	360	0	0	0
2019/12/01 14:43:00	BASE	1.02	230	2.62	213	-2.9	100	-2.9	365	0	997.9	NA	0.0000		9999	360	22930	0	0
2019/12/01 14:44:00	BASE	1.72	221	2.62	213	-2.9	100	-2.9	364	0	998.1	NA	0.0000		9999	360	0	0	0
2019/12/01 14:45:00	BASE	2.25	212	2.62	213	-2.9	100	-2.9	361	0	998.0	NA	0.0000		9999	360	0	0	0
2019/12/01 14:46:00	BASE	2.09	219	2.62	213	-2.9	100	-2.9	363	0	998.6	NA	0.0000		9999	360	0	0	0
2019/12/01 14:47:00	BASE	1.84	226	2.62	213	-2.9	100	-2.9	366	0	998.5	NA	0.0000		9999	390	0	0	0
2019/12/01 14:48:00	BASE	1.69	224	2.62	213	-2.9	100	-2.9	367	0	998.5	NA	0.0000		9999	360	23300	0	0
2019/12/01 14:49:00	BASE	1.54	228	2.62	213	-2.9	100	-2.9	371	0	998.5	NA	0.0000		9999	360	0	0	0
2019/12/01 14:50:00	BASE	1.45	234	2.62	213	-3.0	100	-3.0	376	0	998.5	NA	0.0000		9999	360	0	0	0
2019/12/01 14:51:00	BASE	1.54	237	2.62	213	-3.0	100	-3.0	378	0	998.5	NA	0.0000		9999	390	0	0	0
2019/12/01 14:52:00	BASE	1.59	240	2.62	213	-3.0	100	-3.0	385	0	998.5	NA	0.0000		9999	390	0	0	0
2019/12/01 14:53:00	BASE	1.66	245	2.57	221	-3.0	100	-3.0	393	0	998.5	NA	0.0000		9999	360	23260	0	0
2019/12/01 14:54:00	BASE	1.44	255	2.57	221	-3.0	100	-3.0	392	0	998.5	NA	0.0000		9999	360	0	0	0
2019/12/01 14:55:00	BASE	1.06	263	2.26	227	-2.9	100	-2.9	390	0	998.5	NA	0.0000		9999	390	0	0	0
2019/12/01 14:56:00	BASE	0.82	265	2.26	227	-2.9	100	-2.9	393	0	998.2	NA	0.0000		9999	390	0	0	0
2019/12/01 14:57:00	BASE	0.34	268	2.06	230	-2.9	100	-2.9	395	0	998.5	NA	0.0000		9999	390	0	0	0
2019/12/01 14:58:00	BASE	0.00	251	2.01	251	-2.9	100	-2.9	396	0	998.5	NA	0.0000		9999	390	0	0	0
2019/12/01 14:59:00	BASE	0.06	245	2.01	251	-2.8	100	-2.8	400	0	998.5	NA	0.0000		9999	390	0	0	0
2019/12/01 15:00:00	BASE	0.76	258	2.01	251	-2.8	100	-2.8	402	0	998.5	NA	0.0000		9999	430	0	0	0
2019/12/01 15:01:00	BASE	1.47	255	2.01	251	-2.8	100	-2.8	398	0	998.6	NA	0.0000		9999	430	0	0	0
2019/12/01 15:02:00	BASE	1.36	256	2.01	251	-2.7	100	-2.7	394	0	998.6	NA	0.0000		9999	430	0	0	0
2019/12/01 15:03:00	BASE	1.16	256	2.01	251	-2.8	100	-2.8	399	0	998.6	NA	0.0000		9999	390	0	0	0
2019/12/01 15:04:00	BASE	1.23	248	1.75	257	-2.7	100	-2.7	401	0	998.6	NA	0.0000		9999	430	0	0	0
2019/12/01 15:05:00	BASE	1.20	238	1.75	257	-2.8	100	-2.8	402	0	998.6	NA	0.0000		9999	390	0	0	0
2019/12/01 15:06:00	BASE	1.37	231	2.16	231	-2.8	100	-2.8	403	0	998.6	NA	0.0000		9999	390	0	0	0
2019/12/01 15:07:00	BASE	1.80	231	2.21	223	-2.8	100	-2.8	406	0	998.5	NA	0.0000		9999	430	0	0	0
2019/12/01 15:08:00	BASE	2.00	227	2.21	219	-2.8	100	-2.8	404	0	998.5	NA	0.0000		9999	390	0	0	0
2019/12/01 15:09:00	BASE	1.99	220	2.31	215	-2.8	100	-2.8	402	0	998.5	NA	0.0000		9999	390	0	0	0
2019/12/01 15:10:00	BASE	2.02	217	2.42	213	-2.8	100	-2.8	402	0	998.5	NA	0.0000		9999	390	0	0	0
2019/12/01 15:11:00	BASE	2.26	214	2.62	220	-2.8	100	-2.8	398	0	998.5	NA	0.0000		9999	390	0	0	0
2019/12/01 15:12:00	BASE	2.15	212	2.62	220	-2.8	100	-2.8	391	0	998.0	NA	0.0000		9999	390	0	0	0
2019/12/01 15:13:00	BASE	1.97	213	2.62	220	-2.8	100	-2.8	393	0	998.5	NA	0.0000		9999	390	0	0	0
2019/12/01 15:14:00	BASE	1.99	213	2.62	220	-2.8	100	-2.8	397	0	998.5	NA	0.0000		9999	390	0	0	0
2019/12/01 15:15:00	BASE	1.97	224	2.62	220	-2.8	100	-2.8	396	0	998.5	NA	0.0000		9999	390	0	0	0
2019/12/01 15:16:00	BASE	1.97	239	2.62	220	-2.8	100	-2.8	397	0	998.5	NA	0.0000		9999	390	0	0	0
2019/12/01 15:17:00	BASE	1.72	246	2.62	220	-2.8	100	-2.8	400	0	998.5	NA	0.0000		9999	390	0	0	0
2019/12/01 15:18:00	BASE	1.53	250	2.62	220	-2.9	100	-2.9	399	0	998.5	NA	0.0000		9999	360	0	0	0
2019/12/01 15:19:00	BASE	1.65	246	2.62	220	-2.9	100	-2.9	401	0	998.5	NA	0.0000		9999	360	0	0	0
2019/12/01 15:20:00	BASE	1.68	236	2.62	220	-2.9	100	-2.9	399	0	998.5	NA	0.0000		9999	390	0	0	0
2019/12/01 15:21:00	BASE	1.54	229	2.47	225	-2.9	100	-2.9	396	0	998.5	NA	0.0000		9999	390	0	0	0
2019/12/01 15:22:00	BASE	1.44	227	2.47	225	-2.9	100	-2.9	397	0	998.5	NA	0.0000		9999	430	0	0	0
2019/12/01 15:23:00	BASE	1.67	223	2.31	234	-2.9	100	-2.9	401	0	998.2	NA	0.0000		9999	390	0	0	0
2019/12/01 15:24:00	BASE	1.88	219	2.31	210	-2.9	100	-2.9	401	0	998.4	NA	0.0000		9999	390	0	0	0
2019/12/01 15:25:00	BASE	2.08	216	2.42	212	-2.9	100	-2.9	400	0	998.5	NA	0.0000		9999	430	0	0	0
2019/12/01 15:26:00	BASE	2.11	215	2.42	212	-2.9	100	-2.9	403	0	998.5	NA	0.0000		9999	430	0	0	0
2019/12/01 15:27:00	BASE	2.16	216	2.68	216	-2.9	100	-2.9	403	0	998.5	NA	0.0000		9999	430	0	0	0
2019/12/01 15:28:00	BASE	2.35	212	2.68	216	-2.9	100	-2.9	401	0	998.5	NA	0.0000		9999	390	0	0	0
2019/12/01 15:29:00	BASE	2.25	210	2.68	216	-2.9	100	-2.9	402	0	998.5	NA	0.0000		9999	430	0	0	0
2019/12/01 15:30:00	BASE	2.22	211	2.68	216	-2.9	100	-2.9	408	0	998.5	NA	0.0000		9999	430	0	0	0
2019/12/01 15:31:00	BASE	2.30	212	2.68	216	-2.8	100	-2.8	413	0	998.5	NA	0.0000		9999	430	0	0	0
2019/12/01 15:32:00	BASE	2.46	215	2.78	216	-2.8	100	-2.8	412	0	998.5	NA	0.0000		9999	430	0	0	0
2019/12/01 15:33:00	BASE	2.52	212	2.78	209	-2.7	100	-2.7	415	0	998.5	NA	0.0000		9999	390	0	0	0
2019/12/01 15:34:00	BASE	2.34	206	2.78	209	-2.7	100	-2.7	417	0	998.5	NA	0.0000		9999	390	0	0	0
2019/12/01 15:35:00	BASE	2.19	201	2.78	209	-2.7	100	-2.7	419	0	998.5	NA	0.0000		9999	430	0	0	0
2019/12/01 15:36:00	BASE	2.34	198	2.78	209	-2.7	100	-2.7	424	0	998.5	NA	0.0000		9999	390	0	0	0
2019/12/01 15:37:00	BASE	2.47	209	2.78	209	-2.8	100	-2.8	427	0	998.5	NA	0.0000		9999	430	0	0	0
2019/12/01 15:38:00	BASE	2.18	212	2.78	209	-2.8	100	-2.8	431	0	998.5	NA	0.0000		9999	430	0	0	0
2019/12/01 15:39:00	BASE	1.82	203	2.78	209	-2.8	100	-2.8	437	0	998.5	NA	0.0000		9999	390	0	0	0
2019/12/01 15:40:00	BASE	1.82	201	2.78	209	-2.8	100	-2.8	441	0	998.5	NA	0.0000		9999	430	0	0	0
2019/12/01 15:41:00	BASE	1.87	204	2.78	209	-2.8	100	-2.8	443	0	998.5	NA	0.0000		9999	430	0	0	0
2019/12/01 15:42:00	BASE	1.94	204	2.78	209	-2.8	100	-2.8	447	0	998.5	NA	0.0000		9999	460	0	0	0
2019/12/01 15:43:00	BASE	1.93	205	2.78	209	-2.8	100	-2.8	449	0	998.5	NA	0.0000		9999	460	0	0	0
2019/12/01 15:44:00	BASE	1.87	203	2.78	209	-2.7	100	-2.7	447	0	998.5	NA	0.0000		9999	430	0	0	0
2019/12/01 15:45:00	BASE	1.90	196	2.78	209	-2.7	100	-2.7	446	0	998.5	NA	0.0000		9999	430	0	0	0
2019/12/01 15:46:00	BASE	1.90	191	2.73	223	-2.8	100	-2.8	447	0	998.4	NA	0.0000		9999	430	0	0	0
2019/12/01 15:47:00	BASE	2.05	188	2.52	187	-2.7	100	-2.7	449	0	998.4	NA	0.0000		9999	430	0	0	0
2019/12/01 15:48:00	BASE	2.24	182	2.52	187	-2.7	100	-2.7	446	0	998.4	NA	0.0000		9999	490	0	0	0
2019/12/01 15:49:00	BASE	2.28	176	2.57	173	-2.7	100	-2.7	442	0	998.4	NA	0.0000		9999	460	19490	0	0
2019/12/01 15:50:00	BASE	2.19	172	2.57	173	-2.7	100	-2.7	450	0	998.4	NA	0.0000		9999	460	18080	0	0
2019/12/01 15:51:00	BASE	1.76	158	2.57	173	-2.7	100	-2.7	469	0	998.4	NA	0.0000		9999	490	22050	0	0
2019/12/01 15:52:00	BASE	1.35	166	2.57	173	-2.6	100	-2.6	483	0	998.5	NA	0.0000		9999	490	0	0	0
2019/12/01 15:53:00	BASE	0.86	172	2.57	173	-2.6	100	-2.6	490	0	998.5	NA	0.0000		9999	520	22970	0	0
2019/12/01 15:54:00	BASE	0.26	168	2.57	173	-2.5	100	-2.5	493	0	998.5	NA	0.0000		9999	520	0	0	0
2019/12/01 15:55:00	BASE	0.43	181	2.57	173	-2.4	100	-2.4	493	0	998.5	NA	0.0000		9999	520	0	0	0
2019/12/01 15:56:00	BASE	0.68	189	2.57	173	-2.4	100	-2.4	494	0	998.0	NA	0.0000		9999	520	0	0	0
2019/12/01 15:57:00	BASE	0.84	174	2.57	173	-2.5	100	-2.5	493	0	998.5	NA	0.0000		9999	520	0	0	0
2019/12/01 15:58:00	BASE	1.01	159	2.57	173	-2.4	100	-2.4	488	0	998.5	NA	0.0000		9999	490	0	0	0
2019/12/01 15:59:00	BASE	0.84	154	2.52	166	-2.4	100	-2.4	482	0	998.5	NA	0.0000		9999	520	0	0	0
2019/12/01 16:00:00	BASE	1.35	149	2.21	160	-2.3	100	-2.3	477	0	998.5	NA	0.0000		9999	520	0	0	0
2019/12/01 16:01:00	BASE	1.67	148	2.21	160	-2.3	100	-2.3	471	0	998.5	NA	0.0000		9999	460	0	0	0
2019/12/01 16:02:00	BASE	1.14	140	2.21	160	-2.2	100	-2.2	466	0	998.5	NA	0.0000		9999	490	0	0	0
2019/12/01 16:03:00	BASE	1.21	139	2.21	160	-2.2	100	-2.2	469	0	998.6	NA	0.0000		9999	520	0	0	0
2019/12/01 16:04:00	BASE	1.28	140	2.21	160	-2.2	100	-2.2	470	0	998.6	NA	0.0000		9999	490	23030	0	0
2019/12/01 16:05:00	BASE	0.71	144	2.21	160	-2.2	100	-2.2	467	0	998.6	NA	0.0000		9999	390	0	0	0
2019/12/01 16:06:00	BASE	0.92	173	2.06	153	-2.2	100	-2.2	464	0	998.6	NA	0.0000		9999	460	0	0	0
2019/12/01 16:07:00	BASE	1.28	200	2.06	153	-2.2	100	-2.2	455	0	998.6	NA	0.0000		9999	490	0	0	0
2019/12/01 16:08:00	BASE	1.27	212	2.06	153	-2.2	100	-2.2	444	0	998.6	NA	0.0000		9999	360	0	0	0
2019/12/01 16:09:00	BASE	1.62	216	2.31	208	-2.3	100	-2.3	437	0	998.7	NA	0.0000		9999	430	0	0	0
2019/12/01 16:10:00	BASE	1.74	222	2.31	208	-2.4	100	-2.4	437	0	998.7	NA	0.0000		9999	520	0	0	0
2019/12/01 16:11:00	BASE	1.71	234	2.31	208	-2.5	100	-2.5	440	0	998.8	NA	0.0000		9999	520	0	0	0
2019/12/01 16:12:00	BASE	1.84	244	2.31	208	-2.5	100	-2.5	445	0	998.8	NA	0.0000		9999	490	0	0	0
2019/12/01 16:13:00	BASE	1.79	245	2.31	208	-2.6	100	-2.6	450	0	998.8	NA	0.0000		9999	490	0	0	0
2019/12/01 16:14:00	BASE	1.21	235	2.31	208	-2.6	100	-2.6	450	0	998.8	NA	0.0000		9999	490	0	0	0
2019/12/01 16:15:00	BASE	0.47	225	2.31	208	-2.7	100	-2.7	454	0	998.8	NA	0.0000		9999	460	0	0	0
2019/12/01 16:16:00	BASE	0.09	223	2.31	208	-2.7	100	-2.7	462	0	998.8	NA	0.0000		9999	490	0	0	0
2019/12/01 16:17:00	BASE	0.00	223	2.31	208	-2.7	100	-2.7	464	0	998.8	NA	0.0000		9999	460	0	0	0
2019/12/01 16:18:00	BASE	0.00	224	2.31	208	-2.7	100	-2.7	465	0	998.8	NA	0.0000		9999	490	0	0	0
2019/12/01 16:19:00	BASE	0.34	247	2.21	242	-2.6	100	-2.6	466	0	998.9	NA	0.0000		9999	460	0	0	0
2019/12/01 16:20:00	BASE	1.01	280	2.21	242	-2.5	100	-2.5	470	0	998.9	NA	0.0000		9999	460	0	0	0
2019/12/01 16:21:00	BASE	1.62	290	2.31	293	-2.3	100	-2.3	474	0	998.9	NA	0.0000		9999	520	0	0	0
2019/12/01 16:22:00	BASE	1.94	289	2.31	293	-2.1	100	-2.1	479	0	998.9	NA	0.0000		9999	590	0	0	0
2019/12/01 16:23:00	BASE	1.85	293	2.31	293	-2.0	100	-2.0	487	0	998.9	NA	0.0000		9999	490	0	0	0
2019/12/01 16:24:00	BASE	1.40	298	2.31	293	-1.9	100	-1.9	480	0	998.8	NA	0.0000		9999	490	0	0	0
2019/12/01 16:25:00	BASE	1.13	295	2.31	293	-2.0	100	-2.0	475	0	998.8	NA	0.0000		9999	490	0	0	0
2019/12/01 16:26:00	BASE	1.33	292	2.31	293	-2.0	100	-2.0	473	0	998.5	NA	0.0000		9999	490	0	0	0
2019/12/01 16:27:00	BASE	0.79	287	2.31	293	-2.1	100	-2.1	477	0	998.8	NA	0.0000		9999	490	19750	0	0
2019/12/01 16:28:00	BASE	0.31	273	2.31	293	-2.2	100	-2.2	488	0	998.8	NA	0.0000		9999	460	0	0	0
2019/12/01 16:29:00	BASE	0.68	272	2.31	293	-2.2	100	-2.2	495	0	998.8	NA	0.0000		9999	460	0	0	0
2019/12/01 16:30:00	BASE	0.42	282	2.31	293	-2.2	100	-2.2	492	0	998.8	NA	0.0000		9999	560	0	0	0
2019/12/01 16:31:00	BASE	0.23	285	2.21	277	-2.3	100	-2.3	492	0	998.8	NA	0.0000		9999	460	0	0	0
2019/12/01 16:32:00	BASE	0.58	291	2.11	295	-2.3	100	-2.3	490	0	998.8	NA	0.0000		9999	460	0	0	0
2019/12/01 16:33:00	BASE	0.39	282	1.75	292	-2.3	100	-2.3	486	0	998.8	NA	0.0000		9999	460	0	0	0
2019/12/01 16:34:00	BASE	0.38	291	1.75	292	-2.4	100	-2.4	491	0	998.8	NA	0.0000		9999	490	0	0	0
2019/12/01 16:35:00	BASE	0.61	304	1.75	292	-2.4	100	-2.4	500	0	998.8	NA	0.0000		9999	490	0	0	0
2019/12/01 16:36:00	BASE	0.46	294	1.44	324	-2.4	100	-2.4	510	0	998.8	NA	0.0000		9999	490	0	0	0
2019/12/01 16:37:00	BASE	0.50	275	1.44	324	-2.3	100	-2.3	515	0	998.8	NA	0.0000		9999	460	0	0	0
2019/12/01 16:38:00	BASE	0.51	253	1.44	324	-2.3	100	-2.3	511	0	998.8	NA	0.0000		9999	490	0	0	0
2019/12/01 16:39:00	BASE	0.69	230	1.44	215	-2.3	100	-2.3	498	0	998.8	NA	0.0000		9999	460	22210	0	0
2019/12/01 16:40:00	BASE	1.16	216	1.95	217	-2.3	100	-2.3	484	0	998.8	NA	0.0000		9999	460	0	0	0
2019/12/01 16:41:00	BASE	1.48	228	1.95	234	-2.3	100	-2.3	479	0	998.6	NA	0.0000		9999	460	0	0	0
2019/12/01 16:42:00	BASE	1.18	242	1.95	234	-2.2	100	-2.2	484	0	998.7	NA	0.0000		9999	430	0	0	0
2019/12/01 16:43:00	BASE	0.72	246	1.95	234	-2.2	100	-2.2	487	0	998.7	NA	0.0000		9999	430	0	0	0
2019/12/01 16:44:00	BASE	0.64	233	1.95	234	-2.2	100	-2.2	489	0	998.7	NA	0.0000		9999	460	0	0	0
2019/12/01 16:45:00	BASE	0.97	222	1.95	234	-2.3	100	-2.3	491	0	998.8	NA	0.0000		9999	460	0	0	0
2019/12/01 16:46:00	BASE	1.58	223	1.95	228	-2.3	100	-2.3	480	0	998.8	NA	0.0000		9999	460	0	0	0
2019/12/01 16:47:00	BASE	1.82	223	2.11	231	-2.4	100	-2.4	465	0	998.8	NA	0.0000		9999	460	0	0	0
2019/12/01 16:48:00	BASE	1.73	223	2.11	231	-2.4	100	-2.4	454	0	998.8	NA	0.0000		9999	460	0	0	0
2019/12/01 16:49:00	BASE	1.47	225	2.11	231	-2.4	100	-2.4	448	0	998.8	NA	0.0000		9999	460	0	0	0
2019/12/01 16:50:00	BASE	1.43	228	2.11	231	-2.5	100	-2.5	448	0	998.8	NA	0.0000		9999	460	21980	0	0
2019/12/01 16:51:00	BASE	1.55	222	2.11	231	-2.5	100	-2.5	449	0	998.8	NA	0.0000		9999	460	0	0	0
2019/12/01 16:52:00	BASE	1.50	224	2.11	231	-2.5	100	-2.5	447	0	998.8	NA	0.0000		9999	490	0	0	0
2019/12/01 16:53:00	BASE	1.28	228	2.11	231	-2.5	100	-2.5	443	0	998.8	NA	0.0000		9999	490	0	0	0
2019/12/01 16:54:00	BASE	1.23	228	2.11	231	-2.6	100	-2.6	442	0	998.8	NA	0.0000		9999	490	0	0	0
2019/12/01 16:55:00	BASE	1.30	232	2.11	231	-2.6	100	-2.6	442	0	998.8	NA	0.0000		9999	460	0	0	0
2019/12/01 16:56:00	BASE	1.34	223	2.11	231	-2.5	100	-2.5	439	0	998.8	NA	0.0000		9999	490	0	0	0
2019/12/01 16:57:00	BASE	1.34	218	2.06	232	-2.5	100	-2.5	441	0	998.8	NA	0.0000		9999	490	0	0	0
2019/12/01 16:58:00	BASE	1.29	223	2.06	232	-2.5	100	-2.5	444	0	998.8	NA	0.0000		9999	490	0	0	0
2019/12/01 16:59:00	BASE	1.11	225	2.06	232	-2.5	100	-2.5	434	0	998.8	NA	0.0000		9999	490	0	0	0
2019/12/01 17:00:00	BASE	1.14	221	2.06	232	-2.5	100	-2.5	426	0	998.6	NA	0.0000		9999	490	0	0	0
2019/12/01 17:01:00	BASE	1.44	220	1.75	209	-2.5	100	-2.5	430	0	998.8	NA	0.0000		9999	490	0	0	0
2019/12/01 17:02:00	BASE	1.35	220	1.75	209	-2.6	100	-2.6	433	0	998.6	NA	0.0000		9999	490	0	0	0
2019/12/01 17:03:00	BASE	1.35	230	1.95	260	-2.6	100	-2.6	430	0	998.7	NA	0.0000		9999	490	0	0	0
2019/12/01 17:04:00	BASE	1.54	250	2.01	258	-2.5	100	-2.5	429	0	998.8	NA	0.0000		9999	520	0	0	0
2019/12/01 17:05:00	BASE	1.48	253	2.01	258	-2.5	100	-2.5	430	0	998.9	NA	0.0000		9999	520	23100	0	0
2019/12/01 17:06:00	BASE	0.85	252	2.01	258	-2.5	100	-2.5	433	0	998.9	NA	0.0000		9999	490	0	0	0
2019/12/01 17:07:00	BASE	0.85	265	2.01	258	-2.4	100	-2.4	438	0	998.9	NA	0.0000		9999	490	0	0	0
2019/12/01 17:08:00	BASE	1.44	273	2.01	258	-2.4	100	-2.4	436	0	998.9	NA	0.0000		9999	490	0	0	0
2019/12/01 17:09:00	BASE	1.55	268	2.06	258	-2.5	100	-2.5	435	0	998.9	NA	0.0000		9999	490	0	0	0
2019/12/01 17:10:00	BASE	1.74	268	2.31	298	-2.5	100	-2.5	440	0	998.9	NA	0.0000		9999	490	18800	0	0
2019/12/01 17:11:00	BASE	1.85	286	2.31	298	-2.5	100	-2.5	446	0	998.9	NA	0.0000		9999	520	0	0	0
2019/12/01 17:12:00	BASE	1.92	300	2.31	300	-2.4	100	-2.4	450	0	998.9	NA	0.0000		9999	520	0	0	0
2019/12/01 17:13:00	BASE	2.08	297	2.52	293	-2.3	100	-2.3	454	0	999.0	NA	0.0000		9999	490	0	0	0
2019/12/01 17:14:00	BASE	2.24	290	2.52	289	-2.3	100	-2.3	457	0	999.0	NA	0.0000		9999	520	0	0	0
2019/12/01 17:15:00	BASE	1.97	289	2.52	289	-2.2	100	-2.2	457	0	999.0	NA	0.0000		9999	520	0	0	0
2019/12/01 17:16:00	BASE	1.63	292	2.52	289	-2.2	100	-2.2	456	0	998.8	NA	0.0000		9999	520	0	0	0
2019/12/01 17:17:00	BASE	1.28	302	2.52	289	-2.2	100	-2.2	458	0	998.8	NA	0.0000		9999	520	0	0	0
2019/12/01 17:18:00	BASE	0.97	310	2.52	289	-2.2	100	-2.2	459	0	998.9	NA	0.0000		9999	520	0	0	0
2019/12/01 17:19:00	BASE	1.62	303	2.52	289	-2.2	100	-2.2	458	0	998.9	NA	0.0000		9999	520	0	0	0
2019/12/01 17:20:00	BASE	1.87	299	2.52	289	-2.2	100	-2.2	461	0	998.9	NA	0.0000		9999	520	0	0	0
2019/12/01 17:21:00	BASE	1.56	296	2.52	289	-2.2	100	-2.2	466	0	998.9	NA	0.0000		9999	490	0	0	0
2019/12/01 17:22:00	BASE	1.50	291	2.52	289	-2.2	100	-2.2	467	0	998.9	NA	0.0000		9999	490	0	0	0
2019/12/01 17:23:00	BASE	1.56	292	2.52	289	-2.2	100	-2.2	469	0	998.9	NA	0.0000		9999	490	0	0	0
2019/12/01 17:24:00	BASE	1.73	300	2.47	299	-2.3	100	-2.3	471	0	998.9	NA	0.0000		9999	520	23070	0	0
2019/12/01 17:25:00	BASE	1.67	302	2.47	299	-2.3	100	-2.3	469	0	998.9	NA	0.0000		9999	520	0	0	0
2019/12/01 17:26:00	BASE	1.65	304	2.47	299	-2.2	100	-2.2	471	0	998.9	NA	0.0000		9999	520	0	0	0
2019/12/01 17:27:00	BASE	1.73	312	2.47	299	-2.2	100	-2.2	477	0	998.9	NA	0.0000		9999	520	18640	0	0
2019/12/01 17:28:00	BASE	1.69	319	2.47	299	-2.2	100	-2.2	475	0	999.0	NA	0.0000		9999	520	0	0	0
2019/12/01 17:29:00	BASE	1.70	316	2.21	289	-2.1	100	-2.1	462	0	999.0	NA	0.0000		9999	490	0	0	0
2019/12/01 17:30:00	BASE	1.73	309	2.21	289	-2.1	100	-2.1	451	0	999.0	NA	0.0000		9999	460	0	0	0
2019/12/01 17:31:00	BASE	1.33	316	2.21	289	-2.1	100	-2.1	448	0	999.0	NA	0.0000		9999	460	0	0	0
2019/12/01 17:32:00	BASE	1.04	329	2.21	289	-2.1	100	-2.1	450	0	999.0	NA	0.0000		9999	490	0	0	0
2019/12/01 17:33:00	BASE	0.56	335	2.11	314	-2.1	100	-2.1	458	0	999.0	NA	0.0000		9999	490	0	0	0
2019/12/01 17:34:00	BASE	0.00	334	2.11	314	-2.2	100	-2.2	460	0	999.0	NA	0.0000		9999	490	0	0	0
2019/12/01 17:35:00	BASE	0.00	333	2.11	314	-2.2	100	-2.2	457	0	999.0	NA	0.0000		9999	490	0	0	0
2019/12/01 17:36:00	BASE	0.00	324	1.95	302	-2.2	100	-2.2	462	0	999.0	NA	0.0000		9999	460	0	0	0
2019/12/01 17:37:00	BASE	0.23	334	1.95	302	-2.2	100	-2.2	458	0	999.0	NA	0.0000		9999	460	0	0	0
2019/12/01 17:38:00	BASE	0.23	11	1.95	302	-2.2	100	-2.2	457	0	999.0	NA	0.0000		9999	520	0	0	0
2019/12/01 17:39:00	BASE	0.00	26	1.95	302	-2.2	100	-2.2	451	0	999.0	NA	0.0000		9999	520	0	0	0
2019/12/01 17:40:00	BASE	0.00	11	1.70	328	-2.2	100	-2.2	448	0	999.0	NA	0.0000		9999	560	0	0	0
2019/12/01 17:41:00	BASE	0.00	17	1.39	338	-2.2	100	-2.2	446	0	999.0	NA	0.0000		9999	560	0	0	0
2019/12/01 17:42:00	BASE	0.00	35	1.18	341	-2.2	100	-2.2	444	0	998.7	NA	0.0000		9999	520	0	0	0
2019/12/01 17:43:00	BASE	0.00	65	1.18	341	-2.2	100	-2.2	443	0	999.0	NA	0.0000		9999	520	0	0	0
2019/12/01 17:44:00	BASE	0.14	186	1.23	162	-2.1	100	-2.2	447	0	999.0	NA	0.0000		9999	560	0	0	0
2019/12/01 17:45:00	BASE	0.14	177	1.23	162	-2.1	100	-2.1	452	0	999.0	NA	0.0000		9999	520	0	0	0
2019/12/01 17:46:00	BASE	0.00	168	1.23	162	-2.0	100	-2.0	457	0	998.9	NA	0.0000		9999	520	0	0	0
2019/12/01 17:47:00	BASE	0.09	149	1.23	162	-2.0	100	-2.0	460	0	998.9	NA	0.0000		9999	520	0	0	0
2019/12/01 17:48:00	BASE	0.14	135	1.23	162	-1.9	100	-1.9	463	0	998.9	NA	0.0000		9999	490	0	0	0
2019/12/01 17:49:00	BASE	0.27	155	1.23	162	-1.9	100	-1.9	464	0	998.9	NA	0.0000		9999	490	0	0	0
2019/12/01 17:50:00	BASE	0.37	190	1.23	162	-2.0	100	-2.0	461	0	998.9	NA	0.0000		9999	520	0	0	0
2019/12/01 17:51:00	BASE	0.14	214	1.23	162	-2.0	100	-2.0	454	0	998.9	NA	0.0000		9999	520	0	0	0
2019/12/01 17:52:00	BASE	0.00	225	1.23	162	-2.1	100	-2.1	444	0	999.0	NA	0.0000		9999	560	0	0	0
2019/12/01 17:53:00	BASE	0.00	220	1.23	162	-2.2	100	-2.2	439	0	998.8	NA	0.0000		9999	520	0	0	0
2019/12/01 17:54:00	BASE	0.00	236	1.18	170	-2.3	100	-2.3	436	0	999.0	NA	0.0000		9999	520	0	0	0
2019/12/01 17:55:00	BASE	0.00	284	1.18	170	-2.2	100	-2.2	431	0	999.0	NA	0.0000		9999	560	0	0	0
2019/12/01 17:56:00	BASE	0.19	299	1.18	336	-2.2	100	-2.2	424	0	999.0	NA	0.0000		9999	490	0	0	0
2019/12/01 17:57:00	BASE	0.38	305	1.18	305	-2.1	100	-2.1	420	0	999.0	NA	0.0000		9999	490	0	0	0
2019/12/01 17:58:00	BASE	0.63	314	1.39	310	-2.0	100	-2.0	417	0	999.0	NA	0.0000		9999	520	22340	0	0
2019/12/01 17:59:00	BASE	0.66	326	1.44	334	-1.8	100	-1.8	418	0	999.1	NA	0.0000		9999	520	0	0	0
2019/12/01 18:00:00	BASE	0.65	336	1.44	334	-1.8	100	-1.8	422	0	999.1	NA	0.0000		9999	520	0	0	0
2019/12/01 18:01:00	BASE	0.52	335	1.44	334	-1.8	100	-1.8	430	0	999.1	NA	0.0000		9999	490	0	0	0
2019/12/01 18:02:00	BASE	0.09	342	1.44	334	-1.8	100	-1.8	431	0	999.1	NA	0.0000		9999	520	0	0	0
2019/12/01 18:03:00	BASE	0.00	192	1.44	334	-1.8	100	-1.8	420	0	999.1	NA	0.0000		9999	560	0	0	0
2019/12/01 18:04:00	BASE	0.00	206	1.44	334	-1.8	100	-1.8	412	0	999.1	NA	0.0000		9999	560	0	0	0
2019/12/01 18:05:00	BASE	0.00	191	1.44	334	-1.8	100	-1.8	407	0	999.0	NA	0.0000		9999	560	0	0	0
2019/12/01 18:06:00	BASE	0.00	161	1.44	334	-1.8	100	-1.8	401	0	999.1	NA	0.0000		9999	620	0	0	0
2019/12/01 18:07:00	BASE	0.00	96	1.44	334	-1.7	100	-1.7	398	0	999.1	NA	0.0000		9999	620	0	0	0
2019/12/01 18:08:00	BASE	0.23	81	1.44	334	-1.8	100	-1.8	393	0	999.1	NA	0.0000		9999	660	0	0	0
2019/12/01 18:09:01	BASE	0.84	212	1.44	224	-1.8	100	-1.8	386	0	999.1	NA	0.0000		9999	620	20050	0	0
2019/12/01 18:10:00	BASE	1.16	217	1.49	214	-1.8	100	-1.8	382	0	999.1	NA	0.0000		9999	520	0	0	0
2019/12/01 18:11:00	BASE	0.82	221	1.49	214	-1.7	100	-1.7	380	0	999.1	NA	0.0000		9999	520	23200	0	0
2019/12/01 18:12:00	BASE	0.32	257	1.49	214	-1.8	100	-1.8	378	0	999.1	NA	0.0000		9999	490	0	0	0
2019/12/01 18:13:00	BASE	0.39	300	1.49	214	-1.8	100	-1.8	378	0	999.1	NA	0.0000		9999	490	0	0	0
2019/12/01 18:14:00	BASE	0.94	307	1.54	305	-1.7	100	-1.7	378	0	999.1	NA	0.0000		9999	560	0	0	0
2019/12/01 18:15:00	BASE	1.36	295	1.90	300	-1.7	100	-1.7	378	0	999.1	NA	0.0000		9999	460	0	0	0
2019/12/01 18:16:00	BASE	1.06	280	1.90	300	-1.7	100	-1.7	378	0	999.1	NA	0.0000		9999	460	0	0	0
2019/12/01 18:17:00	BASE	0.31	267	1.90	300	-1.7	100	-1.7	382	0	999.1	NA	0.0000		9999	460	0	0	0
2019/12/01 18:18:00	BASE	0.24	258	1.90	300	-1.7	100	-1.7	385	0	999.1	NA	0.0000		9999	460	0	0	0
2019/12/01 18:19:00	BASE	0.75	257	1.90	300	-1.8	100	-1.8	385	0	999.1	NA	0.0000		9999	490	0	0	0
2019/12/01 18:20:00	BASE	1.39	253	2.11	256	-1.9	100	-1.9	387	0	999.0	NA	0.0000		9999	490	0	0	0
2019/12/01 18:21:00	BASE	1.49	244	2.11	256	-1.9	100	-1.9	387	0	999.0	NA	0.0000		9999	520	0	0	0
2019/12/01 18:22:00	BASE	1.22	225	2.11	256	-2.0	100	-2.0	383	0	999.0	NA	0.0000		9999	490	0	0	0
2019/12/01 18:23:00	BASE	0.66	220	2.11	256	-2.0	100	-2.0	382	0	999.0	NA	0.0000		9999	490	0	0	0
2019/12/01 18:24:00	BASE	0.52	231	2.11	256	-2.0	100	-2.0	379	0	999.1	NA	0.0000		9999	490	0	0	0
2019/12/01 18:25:00	BASE	1.20	244	2.11	256	-2.0	100	-2.0	375	0	999.1	NA	0.0000		9999	460	0	0	0
2019/12/01 18:26:00	BASE	1.74	261	2.42	262	-2.1	100	-2.1	376	0	999.0	NA	0.0000		9999	460	0	0	0
2019/12/01 18:27:00	BASE	2.08	275	2.52	273	-2.1	100	-2.1	381	0	998.7	NA	0.0000		9999	460	0	0	0
2019/12/01 18:28:00	BASE	2.09	278	2.52	273	-2.1	100	-2.1	384	0	998.6	NA	0.0000		9999	490	0	0	0
2019/12/01 18:29:00	BASE	1.94	272	2.52	273	-2.2	100	-2.2	384	0	999.1	NA	0.0000		9999	490	0	0	0
2019/12/01 18:30:00	BASE	1.55	270	2.52	273	-2.2	100	-2.2	378	0	999.1	NA	0.0000		9999	520	0	0	0
2019/12/01 18:31:00	BASE	1.52	279	2.52	273	-2.3	100	-2.3	374	0	999.1	NA	0.0000		9999	490	0	0	0
2019/12/01 18:32:00	BASE	1.64	288	2.52	273	-2.3	100	-2.3	372	0	999.1	NA	0.0000		9999	520	0	0	0
2019/12/01 18:33:00	BASE	1.67	303	2.52	273	-2.3	100	-2.3	368	0	998.9	NA	0.0000		9999	520	0	0	0
2019/12/01 18:34:00	BASE	1.73	322	2.52	273	-2.2	100	-2.2	365	0	999.1	NA	0.0000		9999	520	0	0	0
2019/12/01 18:35:00	BASE	1.37	326	2.52	273	-2.2	100	-2.2	366	0	999.1	NA	0.0000		9999	490	0	0	0
2019/12/01 18:36:00	BASE	1.31	317	2.52	273	-2.1	100	-2.1	364	0	999.1	NA	0.0000		9999	460	0	0	0
2019/12/01 18:37:00	BASE	1.84	312	2.52	314	-2.0	100	-2.0	353	0	999.2	NA	0.0000		9999	490	0	0	0
2019/12/01 18:38:00	BASE	1.95	319	2.52	314	-2.0	100	-2.0	340	0	999.2	NA	0.0000		9999	460	0	0	0
2019/12/01 18:39:00	BASE	1.50	330	2.52	314	-2.0	100	-2.0	329	0	999.2	NA	0.0000		9999	430	0	0	0
2019/12/01 18:40:00	BASE	0.67	337	2.52	314	-2.0	100	-2.0	326	0	999.2	NA	0.0000		9999	460	0	0	0
2019/12/01 18:41:00	BASE	0.05	357	2.52	314	-2.1	100	-2.1	325	0	999.2	NA	0.0000		9999	390	0	0	0
2019/12/01 18:42:00	BASE	0.00	36	2.52	314	-2.1	100	-2.1	324	0	999.2	NA	0.0000		9999	460	0	0	0
2019/12/01 18:43:00	BASE	0.00	51	2.52	314	-2.2	100	-2.2	322	0	999.2	NA	0.0000		9999	460	0	0	0
2019/12/01 18:44:00	BASE	0.00	93	2.52	314	-2.1	100	-2.1	319	0	999.2	NA	0.0000		9999	490	0	0	0
2019/12/01 18:45:00	BASE	0.00	221	2.52	314	-2.0	100	-2.0	313	0	999.2	NA	0.0000		9999	490	0	0	0
2019/12/01 18:46:00	BASE	0.45	230	2.52	314	-1.9	100	-1.9	308	0	999.2	NA	0.0000		9999	560	0	0	0
2019/12/01 18:47:00	BASE	0.61	226	2.11	330	-1.9	100	-1.9	306	0	999.2	NA	0.0000		9999	560	0	0	0
2019/12/01 18:48:00	BASE	0.15	237	1.54	333	-1.9	100	-1.9	303	0	999.2	NA	0.0000		9999	460	0	0	0
2019/12/01 18:49:00	BASE	0.00	259	1.34	223	-1.9	100	-1.9	300	0	999.2	NA	0.0000		9999	430	0	0	0
2019/12/01 18:50:00	BASE	0.00	281	1.34	223	-1.9	100	-1.9	299	0	999.2	NA	0.0000		9999	460	0	0	0
2019/12/01 18:51:00	BASE	0.00	161	1.34	223	-1.8	100	-1.8	297	0	999.2	NA	0.0000		9999	490	0	0	0
2019/12/01 18:52:00	BASE	0.00	174	1.34	223	-1.7	100	-1.7	291	0	999.2	NA	0.0000		9999	460	0	0	0
2019/12/01 18:53:00	BASE	0.00	179	1.34	223	-1.7	100	-1.7	286	0	999.2	NA	0.0000		9999	460	0	0	0
2019/12/01 18:54:00	BASE	0.45	202	1.75	227	-1.7	100	-1.7	284	0	999.2	NA	0.0000		9999	460	0	0	0
2019/12/01 18:55:00	BASE	1.04	222	1.75	227	-1.8	100	-1.8	283	0	999.2	NA	0.0000		9999	460	0	0	0
2019/12/01 18:56:00	BASE	1.26	213	1.75	227	-1.9	100	-1.9	283	0	999.0	NA	0.0000		9999	460	0	0	0
2019/12/01 18:57:00	BASE	1.12	200	1.75	227	-2.0	100	-2.0	284	0	999.3	NA	0.0000		9999	460	0	0	0
2019/12/01 18:58:00	BASE	1.14	208	1.75	227	-2.0	100	-2.0	284	0	999.3	NA	0.0000		9999	490	0	0	0
2019/12/01 18:59:00	BASE	1.22	221	1.75	227	-2.1	100	-2.1	283	0	999.4	NA	0.0000		9999	460	0	0	0
2019/12/01 19:00:00	BASE	1.42	219	1.95	221	-2.1	100	-2.1	281	0	999.4	NA	0.0000		9999	490	0	0	0
2019/12/01 19:01:00	BASE	1.72	215	2.11	221	-2.1	100	-2.1	278	0	999.4	NA	0.0000		9999	460	0	0	0
2019/12/01 19:02:00	BASE	1.72	222	2.11	221	-2.1	100	-2.1	273	0	999.3	NA	0.0000		9999	490	0	0	0
2019/12/01 19:03:00	BASE	1.52	240	2.11	221	-2.1	100	-2.1	270	0	999.4	NA	0.0000		9999	520	0	0	0
2019/12/01 19:04:00	BASE	0.99	259	2.11	221	-2.1	100	-2.1	272	0	999.3	NA	0.0000		9999	460	0	0	0
2019/12/01 19:05:00	BASE	1.01	290	2.11	221	-2.1	100	-2.1	274	0	999.1	NA	0.0000		9999	490	0	0	0
2019/12/01 19:06:00	BASE	1.26	327	2.11	221	-2.0	100	-2.0	274	0	999.4	NA	0.0000		9999	520	0	0	0
2019/12/01 19:07:00	BASE	0.68	323	2.11	221	-2.0	100	-2.0	271	0	999.4	NA	0.0000		9999	520	0	0	0
2019/12/01 19:08:00	BASE	0.50	269	2.11	221	-1.9	100	-1.9	267	0	999.4	NA	0.0000		9999	520	0	0	0
2019/12/01 19:09:00	BASE	0.97	229	2.11	221	-2.0	100	-2.0	266	0	999.5	NA	0.0000		9999	490	0	0	0
2019/12/01 19:10:00	BASE	0.56	228	2.11	221	-2.0	100	-2.0	266	0	999.5	NA	0.0000		9999	520	0	0	0
2019/12/01 19:11:00	BASE	0.00	230	2.06	237	-2.0	100	-2.0	264	0	999.4	NA	0.0000		9999	490	0	0	0
2019/12/01 19:12:00	BASE	0.09	226	1.59	354	-2.0	100	-2.0	261	0	999.5	NA	0.0000		9999	490	0	0	0
2019/12/01 19:13:00	BASE	0.80	226	1.90	237	-2.0	100	-2.0	258	0	999.5	NA	0.0000		9999	490	0	0	0
2019/12/01 19:14:00	BASE	1.62	231	2.16	230	-2.0	100	-2.0	256	0	999.5	NA	0.0000		9999	460	0	0	0
2019/12/01 19:15:00	BASE	1.65	232	2.16	230	-2.0	100	-2.0	257	0	999.2	NA	0.0000		9999	460	0	0	0
2019/12/01 19:16:00	BASE	1.70	226	2.16	225	-1.9	100	-1.9	258	0	999.4	NA	0.0000		9999	490	0	0	0
2019/12/01 19:17:00	BASE	1.87	229	2.21	244	-2.0	100	-2.0	260	0	999.5	NA	0.0000		9999	490	0	0	0
2019/12/01 19:18:00	BASE	1.97	224	2.73	210	-2.0	100	-2.0	259	0	999.5	NA	0.0000		9999	490	0	0	0
2019/12/01 19:19:00	BASE	2.23	217	2.73	210	-2.0	100	-2.0	257	0	999.5	NA	0.0000		9999	490	0	0	0
2019/12/01 19:20:00	BASE	2.37	221	2.73	210	-2.0	100	-2.0	258	0	999.5	NA	0.0000		9999	460	0	0	0
2019/12/01 19:21:00	BASE	2.19	216	2.73	210	-2.0	100	-2.0	260	0	999.5	NA	0.0000		9999	490	0	0	0
2019/12/01 19:22:00	BASE	1.61	226	2.73	210	-2.1	100	-2.1	259	0	999.5	NA	0.0000		9999	460	0	0	0
2019/12/01 19:23:00	BASE	1.04	241	2.73	210	-2.1	100	-2.1	257	0	999.5	NA	0.0000		9999	490	0	0	0
2019/12/01 19:24:00	BASE	0.62	230	2.73	210	-2.2	100	-2.2	258	0	999.5	NA	0.0000		9999	460	0	0	0
2019/12/01 19:25:00	BASE	0.42	216	2.73	210	-2.2	100	-2.2	259	0	999.5	NA	0.0000		9999	460	0	0	0
2019/12/01 19:26:00	BASE	1.05	219	2.73	210	-2.1	100	-2.1	259	0	999.5	NA	0.0000		9999	460	0	0	0
2019/12/01 19:27:00	BASE	1.69	224	2.73	210	-2.1	100	-2.1	259	0	999.5	NA	0.0000		9999	460	0	0	0
2019/12/01 19:28:00	BASE	1.72	225	2.68	222	-2.1	100	-2.1	260	0	999.3	NA	0.0000		9999	520	0	0	0
2019/12/01 19:29:00	BASE	1.65	225	2.62	225	-2.0	100	-2.0	259	0	999.5	NA	0.0000		9999	520	0	0	0
2019/12/01 19:30:00	BASE	1.48	215	2.11	210	-2.0	100	-2.0	258	0	999.5	NA	0.0000		9999	490	0	0	0
2019/12/01 19:31:00	BASE	1.15	205	2.01	235	-2.0	100	-2.0	256	0	999.4	NA	0.0000		9999	460	0	0	0
2019/12/01 19:32:00	BASE	0.90	205	1.85	220	-2.0	100	-2.0	254	0	999.4	NA	0.0000		9999	460	0	0	0
2019/12/01 19:33:00	BASE	0.45	212	1.85	220	-2.0	100	-2.0	250	0	999.3	NA	0.0000		9999	460	0	0	0
2019/12/01 19:34:00	BASE	0.59	223	1.85	235	-2.1	100	-2.1	247	0	999.5	NA	0.0000		9999	490	0	0	0
2019/12/01 19:35:00	BASE	1.39	237	1.95	247	-2.1	100	-2.1	245	0	999.5	NA	0.0000		9999	490	0	0	0
2019/12/01 19:36:00	BASE	1.49	244	1.95	247	-2.1	100	-2.1	246	0	999.5	NA	0.0000		9999	460	0	0	0
2019/12/01 19:37:00	BASE	1.08	232	1.95	247	-2.1	100	-2.1	250	0	999.5	NA	0.0000		9999	460	0	0	0
2019/12/01 19:38:00	BASE	1.09	225	1.95	247	-2.1	100	-2.1	252	0	999.4	NA	0.0000		9999	460	0	0	0
2019/12/01 19:39:00	BASE	1.35	225	1.95	247	-2.1	100	-2.1	251	0	999.4	NA	0.0000		9999	460	0	0	0
2019/12/01 19:40:00	BASE	1.41	220	1.95	247	-2.1	100	-2.1	248	0	999.4	NA	0.0000		9999	460	0	0	0
2019/12/01 19:41:00	BASE	1.70	222	2.21	227	-2.1	100	-2.1	247	0	999.4	NA	0.0000		9999	460	0	0	0
2019/12/01 19:42:00	BASE	2.01	226	2.31	218	-2.1	100	-2.1	245	0	999.5	NA	0.0000		9999	490	0	0	0
2019/12/01 19:43:00	BASE	2.25	229	2.78	237	-2.1	100	-2.1	242	0	999.5	NA	0.0000		9999	490	0	0	0
2019/12/01 19:44:00	BASE	2.31	233	2.78	237	-2.2	100	-2.2	239	0	999.5	NA	0.0000		9999	460	0	0	0
2019/12/01 19:45:00	BASE	2.19	234	2.78	237	-2.2	100	-2.2	238	0	999.5	NA	0.0000		9999	460	0	0	0
2019/12/01 19:46:00	BASE	2.27	241	2.93	251	-2.2	100	-2.2	236	0	999.6	NA	0.0000		9999	460	0	0	0
2019/12/01 19:47:00	BASE	2.58	247	3.14	253	-2.2	100	-2.2	234	0	999.6	NA	0.0000		9999	490	0	0	0
2019/12/01 19:48:00	BASE	2.75	245	3.14	253	-2.2	100	-2.2	232	0	999.6	NA	0.0000		9999	490	0	0	0
2019/12/01 19:49:00	BASE	2.54	249	3.14	253	-2.2	100	-2.2	231	0	999.6	NA	0.0000		9999	490	0	0	0
2019/12/01 19:50:00	BASE	2.45	255	3.14	253	-2.2	100	-2.2	233	0	999.6	NA	0.0000		9999	490	0	0	0
2019/12/01 19:51:00	BASE	2.36	256	3.14	253	-2.1	100	-2.1	236	0	999.6	NA	0.0000		9999	490	0	0	0
2019/12/01 19:52:00	BASE	2.10	248	3.14	253	-2.1	100	-2.1	237	0	999.6	NA	0.0000		9999	490	0	0	0
2019/12/01 19:53:00	BASE	2.12	243	3.14	253	-2.1	100	-2.1	237	0	999.6	NA	0.0000		9999	460	0	0	0
2019/12/01 19:54:00	BASE	2.12	242	3.14	253	-2.1	100	-2.1	236	0	999.6	NA	0.0000		9999	520	22310	0	0
2019/12/01 19:55:00	BASE	1.88	239	3.14	253	-2.1	100	-2.1	237	0	999.6	NA	0.0000		9999	520	0	0	0
2019/12/01 19:56:00	BASE	1.49	244	3.14	253	-2.0	100	-2.0	239	0	999.6	NA	0.0000		9999	520	0	0	0
2019/12/01 19:57:00	BASE	1.44	236	2.93	245	-2.0	100	-2.0	240	0	999.6	NA	0.0000		9999	490	0	0	0
2019/12/01 19:58:00	BASE	1.84	217	2.93	245	-2.0	100	-2.0	240	0	999.5	NA	0.0000		9999	490	0	0	0
2019/12/01 19:59:00	BASE	1.94	209	2.93	245	-2.0	100	-2.0	240	0	999.5	NA	0.0000		9999	520	0	0	0
2019/12/01 20:00:00	BASE	2.07	211	2.88	226	-2.1	100	-2.1	238	0	999.5	NA	0.0000		9999	490	0	0	0
2019/12/01 20:01:00	BASE	2.26	220	2.88	226	-2.1	100	-2.1	234	0	999.5	NA	0.0000		9999	490	0	0	0
2019/12/01 20:02:00	BASE	2.14	220	2.88	226	-2.2	100	-2.2	230	0	999.5	NA	0.0000		9999	490	0	0	0
2019/12/01 20:03:00	BASE	2.14	212	3.29	216	-2.2	100	-2.2	226	0	999.4	NA	0.0000		9999	490	0	0	0
2019/12/01 20:04:00	BASE	2.03	216	3.29	216	-2.3	100	-2.3	224	0	999.5	NA	0.0000		9999	460	0	0	0
2019/12/01 20:05:00	BASE	1.69	215	3.29	216	-2.3	100	-2.3	224	0	999.5	NA	0.0000		9999	460	20150	0	0
2019/12/01 20:06:00	BASE	1.58	207	3.29	216	-2.3	100	-2.3	224	0	999.5	NA	0.0000		9999	460	0	0	0
2019/12/01 20:07:00	BASE	1.41	204	3.29	216	-2.3	100	-2.3	224	0	999.5	NA	0.0000		9999	430	0	0	0
2019/12/01 20:08:00	BASE	1.42	210	3.29	216	-2.3	100	-2.3	220	0	999.5	NA	0.0000		9999	460	0	0	0
2019/12/01 20:09:00	BASE	1.53	214	3.29	216	-2.3	100	-2.3	217	0	999.5	NA	0.0000		9999	460	0	0	0
2019/12/01 20:10:00	BASE	1.46	214	3.29	216	-2.3	100	-2.3	216	0	999.5	NA	0.0000		9999	490	0	0	0
2019/12/01 20:11:00	BASE	1.39	214	3.29	216	-2.3	100	-2.3	214	0	999.5	NA	0.0000		9999	460	0	0	0
2019/12/01 20:12:00	BASE	1.50	215	3.29	216	-2.2	100	-2.2	213	0	999.5	NA	0.0000		9999	490	0	0	0
2019/12/01 20:13:00	BASE	1.70	215	2.21	221	-2.2	100	-2.2	216	0	999.5	NA	0.0000		9999	460	0	0	0
2019/12/01 20:14:00	BASE	1.46	211	2.16	213	-2.3	100	-2.3	218	0	999.5	NA	0.0000		9999	460	0	0	0
2019/12/01 20:15:00	BASE	0.91	202	2.16	213	-2.3	100	-2.3	217	0	999.5	NA	0.0000		9999	460	0	0	0
2019/12/01 20:16:00	BASE	1.24	206	2.21	219	-2.3	100	-2.3	216	0	999.5	NA	0.0000		9999	460	0	0	0
2019/12/01 20:17:00	BASE	1.60	210	2.21	219	-2.3	100	-2.3	218	0	999.4	NA	0.0000		9999	460	0	0	0
2019/12/01 20:18:00	BASE	1.04	200	2.21	219	-2.3	100	-2.3	220	0	999.4	NA	0.0000		9999	460	0	0	0
2019/12/01 20:19:00	BASE	0.82	199	2.21	219	-2.3	100	-2.3	220	0	999.3	NA	0.0000		9999	490	0	0	0
2019/12/01 20:20:00	BASE	1.45	202	2.57	198	-2.3	100	-2.3	218	0	999.4	NA	0.0000		9999	460	0	0	0
2019/12/01 20:21:00	BASE	2.08	199	2.57	198	-2.3	100	-2.3	216	0	999.3	NA	0.0000		9999	430	0	0	0
2019/12/01 20:22:00	BASE	1.92	197	2.57	198	-2.3	100	-2.3	217	0	999.2	NA	0.0000		9999	430	0	0	0
2019/12/01 20:23:00	BASE	1.56	202	2.57	198	-2.3	100	-2.3	219	0	999.2	NA	0.0000		9999	430	0	0	0
2019/12/01 20:24:00	BASE	0.87	203	2.57	198	-2.3	100	-2.3	222	0	999.2	NA	0.0000		9999	430	0	0	0
2019/12/01 20:25:00	BASE	0.86	199	2.57	198	-2.4	100	-2.4	225	0	999.2	NA	0.0000		9999	460	0	0	0
2019/12/01 20:26:00	BASE	1.40	196	2.57	198	-2.4	100	-2.4	229	0	999.2	NA	0.0000		9999	390	0	0	0
2019/12/01 20:27:00	BASE	1.10	194	2.57	198	-2.4	100	-2.4	234	0	999.1	NA	0.0000		9999	430	0	0	0
2019/12/01 20:28:00	BASE	0.72	191	2.57	198	-2.4	100	-2.4	237	0	999.1	NA	0.0000		9999	430	0	0	0
2019/12/01 20:29:00	BASE	0.35	189	2.57	198	-2.3	100	-2.3	237	0	999.1	NA	0.0000		9999	390	0	0	0
2019/12/01 20:30:00	BASE	0.09	192	2.52	192	-2.3	100	-2.3	235	0	999.1	NA	0.0000		9999	430	0	0	0
2019/12/01 20:31:00	BASE	0.13	192	1.85	196	-2.3	100	-2.3	230	0	999.1	NA	0.0000		9999	460	0	0	0
2019/12/01 20:32:00	BASE	0.09	174	1.75	194	-2.3	100	-2.3	225	0	999.2	NA	0.0000		9999	490	0	0	0
2019/12/01 20:33:00	BASE	0.00	155	1.75	194	-2.2	100	-2.2	220	0	999.2	NA	0.0000		9999	490	0	0	0
2019/12/01 20:34:00	BASE	0.00	145	1.75	194	-2.2	100	-2.2	216	0	999.2	NA	0.0000		9999	490	0	0	0
2019/12/01 20:35:00	BASE	0.17	136	1.70	194	-2.1	100	-2.1	212	0	999.1	NA	0.0000		9999	490	0	0	0
2019/12/01 20:36:00	BASE	0.85	120	1.70	194	-2.0	100	-2.0	208	0	999.1	NA	0.0000		9999	490	0	0	0
2019/12/01 20:37:00	BASE	1.48	110	1.90	107	-2.0	100	-2.0	204	0	999.1	NA	0.0000		9999	490	0	0	0
2019/12/01 20:38:00	BASE	1.44	102	1.90	107	-2.0	100	-2.0	200	0	999.1	NA	0.0000		9999	490	0	0	0
2019/12/01 20:39:00	BASE	1.15	98	1.90	107	-2.1	100	-2.1	195	0	999.1	NA	0.0000		9999	460	0	0	0
2019/12/01 20:40:00	BASE	0.55	106	1.90	107	-2.1	100	-2.1	191	0	999.2	NA	0.0000		9999	460	0	0	0
2019/12/01 20:41:00	BASE	0.04	109	1.90	107	-2.1	100	-2.1	189	0	999.2	NA	0.0000		9999	430	0	0	0
2019/12/01 20:42:00	BASE	0.00	91	1.90	107	-2.1	100	-2.1	188	0	999.2	NA	0.0000		9999	460	0	0	0
2019/12/01 20:43:00	BASE	0.00	102	1.90	107	-2.0	100	-2.0	188	0	999.2	NA	0.0000		9999	490	0	0	0
2019/12/01 20:44:00	BASE	0.00	148	1.90	107	-2.0	100	-2.0	187	0	999.2	NA	0.0000		9999	490	0	0	0
2019/12/01 20:45:00	BASE	0.00	157	1.90	107	-2.0	100	-2.0	186	0	999.2	NA	0.0000		9999	490	0	0	0
2019/12/01 20:46:00	BASE	0.00	148	1.90	107	-2.0	100	-2.0	187	0	999.2	NA	0.0000		9999	490	0	0	0
2019/12/01 20:47:00	BASE	0.00	136	1.44	103	-2.1	100	-2.1	188	0	999.2	NA	0.0000		9999	490	0	0	0
2019/12/01 20:48:00	BASE	0.22	64	1.54	349	-2.0	100	-2.0	189	0	999.2	NA	0.0000		9999	490	0	0	0
2019/12/01 20:49:00	BASE	0.27	34	1.54	349	-1.9	100	-1.9	190	0	999.2	NA	0.0000		9999	520	0	0	0
2019/12/01 20:50:00	BASE	0.72	82	1.85	110	-1.8	100	-1.8	189	0	999.2	NA	0.0000		9999	560	0	0	0
2019/12/01 20:51:00	BASE	1.49	111	2.11	111	-1.8	100	-1.8	187	0	999.2	NA	0.0000		9999	490	0	0	0
2019/12/01 20:52:00	BASE	1.52	124	2.11	111	-1.7	100	-1.7	185	0	999.2	NA	0.0000		9999	490	0	0	0
2019/12/01 20:53:00	BASE	1.41	137	2.11	111	-1.7	100	-1.7	182	0	999.2	NA	0.0000		9999	490	0	0	0
2019/12/01 20:54:00	BASE	1.43	143	2.11	111	-1.7	100	-1.7	180	0	999.2	NA	0.0000		9999	430	0	0	0
2019/12/01 20:55:00	BASE	1.02	144	2.11	111	-1.7	100	-1.7	179	0	999.2	NA	0.0000		9999	430	0	0	0
2019/12/01 20:56:00	BASE	0.77	175	2.11	111	-1.8	100	-1.8	178	0	999.2	NA	0.0000		9999	460	0	0	0
2019/12/01 20:57:00	BASE	1.10	210	2.11	111	-1.8	100	-1.8	179	0	999.3	NA	0.0000		9999	490	0	0	0
2019/12/01 20:58:00	BASE	1.28	215	2.11	111	-2.0	100	-2.0	181	0	999.4	NA	0.0000		9999	490	0	0	0
2019/12/01 20:59:00	BASE	1.22	194	2.11	111	-2.0	100	-2.0	182	0	999.4	NA	0.0000		9999	490	0	0	0
2019/12/01 21:00:00	BASE	1.08	166	2.11	111	-2.0	100	-2.0	184	0	999.3	NA	0.0000		9999	490	0	0	0
2019/12/01 21:01:00	BASE	0.88	150	1.95	186	-2.0	100	-2.0	184	0	999.2	NA	0.0000		9999	460	0	0	0
2019/12/01 21:02:00	BASE	0.83	155	1.95	186	-2.0	100	-2.0	185	0	999.2	NA	0.0000		9999	490	0	0	0
2019/12/01 21:03:00	BASE	0.54	176	1.95	186	-2.0	100	-2.0	186	0	999.2	NA	0.0000		9999	490	0	0	0
2019/12/01 21:04:00	BASE	0.09	186	1.95	186	-2.0	100	-2.0	184	0	999.2	NA	0.0000		9999	460	0	0	0
2019/12/01 21:05:00	BASE	0.00	176	1.95	186	-2.0	100	-2.0	182	0	999.3	NA	0.0000		9999	460	0	0	0
2019/12/01 21:06:00	BASE	0.00	167	1.95	186	-2.1	100	-2.1	181	0	999.2	NA	0.0000		9999	490	0	0	0
2019/12/01 21:07:00	BASE	0.00	158	1.95	186	-2.1	100	-2.1	181	0	999.2	NA	0.0000		9999	490	0	0	0
2019/12/01 21:08:00	BASE	0.00	155	1.85	189	-2.0	100	-2.0	180	0	999.2	NA	0.0000		9999	490	0	0	0
2019/12/01 21:09:00	BASE	0.87	162	2.21	183	-1.9	100	-1.9	178	0	999.2	NA	0.0000		9999	490	0	0	0
2019/12/01 21:10:00	BASE	1.66	164	2.21	188	-1.9	100	-1.9	176	0	999.2	NA	0.0000		9999	460	19030	0	0
2019/12/01 21:11:00	BASE	0.83	187	2.21	188	-1.9	100	-1.9	176	0	999.2	NA	0.0000		9999	430	0	0	0
2019/12/01 21:12:00	BASE	0.54	194	2.21	188	-1.9	100	-1.9	175	0	999.2	NA	0.0000		9999	460	0	0	0
2019/12/01 21:13:00	BASE	0.59	175	2.21	188	-2.0	100	-2.0	173	0	999.2	NA	0.0000		9999	460	0	0	0
2019/12/01 21:14:00	BASE	0.92	172	2.21	188	-2.1	100	-2.1	172	0	999.2	NA	0.0000		9999	490	0	0	0
2019/12/01 21:15:00	BASE	1.95	178	2.37	183	-2.1	100	-2.1	170	0	999.1	NA	0.0000		9999	490	0	0	0
2019/12/01 21:16:00	BASE	2.20	181	2.47	183	-2.1	100	-2.1	169	0	999.1	NA	0.0000		9999	490	0	0	0
2019/12/01 21:17:00	BASE	1.34	183	2.47	183	-2.0	100	-2.0	168	0	999.1	NA	0.0000		9999	490	0	0	0
2019/12/01 21:18:00	BASE	0.94	187	2.47	183	-2.0	100	-2.0	169	0	999.1	NA	0.0000		9999	460	0	0	0
2019/12/01 21:19:00	BASE	0.72	187	2.47	183	-2.0	100	-2.0	171	0	999.1	NA	0.0000		9999	460	0	0	0
2019/12/01 21:20:00	BASE	0.58	186	2.47	183	-2.0	100	-2.0	172	0	999.1	NA	0.0000		9999	460	0	0	0
2019/12/01 21:21:00	BASE	1.48	196	2.52	213	-2.0	100	-2.0	171	0	999.1	NA	0.0000		9999	490	0	0	0
2019/12/01 21:22:00	BASE	1.87	216	2.52	213	-2.0	100	-2.0	169	0	999.1	NA	0.0000		9999	490	0	0	0
2019/12/01 21:23:00	BASE	1.75	221	2.52	213	-2.1	100	-2.1	168	0	999.1	NA	0.0000		9999	490	0	0	0
2019/12/01 21:24:00	BASE	1.66	224	2.52	213	-2.1	100	-2.1	168	0	999.1	NA	0.0000		9999	490	0	0	0
2019/12/01 21:25:00	BASE	1.74	225	2.52	213	-2.1	100	-2.1	166	0	999.1	NA	0.0000		9999	490	0	0	0
2019/12/01 21:26:00	BASE	1.70	213	2.52	213	-2.1	100	-2.1	166	0	999.1	NA	0.0000		9999	490	0	0	0
2019/12/01 21:27:00	BASE	1.45	211	2.52	213	-2.1	100	-2.1	165	0	999.2	NA	0.0000		9999	460	0	0	0
2019/12/01 21:28:00	BASE	1.67	214	2.52	213	-2.1	100	-2.1	162	0	999.2	NA	0.0000		9999	490	0	0	0
2019/12/01 21:29:00	BASE	1.97	217	2.52	213	-2.1	100	-2.1	158	0	999.2	NA	0.0000		9999	490	0	0	0
2019/12/01 21:30:00	BASE	2.12	223	2.57	228	-2.1	100	-2.1	154	0	999.2	NA	0.0000		9999	490	0	0	0
2019/12/01 21:31:00	BASE	2.09	227	2.57	228	-2.1	100	-2.1	153	0	999.2	NA	0.0000		9999	460	0	0	0
2019/12/01 21:32:00	BASE	1.39	236	2.57	228	-2.1	100	-2.1	153	0	999.2	NA	0.0000		9999	460	0	0	0
2019/12/01 21:33:00	BASE	1.28	242	2.57	228	-2.2	100	-2.2	152	0	999.2	NA	0.0000		9999	460	0	0	0
2019/12/01 21:34:00	BASE	1.57	243	2.57	228	-2.2	100	-2.2	150	0	999.2	NA	0.0000		9999	490	0	0	0
2019/12/01 21:35:00	BASE	1.41	240	2.57	228	-2.2	100	-2.2	150	0	999.2	NA	0.0000		9999	460	0	0	0
2019/12/01 21:36:00	BASE	1.26	233	2.57	228	-2.2	100	-2.2	150	0	999.2	NA	0.0000		9999	460	0	0	0
2019/12/01 21:37:00	BASE	1.26	230	2.57	228	-2.2	100	-2.2	149	0	999.2	NA	0.0000		9999	490	0	0	0
2019/12/01 21:38:00	BASE	0.92	228	2.57	228	-2.2	100	-2.2	146	0	999.1	NA	0.0000		9999	490	0	0	0
2019/12/01 21:39:00	BASE	0.41	210	2.57	228	-2.1	100	-2.1	143	0	999.1	NA	0.0000		9999	490	0	0	0
2019/12/01 21:40:00	BASE	0.30	175	2.42	224	-2.1	100	-2.1	140	0	999.1	NA	0.0000		9999	490	0	0	0
2019/12/01 21:41:00	BASE	0.96	139	1.95	238	-2.0	100	-2.0	138	0	999.1	NA	0.0000		9999	490	0	0	0
2019/12/01 21:42:00	BASE	1.64	125	1.95	126	-2.0	100	-2.0	136	0	999.1	NA	0.0000		9999	460	0	0	0
2019/12/01 21:43:00	BASE	1.67	119	1.95	126	-2.0	100	-2.0	134	0	999.1	NA	0.0000	UP	9999	460	0	0	0
2019/12/01 21:44:00	BASE	1.93	121	2.62	126	-2.0	100	-2.0	130	0	999.1	NA	0.0000	UP	9999	460	0	0	0
2019/12/01 21:45:00	BASE	2.03	136	2.62	126	-2.0	100	-2.0	126	0	999.1	NA	0.0000	UP	9999	460	0	0	0
2019/12/01 21:46:00	BASE	1.63	141	2.62	126	-2.0	100	-2.0	125	0	999.1	NA	0.0000	UP	9999	430	0	0	0
2019/12/01 21:47:00	BASE	1.35	121	2.62	126	-2.0	100	-2.0	125	0	999.1	NA	0.0000	UP	9999	460	0	0	0
2019/12/01 21:48:00	BASE	1.12	111	2.62	126	-2.0	100	-2.0	125	0	999.1	NA	0.0000	UP	9999	460	0	0	0
2019/12/01 21:49:00	BASE	1.20	121	2.62	126	-2.1	100	-2.1	124	0	999.1	NA	0.0000	UP	9999	460	0	0	0
2019/12/01 21:50:00	BASE	1.24	124	2.62	126	-2.1	100	-2.1	122	0	999.1	NA	0.0000	UP	9999	460	0	0	0
2019/12/01 21:51:00	BASE	1.12	131	2.62	126	-2.1	100	-2.1	119	0	998.8	NA	0.0000	UP	9999	430	0	0	0
2019/12/01 21:52:00	BASE	1.04	137	2.62	126	-2.1	100	-2.1	118	0	999.2	NA	0.0000	UP	9999	430	0	0	0
2019/12/01 21:53:00	BASE	1.02	127	2.62	126	-2.1	100	-2.1	119	0	999.2	NA	0.0000	UP	9999	390	0	0	0
2019/12/01 21:54:00	BASE	1.00	116	2.31	142	-2.0	100	-2.0	120	0	999.2	NA	0.0000	UP	9999	460	0	0	0
2019/12/01 21:55:00	BASE	0.51	106	1.75	124	-2.0	100	-2.0	121	0	999.2	NA	0.0000	UP	9000	460	0	0	0
2019/12/01 21:56:00	BASE	0.76	105	1.75	109	-2.0	100	-2.0	120	0	999.1	NA	0.0000	UP	9999	430	0	0	0
2019/12/01 21:57:00	BASE	1.21	105	1.75	109	-2.0	100	-2.0	118	0	999.1	NA	0.0000	UP	9999	460	0	0	0
2019/12/01 21:58:00	BASE	1.20	98	1.75	109	-2.1	100	-2.1	115	0	999.1	NA	0.0000	UP	9999	460	0	0	0
2019/12/01 21:59:00	BASE	1.32	96	1.75	109	-2.1	100	-2.1	111	0	999.1	NA	0.0000	UP	9999	460	0	0	0
2019/12/01 22:00:00	BASE	1.21	98	1.75	109	-2.1	100	-2.1	107	0	999.1	NA	0.0000	UP	9999	460	0	0	0
2019/12/01 22:01:00	BASE	1.34	107	2.06	119	-2.1	100	-2.1	104	0	999.1	NA	0.0000	UP	9999	460	0	0	0
2019/12/01 22:02:00	BASE	1.37	109	2.06	119	-2.1	100	-2.1	103	0	998.8	NA	0.0000	UP	9999	430	0	0	0
2019/12/01 22:03:00	BASE	1.34	100	2.06	119	-2.1	100	-2.1	104	0	999.2	NA	0.0000	UP	9999	390	0	0	0
2019/12/01 22:04:00	BASE	1.50	94	2.06	119	-2.1	100	-2.1	105	0	999.1	NA	0.0000	UP	9999	430	0	0	0
2019/12/01 22:05:00	BASE	1.18	82	2.06	119	-2.1	100	-2.1	106	0	999.1	NA	0.0000	UP	9999	430	0	0	0
2019/12/01 22:06:00	BASE	0.51	77	2.06	119	-2.2	100	-2.2	105	0	999.1	NA	0.0000	UP	9999	460	0	0	0
2019/12/01 22:07:00	BASE	0.09	105	2.06	119	-2.2	100	-2.2	104	0	999.1	NA	0.0000		9999	460	0	0	0
2019/12/01 22:08:00	BASE	0.00	126	2.06	119	-2.2	100	-2.2	104	0	999.1	NA	0.0000		9999	460	0	0	0
2019/12/01 22:09:00	BASE	0.00	115	2.06	119	-2.1	100	-2.1	103	0	999.1	NA	0.0000		9999	460	0	0	0
2019/12/01 22:10:00	BASE	0.00	117	2.06	119	-2.1	100	-2.1	102	0	999.1	NA	0.0000		9999	520	0	0	0
2019/12/01 22:11:00	BASE	0.00	123	1.85	99	-2.0	100	-2.0	101	0	999.1	NA	0.0000		9999	520	0	0	0
2019/12/01 22:12:00	BASE	0.00	125	1.85	99	-2.0	100	-2.0	100	0	999.1	NA	0.0000		9999	460	0	0	0
2019/12/01 22:13:00	BASE	0.00	133	1.65	82	-2.0	100	-2.0	99	0	999.1	NA	0.0000		9999	460	0	0	0
2019/12/01 22:14:00	BASE	0.17	127	1.29	94	-2.0	100	-2.0	99	0	999.1	NA	0.0000	UP	9999	490	0	0	0
2019/12/01 22:15:00	BASE	0.17	117	1.08	105	-2.0	100	-2.0	99	0	999.1	NA	0.0000	UP	9999	460	0	0	0
2019/12/01 22:16:00	BASE	0.09	125	1.18	130	-2.0	100	-2.0	97	0	999.1	NA	0.0000	UP	9999	430	0	0	0
2019/12/01 22:17:00	BASE	0.09	135	1.18	130	-2.0	100	-2.0	96	0	999.1	NA	0.0000	UP	9999	430	0	0	0
2019/12/01 22:18:00	BASE	0.00	135	1.18	130	-2.1	100	-2.1	96	0	999.1	NA	0.0000	UP	9999	430	0	0	0
2019/12/01 22:19:00	BASE	0.00	118	1.18	130	-2.1	100	-2.1	95	0	999.1	NA	0.0000	UP	9999	460	0	0	0
2019/12/01 22:20:00	BASE	0.00	90	1.18	130	-2.1	100	-2.1	94	0	999.1	NA	0.0000	UP	9999	430	0	0	0
2019/12/01 22:21:00	BASE	0.00	94	1.18	130	-2.1	100	-2.1	93	0	999.1	NA	0.0000	UP	9999	460	0	0	0
2019/12/01 22:22:00	BASE	0.00	125	1.18	130	-2.0	100	-2.0	91	0	999.1	NA	0.0000	UP	9000	460	0	0	0
2019/12/01 22:23:00	BASE	0.00	164	1.18	130	-2.0	100	-2.0	88	0	999.2	NA	0.0000	UP	9999	460	0	0	0
2019/12/01 22:24:00	BASE	0.28	196	1.49	195	-2.0	100	-2.0	87	0	999.2	NA	0.0000	UP	9999	460	0	0	0
2019/12/01 22:25:00	BASE	0.95	197	1.54	190	-1.9	100	-1.9	86	0	999.3	NA	0.0000	UP	9000	460	0	0	0
2019/12/01 22:26:00	BASE	1.07	194	1.54	190	-1.9	100	-1.9	85	0	999.4	NA	0.0000	UP	7000	430	0	0	0
2019/12/01 22:27:00	BASE	0.64	194	1.54	190	-2.0	100	-2.0	84	0	999.4	NA	0.0000	UP	7000	430	0	0	0
2019/12/01 22:28:00	BASE	0.23	188	1.54	190	-2.0	100	-2.0	83	0	999.5	NA	0.0000	UP BR	9000	430	0	0	0
2019/12/01 22:29:00	BASE	0.14	208	1.54	190	-2.1	100	-2.1	83	0	999.5	NA	0.0000	UP BR	8000	430	0	0	0
2019/12/01 22:30:00	BASE	0.79	256	1.54	259	-2.1	100	-2.1	83	0	999.5	NA	0.0000	UP BR	9999	460	0	0	0
2019/12/01 22:31:00	BASE	1.31	287	1.65	285	-2.1	100	-2.1	82	0	999.5	NA	0.0000	UP BR	9000	460	0	0	0
2019/12/01 22:32:00	BASE	0.90	301	1.65	285	-2.1	100	-2.1	83	0	999.5	NA	0.0000	UP BR	9000	430	0	0	0
2019/12/01 22:33:00	BASE	0.24	307	1.65	285	-2.1	100	-2.1	85	0	999.4	NA	0.0000	UP BR	9000	430	0	0	0
2019/12/01 22:34:00	BASE	0.00	280	1.65	285	-2.0	100	-2.0	87	0	999.4	NA	0.0000	UP BR	9999	460	0	0	0
2019/12/01 22:35:00	BASE	0.00	228	1.65	285	-2.0	100	-2.0	87	0	999.3	NA	0.0000	UP BR	9000	460	0	0	0
2019/12/01 22:36:00	BASE	0.05	194	1.65	285	-2.0	100	-2.0	87	0	999.2	NA	0.0000	UP BR	9000	460	0	0	0
2019/12/01 22:37:00	BASE	0.86	185	1.95	192	-2.0	100	-2.0	86	0	999.2	NA	0.0000	UP BR	9000	460	0	0	0
2019/12/01 22:38:00	BASE	1.50	190	1.95	192	-2.0	100	-2.0	84	0	999.2	NA	0.0000	UP BR	9000	460	0	0	0
2019/12/01 22:39:00	BASE	1.32	194	1.95	192	-2.0	100	-2.0	83	0	999.2	NA	0.0000	UP BR	9000	460	0	0	0
2019/12/01 22:40:00	BASE	1.45	207	1.95	192	-2.0	100	-2.0	82	0	999.1	NA	0.0000	UP BR	9000	460	0	0	0
2019/12/01 22:41:00	BASE	1.59	212	1.95	192	-2.1	100	-2.1	83	0	999.1	NA	0.0000	UP BR	9999	460	0	0	0
2019/12/01 22:42:00	BASE	1.28	200	1.95	204	-2.1	100	-2.1	82	0	999.1	NA	0.0000	UP	9999	490	0	0	0
2019/12/01 22:43:00	BASE	0.86	184	1.95	204	-2.1	100	-2.1	80	0	999.1	NA	0.0000	UP	9999	520	0	0	0
2019/12/01 22:44:00	BASE	1.17	195	2.01	215	-2.1	100	-2.1	80	0	999.1	NA	0.0000		9999	490	0	0	0
2019/12/01 22:45:00	BASE	1.76	206	2.16	212	-2.1	100	-2.1	82	0	999.1	NA	0.0000		9999	460	0	0	0
2019/12/01 22:46:00	BASE	1.72	202	2.16	212	-2.1	100	-2.1	82	0	999.1	NA	0.0000		9999	460	0	0	0
2019/12/01 22:47:00	BASE	1.49	198	2.16	212	-2.1	100	-2.1	81	0	999.1	NA	0.0000		9999	430	0	0	0
2019/12/01 22:48:00	BASE	1.49	203	2.16	212	-2.2	100	-2.2	80	0	999.1	NA	0.0000		9999	460	0	0	0
2019/12/01 22:49:00	BASE	1.59	213	2.16	212	-2.2	100	-2.2	78	0	999.2	NA	0.0000		9999	460	0	0	0
2019/12/01 22:50:00	BASE	1.35	208	2.16	212	-2.2	100	-2.2	78	0	999.2	NA	0.0000		9999	390	0	0	0
2019/12/01 22:51:00	BASE	0.75	202	2.16	212	-2.2	100	-2.2	80	0	999.2	NA	0.0000		9999	430	0	0	0
2019/12/01 22:52:00	BASE	0.22	207	2.16	212	-2.3	100	-2.3	82	0	999.1	NA	0.0000		9999	390	0	0	0
2019/12/01 22:53:00	BASE	0.00	189	2.16	212	-2.2	100	-2.2	82	0	999.1	NA	0.0000		9999	460	0	0	0
2019/12/01 22:54:00	BASE	0.00	157	2.16	212	-2.2	100	-2.2	80	0	999.1	NA	0.0000		9999	460	0	0	0
2019/12/01 22:55:00	BASE	0.00	172	2.01	208	-2.2	100	-2.2	78	0	999.1	NA	0.0000		9999	460	0	0	0
2019/12/01 22:56:00	BASE	0.00	182	2.01	208	-2.2	100	-2.2	77	0	999.1	NA	0.0000		9999	460	0	0	0
2019/12/01 22:57:00	BASE	0.00	155	2.01	208	-2.1	100	-2.1	76	0	999.1	NA	0.0000		9999	460	0	0	0
2019/12/01 22:58:00	BASE	0.00	151	1.95	219	-2.1	100	-2.1	74	0	999.1	NA	0.0000		9999	460	0	0	0
2019/12/01 22:59:00	BASE	0.04	159	1.23	193	-2.1	100	-2.1	74	0	999.1	NA	0.0000		9999	430	0	0	0
2019/12/01 23:00:00	BASE	0.44	167	1.39	177	-2.1	100	-2.1	74	0	999.1	NA	0.0000		9999	460	0	0	0
2019/12/01 23:01:00	BASE	1.16	167	1.75	159	-2.1	100	-2.1	74	0	999.1	NA	0.0000		9999	460	0	0	0
2019/12/01 23:02:00	BASE	1.39	167	2.06	162	-2.1	100	-2.1	74	0	999.1	NA	0.0000		9999	460	0	0	0
2019/12/01 23:03:00	BASE	1.32	181	2.31	194	-2.1	100	-2.1	75	0	999.1	NA	0.0000		9999	490	0	0	0
2019/12/01 23:04:00	BASE	0.73	190	2.31	194	-2.2	100	-2.2	76	0	999.0	NA	0.0000		9999	430	0	0	0
2019/12/01 23:05:00	BASE	0.05	182	2.31	194	-2.2	100	-2.2	76	0	999.0	NA	0.0000		9999	430	0	0	0
2019/12/01 23:06:00	BASE	0.00	171	2.31	194	-2.2	100	-2.2	74	0	999.0	NA	0.0000		9999	460	0	0	0
2019/12/01 23:07:00	BASE	0.19	153	2.31	194	-2.2	100	-2.2	71	0	999.0	NA	0.0000		9999	460	0	0	0
2019/12/01 23:08:00	BASE	1.04	139	2.31	194	-2.2	100	-2.2	67	0	999.0	NA	0.0000		9999	460	0	0	0
2019/12/01 23:09:00	BASE	1.70	137	2.31	194	-2.1	100	-2.1	64	0	999.0	NA	0.0000		9999	430	0	0	0
2019/12/01 23:10:00	BASE	1.67	135	2.31	194	-2.1	100	-2.1	61	0	998.2	NA	0.0000	UP	9000	390	0	0	0
2019/12/01 23:11:00	BASE	1.62	134	2.31	194	-2.1	100	-2.1	60	0	999.0	NA	0.0000	UP	9000	390	0	0	0
2019/12/01 23:12:00	BASE	1.63	139	2.31	152	-2.1	100	-2.1	60	0	999.1	NA	0.0000	UP	9999	430	0	0	0
2019/12/01 23:13:00	BASE	2.15	150	2.78	161	-2.1	100	-2.1	59	0	999.0	NA	0.0000	UP	9999	460	0	0	0
2019/12/01 23:14:00	BASE	2.47	160	2.78	161	-2.1	100	-2.1	59	0	999.0	NA	0.0000	UP	9999	430	0	0	0
2019/12/01 23:15:00	BASE	2.41	159	2.78	161	-2.1	100	-2.1	59	0	998.9	NA	0.0000	UP	9999	430	0	0	0
2019/12/01 23:16:00	BASE	2.51	148	2.78	161	-2.1	100	-2.1	60	0	998.9	NA	0.0000	UP	9999	430	0	0	0
2019/12/01 23:17:00	BASE	2.57	140	2.78	140	-2.2	100	-2.2	59	0	998.9	NA	0.0000	UP	9999	430	0	0	0
2019/12/01 23:18:00	BASE	2.51	138	2.78	133	-2.2	100	-2.2	59	0	998.9	NA	0.0000	UP	9999	390	0	0	0
2019/12/01 23:19:00	BASE	2.18	138	2.78	133	-2.3	100	-2.3	58	0	998.9	NA	0.0000	UP	9000	390	0	0	0
2019/12/01 23:20:00	BASE	2.03	139	2.78	133	-2.3	100	-2.3	57	0	998.8	NA	0.0000	UP	9999	390	0	0	0
2019/12/01 23:21:00	BASE	2.04	141	2.78	133	-2.3	100	-2.3	55	0	998.5	NA	0.0000	UP	9000	430	0	0	0
2019/12/01 23:22:00	BASE	1.68	152	2.78	133	-2.3	100	-2.3	54	0	998.9	NA	0.0000	UP	9999	430	0	0	0
2019/12/01 23:23:00	BASE	1.35	151	2.78	133	-2.3	100	-2.3	55	0	999.0	NA	0.0000	UP	9999	390	0	0	0
2019/12/01 23:24:00	BASE	0.85	139	2.78	133	-2.3	100	-2.3	56	0	998.9	NA	0.0000	UP	9999	430	0	0	0
2019/12/01 23:25:00	BASE	0.20	151	2.78	133	-2.3	100	-2.3	57	0	998.9	NA	0.0000	UP	9999	430	0	0	0
2019/12/01 23:26:00	BASE	0.00	166	2.78	133	-2.2	100	-2.2	57	0	998.9	NA	0.0000	UP	9999	460	0	0	0
2019/12/01 23:27:00	BASE	0.00	161	2.78	133	-2.3	100	-2.3	55	0	998.9	NA	0.0000	UP	9999	430	0	0	0
2019/12/01 23:28:00	BASE	0.00	151	2.57	140	-2.3	100	-2.3	54	0	998.9	NA	0.0000	UP	9999	430	0	0	0
2019/12/01 23:29:00	BASE	0.00	148	2.57	140	-2.4	100	-2.4	53	0	998.9	NA	0.0000	UP	9999	390	0	0	0
2019/12/01 23:30:00	BASE	0.17	146	2.11	145	-2.4	100	-2.4	52	0	998.8	NA	0.0000	UP	9999	430	0	0	0
2019/12/01 23:31:00	BASE	0.71	144	1.65	149	-2.4	100	-2.4	49	0	998.8	NA	0.0000		9999	390	0	0	0
2019/12/01 23:32:00	BASE	1.19	139	1.65	149	-2.4	100	-2.4	48	0	998.9	NA	0.0000		9999	360	0	0	0
2019/12/01 23:33:00	BASE	1.23	132	1.65	149	-2.4	100	-2.4	47	0	998.8	NA	0.0000		9999	390	0	0	0
2019/12/01 23:34:00	BASE	0.77	127	1.65	149	-2.3	100	-2.3	47	0	998.8	NA	0.0000		9999	430	0	0	0
2019/12/01 23:35:00	BASE	0.32	130	1.65	149	-2.4	100	-2.4	46	0	998.7	NA	0.0000		9999	360	0	0	0
2019/12/01 23:36:00	BASE	0.33	146	1.65	149	-2.4	100	-2.4	45	0	998.7	NA	0.0000		9000	430	0	0	0
2019/12/01 23:37:00	BASE	0.86	161	2.78	165	-2.4	100	-2.4	44	0	998.8	NA	0.0000	UP	9999	360	0	0	0
2019/12/01 23:38:00	BASE	1.78	162	2.78	165	-2.4	100	-2.4	43	0	998.8	NA	0.0000	UP	9999	430	0	0	0
2019/12/01 23:39:00	BASE	2.00	156	2.78	165	-2.3	100	-2.3	42	0	998.8	NA	0.0000	UP	9999	360	0	0	0
2019/12/01 23:40:00	BASE	1.16	153	2.78	165	-2.3	100	-2.3	42	0	998.8	NA	0.0000	UP	9999	360	0	0	0
2019/12/01 23:41:00	BASE	0.50	149	2.78	165	-2.3	100	-2.3	42	0	998.9	NA	0.0000	UP	9999	360	0	0	0
2019/12/01 23:42:00	BASE	0.53	143	2.78	165	-2.4	100	-2.4	41	0	998.9	NA	0.0000	UP	9999	360	0	0	0
2019/12/01 23:43:00	BASE	0.77	161	2.78	165	-2.4	100	-2.4	41	0	998.9	NA	0.0000	UP	9000	360	0	0	0
2019/12/01 23:44:00	BASE	1.07	194	2.78	165	-2.4	100	-2.4	40	0	998.9	NA	0.0000	UP	9999	360	0	0	0
2019/12/01 23:45:00	BASE	0.88	206	2.78	165	-2.4	100	-2.4	40	0	999.0	NA	0.0000	UP	9999	360	0	0	0
2019/12/01 23:46:00	BASE	0.47	199	2.78	165	-2.4	100	-2.4	39	0	999.0	NA	0.0000	UP	9999	430	0	0	0
2019/12/01 23:47:00	BASE	0.24	198	2.52	163	-2.4	100	-2.4	38	0	999.0	NA	0.0000	UP	9999	390	0	0	0
2019/12/01 23:48:00	BASE	0.04	201	2.01	159	-2.4	100	-2.4	39	0	999.1	NA	0.0000	UP	9999	390	0	0	0
2019/12/01 23:49:00	BASE	0.00	197	1.80	211	-2.4	100	-2.4	39	0	999.1	NA	0.0000	UP	9999	430	0	0	0
2019/12/01 23:50:00	BASE	0.00	195	1.80	211	-2.4	100	-2.4	39	0	999.0	NA	0.0000	UP	9000	390	0	0	0
2019/12/01 23:51:00	BASE	0.00	174	1.80	211	-2.3	100	-2.3	38	0	999.0	NA	0.0000	UP	9000	390	0	0	0
2019/12/01 23:52:00	BASE	0.10	153	1.80	211	-2.3	100	-2.3	36	0	999.0	NA	0.0000	UP BR	9000	390	0	0	0
2019/12/01 23:53:00	BASE	0.10	159	1.80	211	-2.2	100	-2.2	35	0	999.0	NA	0.0000	UP BR	9000	430	0	0	0
2019/12/01 23:54:00	BASE	0.00	172	1.29	217	-2.1	100	-2.1	35	0	999.0	NA	0.0000	UP BR	9000	460	0	0	0
2019/12/01 23:55:00	BASE	0.00	171	1.29	217	-2.1	100	-2.1	35	0	999.0	NA	0.0000	UP BR	9999	460	0	0	0
2019/12/01 23:56:00	BASE	0.54	175	1.49	240	-2.1	100	-2.1	36	0	999.1	NA	0.0000	UP	9999	460	0	0	0
2019/12/01 23:57:00	BASE	1.59	204	2.42	222	-2.1	100	-2.1	37	0	999.1	NA	0.0000	UP BR	9000	430	0	0	0
2019/12/01 23:58:00	BASE	1.85	218	2.42	222	-2.2	100	-2.2	38	0	999.1	NA	0.0000	UP BR	9999	360	0	0	0
2019/12/01 23:59:00	BASE	1.56	222	2.42	222	-2.2	100	-2.2	37	0	999.1	NA	0.0000	UP	9999	460	0	0	0